<?xml version="1.0" encoding="UTF-8" standalone="no" ?>
<gpx xmlns="http://www.topografix.com/GPX/1/1" xmlns:xsi="http://www.w3.org/2001/XMLSchema-instance" xsi:schemaLocation="http://www.topografix.com/GPX/1/1 http://www.topografix.com/GPX/1/1/gpx.xsd" version="1.1" creator="VisuGPX - https://www.visugpx.com">
  <metadata>
    <name>qcc 26-04-26 gr2</name>
  </metadata>
  <trk>
    <name><![CDATA[qcc 28-04-24 gr2_1]]></name>
    <extensions>
      <line xmlns="http://www.topografix.com/GPX/gpx_style/0/2">
        <color>0000FF</color>
        <opacity>1</opacity>
        <width>4</width>
      </line>
    </extensions>
    <trkseg>
      <trkpt lat="48.00684" lon="-4.1161">
        <ele>6.6</ele>
        <time>2024-04-10T16:40:32.000Z</time>
      </trkpt>
      <trkpt lat="48.00657" lon="-4.11625">
        <ele>6.3</ele>
        <time>2024-04-10T16:40:36.279Z</time>
      </trkpt>
      <trkpt lat="48.00649" lon="-4.11631">
        <ele>6.3</ele>
        <time>2024-04-10T16:40:37.742Z</time>
      </trkpt>
      <trkpt lat="48.00643" lon="-4.11635">
        <ele>6.1</ele>
        <time>2024-04-10T16:40:38.569Z</time>
      </trkpt>
      <trkpt lat="48.00638" lon="-4.11642">
        <ele>6</ele>
        <time>2024-04-10T16:40:39.550Z</time>
      </trkpt>
      <trkpt lat="48.00633" lon="-4.11645">
        <ele>6</ele>
        <time>2024-04-10T16:40:40.430Z</time>
      </trkpt>
      <trkpt lat="48.00626" lon="-4.11648">
        <ele>6.2</ele>
        <time>2024-04-10T16:40:42.014Z</time>
      </trkpt>
      <trkpt lat="48.00619" lon="-4.11646">
        <ele>6.2</ele>
        <time>2024-04-10T16:40:43.179Z</time>
      </trkpt>
      <trkpt lat="48.00613" lon="-4.11648">
        <ele>6.3</ele>
        <time>2024-04-10T16:40:44.362Z</time>
      </trkpt>
      <trkpt lat="48.00596" lon="-4.11658">
        <ele>6.3</ele>
        <time>2024-04-10T16:40:47.348Z</time>
      </trkpt>
      <trkpt lat="48.00537" lon="-4.117">
        <ele>6.5</ele>
        <time>2024-04-10T16:40:58.350Z</time>
      </trkpt>
      <trkpt lat="48.00511" lon="-4.11712">
        <ele>6.6</ele>
        <time>2024-04-10T16:41:02.959Z</time>
      </trkpt>
      <trkpt lat="48.00484" lon="-4.11719">
        <ele>7.5</ele>
        <time>2024-04-10T16:41:09.297Z</time>
      </trkpt>
      <trkpt lat="48.00478" lon="-4.11721">
        <ele>7.7</ele>
        <time>2024-04-10T16:41:10.714Z</time>
      </trkpt>
      <trkpt lat="48.00469" lon="-4.11731">
        <ele>8</ele>
        <time>2024-04-10T16:41:13.133Z</time>
      </trkpt>
      <trkpt lat="48.00459" lon="-4.11758">
        <ele>9.1</ele>
        <time>2024-04-10T16:41:19.274Z</time>
      </trkpt>
      <trkpt lat="48.00423" lon="-4.11729">
        <ele>8.2</ele>
        <time>2024-04-10T16:41:24.776Z</time>
      </trkpt>
      <trkpt lat="48.00419" lon="-4.11734">
        <ele>8.4</ele>
        <time>2024-04-10T16:41:26.063Z</time>
      </trkpt>
      <trkpt lat="48.00416" lon="-4.11732">
        <ele>8.4</ele>
        <time>2024-04-10T16:41:26.600Z</time>
      </trkpt>
      <trkpt lat="48.00415" lon="-4.11728">
        <ele>8.2</ele>
        <time>2024-04-10T16:41:26.881Z</time>
      </trkpt>
      <trkpt lat="48.00393" lon="-4.1169">
        <ele>7</ele>
        <time>2024-04-10T16:41:30.944Z</time>
      </trkpt>
      <trkpt lat="48.00384" lon="-4.11673">
        <ele>7</ele>
        <time>2024-04-10T16:41:33.315Z</time>
      </trkpt>
      <trkpt lat="48.00362" lon="-4.11617">
        <ele>6</ele>
        <time>2024-04-10T16:41:39.113Z</time>
      </trkpt>
      <trkpt lat="48.00361" lon="-4.11614">
        <ele>6</ele>
        <time>2024-04-10T16:41:39.479Z</time>
      </trkpt>
      <trkpt lat="48.00357" lon="-4.11609">
        <ele>6</ele>
        <time>2024-04-10T16:41:40.332Z</time>
      </trkpt>
      <trkpt lat="48.00351" lon="-4.11597">
        <ele>6</ele>
        <time>2024-04-10T16:41:41.970Z</time>
      </trkpt>
      <trkpt lat="48.00346" lon="-4.11582">
        <ele>6</ele>
        <time>2024-04-10T16:41:43.803Z</time>
      </trkpt>
      <trkpt lat="48.00343" lon="-4.11572">
        <ele>5.9</ele>
        <time>2024-04-10T16:41:44.862Z</time>
      </trkpt>
      <trkpt lat="48.00343" lon="-4.1157">
        <ele>5.8</ele>
        <time>2024-04-10T16:41:44.994Z</time>
      </trkpt>
      <trkpt lat="48.00304" lon="-4.11477">
        <ele>5</ele>
        <time>2024-04-10T16:41:55.857Z</time>
      </trkpt>
      <trkpt lat="48.003" lon="-4.1147">
        <ele>4.9</ele>
        <time>2024-04-10T16:41:56.726Z</time>
      </trkpt>
      <trkpt lat="48.00268" lon="-4.11444">
        <ele>5</ele>
        <time>2024-04-10T16:42:02.839Z</time>
      </trkpt>
      <trkpt lat="48.00252" lon="-4.11432">
        <ele>5</ele>
        <time>2024-04-10T16:42:05.766Z</time>
      </trkpt>
      <trkpt lat="48.00244" lon="-4.11423">
        <ele>5.2</ele>
        <time>2024-04-10T16:42:07.770Z</time>
      </trkpt>
      <trkpt lat="48.00234" lon="-4.11417">
        <ele>5.6</ele>
        <time>2024-04-10T16:42:10.392Z</time>
      </trkpt>
      <trkpt lat="48.0023" lon="-4.11419">
        <ele>5.7</ele>
        <time>2024-04-10T16:42:11.271Z</time>
      </trkpt>
      <trkpt lat="48.00225" lon="-4.11417">
        <ele>5.9</ele>
        <time>2024-04-10T16:42:12.554Z</time>
      </trkpt>
      <trkpt lat="48.00222" lon="-4.11414">
        <ele>6</ele>
        <time>2024-04-10T16:42:13.341Z</time>
      </trkpt>
      <trkpt lat="48.0022" lon="-4.11407">
        <ele>6</ele>
        <time>2024-04-10T16:42:14.173Z</time>
      </trkpt>
      <trkpt lat="48.00201" lon="-4.11391">
        <ele>6</ele>
        <time>2024-04-10T16:42:17.738Z</time>
      </trkpt>
      <trkpt lat="48.00196" lon="-4.11386">
        <ele>6.1</ele>
        <time>2024-04-10T16:42:18.900Z</time>
      </trkpt>
      <trkpt lat="48.0019" lon="-4.1138">
        <ele>6.6</ele>
        <time>2024-04-10T16:42:21.555Z</time>
      </trkpt>
      <trkpt lat="48.00156" lon="-4.11352">
        <ele>10</ele>
        <time>2024-04-10T16:42:39.858Z</time>
      </trkpt>
      <trkpt lat="48.00136" lon="-4.11337">
        <ele>11.4</ele>
        <time>2024-04-10T16:42:47.378Z</time>
      </trkpt>
      <trkpt lat="48.00103" lon="-4.1131">
        <ele>13.7</ele>
        <time>2024-04-10T16:42:59.782Z</time>
      </trkpt>
      <trkpt lat="48.00095" lon="-4.11303">
        <ele>14.2</ele>
        <time>2024-04-10T16:43:02.563Z</time>
      </trkpt>
      <trkpt lat="48.00084" lon="-4.11294">
        <ele>15</ele>
        <time>2024-04-10T16:43:06.847Z</time>
      </trkpt>
      <trkpt lat="48.00056" lon="-4.11273">
        <ele>17.1</ele>
        <time>2024-04-10T16:43:18.027Z</time>
      </trkpt>
      <trkpt lat="48.00047" lon="-4.11264">
        <ele>18.3</ele>
        <time>2024-04-10T16:43:24.744Z</time>
      </trkpt>
      <trkpt lat="48.00013" lon="-4.11239">
        <ele>21.6</ele>
        <time>2024-04-10T16:43:42.492Z</time>
      </trkpt>
      <trkpt lat="48.00012" lon="-4.11256">
        <ele>21.8</ele>
        <time>2024-04-10T16:43:44.719Z</time>
      </trkpt>
      <trkpt lat="48.00003" lon="-4.11294">
        <ele>24.2</ele>
        <time>2024-04-10T16:43:57.673Z</time>
      </trkpt>
      <trkpt lat="47.99982" lon="-4.1135">
        <ele>26.1</ele>
        <time>2024-04-10T16:44:09.066Z</time>
      </trkpt>
      <trkpt lat="47.99975" lon="-4.11369">
        <ele>26.7</ele>
        <time>2024-04-10T16:44:12.782Z</time>
      </trkpt>
      <trkpt lat="47.99952" lon="-4.11427">
        <ele>28.2</ele>
        <time>2024-04-10T16:44:23.266Z</time>
      </trkpt>
      <trkpt lat="47.9995" lon="-4.11432">
        <ele>28.4</ele>
        <time>2024-04-10T16:44:24.396Z</time>
      </trkpt>
      <trkpt lat="47.99948" lon="-4.11444">
        <ele>28.6</ele>
        <time>2024-04-10T16:44:26.130Z</time>
      </trkpt>
      <trkpt lat="47.99941" lon="-4.11463">
        <ele>29.2</ele>
        <time>2024-04-10T16:44:29.845Z</time>
      </trkpt>
      <trkpt lat="47.99905" lon="-4.11553">
        <ele>31.4</ele>
        <time>2024-04-10T16:44:45.796Z</time>
      </trkpt>
      <trkpt lat="47.99894" lon="-4.11576">
        <ele>31.7</ele>
        <time>2024-04-10T16:44:49.421Z</time>
      </trkpt>
      <trkpt lat="47.99881" lon="-4.11608">
        <ele>32.6</ele>
        <time>2024-04-10T16:44:55.429Z</time>
      </trkpt>
      <trkpt lat="47.99865" lon="-4.11632">
        <ele>33.6</ele>
        <time>2024-04-10T16:45:01.433Z</time>
      </trkpt>
      <trkpt lat="47.99806" lon="-4.11701">
        <ele>35.7</ele>
        <time>2024-04-10T16:45:17.829Z</time>
      </trkpt>
      <trkpt lat="47.99784" lon="-4.11737">
        <ele>36.4</ele>
        <time>2024-04-10T16:45:24.466Z</time>
      </trkpt>
      <trkpt lat="47.99771" lon="-4.11765">
        <ele>37.5</ele>
        <time>2024-04-10T16:45:30.825Z</time>
      </trkpt>
      <trkpt lat="47.99759" lon="-4.11796">
        <ele>38.4</ele>
        <time>2024-04-10T16:45:36.685Z</time>
      </trkpt>
      <trkpt lat="47.99754" lon="-4.11818">
        <ele>39.1</ele>
        <time>2024-04-10T16:45:40.850Z</time>
      </trkpt>
      <trkpt lat="47.99751" lon="-4.11847">
        <ele>39.9</ele>
        <time>2024-04-10T16:45:45.840Z</time>
      </trkpt>
      <trkpt lat="47.9975" lon="-4.11934">
        <ele>41.6</ele>
        <time>2024-04-10T16:45:58.753Z</time>
      </trkpt>
      <trkpt lat="47.9975" lon="-4.11946">
        <ele>42</ele>
        <time>2024-04-10T16:46:01.037Z</time>
      </trkpt>
      <trkpt lat="47.99748" lon="-4.12057">
        <ele>44.3</ele>
        <time>2024-04-10T16:46:17.851Z</time>
      </trkpt>
      <trkpt lat="47.99749" lon="-4.12068">
        <ele>44.6</ele>
        <time>2024-04-10T16:46:19.731Z</time>
        <extensions>
          <visugpx:TrkExtension xmlns:visugpx="https://www.visugpx.com/editgpx/">
            <visugpx:node>1</visugpx:node>
            </visugpx:TrkExtension>
        </extensions>
      </trkpt>
      <trkpt lat="47.99752" lon="-4.12101">
        <ele>45.3</ele>
        <time>2024-04-10T16:46:24.800Z</time>
      </trkpt>
      <trkpt lat="47.99758" lon="-4.1213">
        <ele>45.2</ele>
        <time>2024-04-10T16:46:27.971Z</time>
      </trkpt>
      <trkpt lat="47.99763" lon="-4.12151">
        <ele>46.2</ele>
        <time>2024-04-10T16:46:33.295Z</time>
      </trkpt>
      <trkpt lat="47.99769" lon="-4.12164">
        <ele>46.7</ele>
        <time>2024-04-10T16:46:36.208Z</time>
      </trkpt>
      <trkpt lat="47.99786" lon="-4.12194">
        <ele>47.1</ele>
        <time>2024-04-10T16:46:41.214Z</time>
      </trkpt>
      <trkpt lat="47.99816" lon="-4.12232">
        <ele>48</ele>
        <time>2024-04-10T16:46:49.340Z</time>
      </trkpt>
      <trkpt lat="47.99829" lon="-4.12253">
        <ele>49.9</ele>
        <time>2024-04-10T16:46:59.813Z</time>
      </trkpt>
      <trkpt lat="47.99841" lon="-4.12271">
        <ele>49.8</ele>
        <time>2024-04-10T16:47:02.444Z</time>
      </trkpt>
      <trkpt lat="47.99851" lon="-4.12292">
        <ele>50.4</ele>
        <time>2024-04-10T16:47:06.525Z</time>
      </trkpt>
      <trkpt lat="47.9986" lon="-4.12319">
        <ele>50.7</ele>
        <time>2024-04-10T16:47:10.352Z</time>
      </trkpt>
      <trkpt lat="47.99898" lon="-4.12551">
        <ele>57.1</ele>
        <time>2024-04-10T16:47:50.623Z</time>
      </trkpt>
      <trkpt lat="47.999" lon="-4.12571">
        <ele>57.8</ele>
        <time>2024-04-10T16:47:54.568Z</time>
      </trkpt>
      <trkpt lat="47.99898" lon="-4.12592">
        <ele>58.1</ele>
        <time>2024-04-10T16:47:57.446Z</time>
      </trkpt>
      <trkpt lat="47.99894" lon="-4.12613">
        <ele>57.7</ele>
        <time>2024-04-10T16:47:59.328Z</time>
      </trkpt>
      <trkpt lat="47.9988" lon="-4.12644">
        <ele>57.7</ele>
        <time>2024-04-10T16:48:03.419Z</time>
      </trkpt>
      <trkpt lat="47.99848" lon="-4.12701">
        <ele>58.4</ele>
        <time>2024-04-10T16:48:12.780Z</time>
      </trkpt>
      <trkpt lat="47.9984" lon="-4.12725">
        <ele>58</ele>
        <time>2024-04-10T16:48:15.189Z</time>
      </trkpt>
      <trkpt lat="47.99837" lon="-4.12744">
        <ele>60.4</ele>
        <time>2024-04-10T16:48:24.341Z</time>
      </trkpt>
      <trkpt lat="47.99839" lon="-4.12765">
        <ele>62</ele>
        <time>2024-04-10T16:48:33.301Z</time>
      </trkpt>
      <trkpt lat="47.99849" lon="-4.1279">
        <ele>63.7</ele>
        <time>2024-04-10T16:48:42.447Z</time>
      </trkpt>
      <trkpt lat="47.99856" lon="-4.128">
        <ele>64.1</ele>
        <time>2024-04-10T16:48:44.924Z</time>
      </trkpt>
      <trkpt lat="47.99893" lon="-4.12842">
        <ele>66.7</ele>
        <time>2024-04-10T16:48:59.233Z</time>
      </trkpt>
      <trkpt lat="47.99906" lon="-4.12867">
        <ele>68</ele>
        <time>2024-04-10T16:49:06.239Z</time>
      </trkpt>
      <trkpt lat="47.99916" lon="-4.12891">
        <ele>68.2</ele>
        <time>2024-04-10T16:49:09.671Z</time>
      </trkpt>
      <trkpt lat="47.99923" lon="-4.12912">
        <ele>67.8</ele>
        <time>2024-04-10T16:49:11.725Z</time>
      </trkpt>
      <trkpt lat="47.99931" lon="-4.12948">
        <ele>69.6</ele>
        <time>2024-04-10T16:49:21.272Z</time>
      </trkpt>
      <trkpt lat="47.99934" lon="-4.12991">
        <ele>71</ele>
        <time>2024-04-10T16:49:29.355Z</time>
      </trkpt>
      <trkpt lat="47.99932" lon="-4.13028">
        <ele>70.6</ele>
        <time>2024-04-10T16:49:32.867Z</time>
      </trkpt>
      <trkpt lat="47.99927" lon="-4.13054">
        <ele>71.7</ele>
        <time>2024-04-10T16:49:38.806Z</time>
      </trkpt>
      <trkpt lat="47.99914" lon="-4.13094">
        <ele>74</ele>
        <time>2024-04-10T16:49:51.015Z</time>
      </trkpt>
      <trkpt lat="47.99886" lon="-4.13159">
        <ele>76</ele>
        <time>2024-04-10T16:50:03.834Z</time>
      </trkpt>
      <trkpt lat="47.99882" lon="-4.1317">
        <ele>76.6</ele>
        <time>2024-04-10T16:50:07.015Z</time>
      </trkpt>
      <trkpt lat="47.99879" lon="-4.13188">
        <ele>77</ele>
        <time>2024-04-10T16:50:09.865Z</time>
      </trkpt>
      <trkpt lat="47.9988" lon="-4.13205">
        <ele>77.3</ele>
        <time>2024-04-10T16:50:12.316Z</time>
      </trkpt>
      <trkpt lat="47.99884" lon="-4.13224">
        <ele>77.9</ele>
        <time>2024-04-10T16:50:15.885Z</time>
      </trkpt>
      <trkpt lat="47.99916" lon="-4.13305">
        <ele>80</ele>
        <time>2024-04-10T16:50:30.532Z</time>
      </trkpt>
      <trkpt lat="47.99917" lon="-4.13305">
        <ele>79.8</ele>
        <time>2024-04-10T16:50:30.631Z</time>
        <extensions>
          <visugpx:TrkExtension xmlns:visugpx="https://www.visugpx.com/editgpx/">
            <visugpx:node>2</visugpx:node>
            </visugpx:TrkExtension>
        </extensions>
      </trkpt>
      <trkpt lat="47.99917" lon="-4.13305">
        <ele>79.8</ele>
        <time>2024-04-10T16:50:30.631Z</time>
      </trkpt>
      <trkpt lat="47.99921" lon="-4.13321">
        <ele>79.6</ele>
        <time>2024-04-10T16:50:32.227Z</time>
      </trkpt>
      <trkpt lat="47.99924" lon="-4.13337">
        <ele>79.7</ele>
        <time>2024-04-10T16:50:34.212Z</time>
      </trkpt>
      <trkpt lat="47.99924" lon="-4.13354">
        <ele>80</ele>
        <time>2024-04-10T16:50:36.656Z</time>
      </trkpt>
      <trkpt lat="47.99919" lon="-4.13382">
        <ele>80.7</ele>
        <time>2024-04-10T16:50:41.316Z</time>
      </trkpt>
      <trkpt lat="47.99898" lon="-4.1345">
        <ele>81.4</ele>
        <time>2024-04-10T16:50:50.730Z</time>
      </trkpt>
      <trkpt lat="47.99894" lon="-4.13472">
        <ele>82.3</ele>
        <time>2024-04-10T16:50:55.619Z</time>
      </trkpt>
      <trkpt lat="47.99893" lon="-4.13496">
        <ele>81.8</ele>
        <time>2024-04-10T16:50:57.633Z</time>
      </trkpt>
      <trkpt lat="47.99894" lon="-4.13522">
        <ele>81.8</ele>
        <time>2024-04-10T16:51:00.482Z</time>
      </trkpt>
      <trkpt lat="47.99909" lon="-4.13679">
        <ele>83.1</ele>
        <time>2024-04-10T16:51:20.065Z</time>
      </trkpt>
      <trkpt lat="47.99912" lon="-4.1373">
        <ele>84.6</ele>
        <time>2024-04-10T16:51:29.102Z</time>
      </trkpt>
      <trkpt lat="47.99913" lon="-4.13738">
        <ele>84.8</ele>
        <time>2024-04-10T16:51:30.420Z</time>
      </trkpt>
      <trkpt lat="47.99914" lon="-4.13792">
        <ele>85.7</ele>
        <time>2024-04-10T16:51:38.058Z</time>
      </trkpt>
      <trkpt lat="47.99906" lon="-4.13939">
        <ele>89.5</ele>
        <time>2024-04-10T16:52:02.467Z</time>
      </trkpt>
      <trkpt lat="47.99903" lon="-4.14035">
        <ele>89.4</ele>
        <time>2024-04-10T16:52:12.826Z</time>
      </trkpt>
      <trkpt lat="47.99903" lon="-4.14063">
        <ele>89</ele>
        <time>2024-04-10T16:52:15.360Z</time>
      </trkpt>
      <trkpt lat="47.99904" lon="-4.14112">
        <ele>89.5</ele>
        <time>2024-04-10T16:52:21.605Z</time>
      </trkpt>
      <trkpt lat="47.99907" lon="-4.1418">
        <ele>89</ele>
        <time>2024-04-10T16:52:28.346Z</time>
      </trkpt>
      <trkpt lat="47.99911" lon="-4.14231">
        <ele>89.3</ele>
        <time>2024-04-10T16:52:34.464Z</time>
      </trkpt>
      <trkpt lat="47.99915" lon="-4.1426">
        <ele>90</ele>
        <time>2024-04-10T16:52:39.182Z</time>
      </trkpt>
      <trkpt lat="47.99924" lon="-4.14306">
        <ele>91</ele>
        <time>2024-04-10T16:52:46.458Z</time>
      </trkpt>
      <trkpt lat="47.9997" lon="-4.14526">
        <ele>95.2</ele>
        <time>2024-04-10T16:53:19.909Z</time>
      </trkpt>
      <trkpt lat="47.99974" lon="-4.14558">
        <ele>96</ele>
        <time>2024-04-10T16:53:25.183Z</time>
      </trkpt>
      <trkpt lat="47.99975" lon="-4.14587">
        <ele>96.9</ele>
        <time>2024-04-10T16:53:30.473Z</time>
      </trkpt>
      <trkpt lat="47.99974" lon="-4.14612">
        <ele>97</ele>
        <time>2024-04-10T16:53:33.375Z</time>
      </trkpt>
      <trkpt lat="47.9997" lon="-4.14643">
        <ele>98.2</ele>
        <time>2024-04-10T16:53:39.953Z</time>
      </trkpt>
      <trkpt lat="47.99957" lon="-4.1471">
        <ele>99.2</ele>
        <time>2024-04-10T16:53:49.446Z</time>
      </trkpt>
      <trkpt lat="47.99952" lon="-4.14744">
        <ele>98.4</ele>
        <time>2024-04-10T16:53:52.290Z</time>
      </trkpt>
      <trkpt lat="47.99951" lon="-4.14764">
        <ele>98.6</ele>
        <time>2024-04-10T16:53:54.835Z</time>
      </trkpt>
      <trkpt lat="47.99956" lon="-4.14768">
        <ele>98.8</ele>
        <time>2024-04-10T16:53:56.185Z</time>
      </trkpt>
      <trkpt lat="47.99962" lon="-4.14781">
        <ele>99</ele>
        <time>2024-04-10T16:53:58.277Z</time>
      </trkpt>
      <trkpt lat="47.99963" lon="-4.14792">
        <ele>99</ele>
        <time>2024-04-10T16:53:59.491Z</time>
      </trkpt>
      <trkpt lat="47.99963" lon="-4.14803">
        <ele>99</ele>
        <time>2024-04-10T16:54:00.694Z</time>
      </trkpt>
      <trkpt lat="47.99966" lon="-4.14816">
        <ele>98.9</ele>
        <time>2024-04-10T16:54:02.056Z</time>
      </trkpt>
      <trkpt lat="47.99973" lon="-4.14835">
        <ele>98.9</ele>
        <time>2024-04-10T16:54:04.428Z</time>
      </trkpt>
      <trkpt lat="47.99985" lon="-4.14857">
        <ele>96.3</ele>
        <time>2024-04-10T16:54:06.291Z</time>
      </trkpt>
      <trkpt lat="48.00005" lon="-4.14884">
        <ele>94</ele>
        <time>2024-04-10T16:54:08.935Z</time>
      </trkpt>
      <trkpt lat="48.00019" lon="-4.14908">
        <ele>97.6</ele>
        <time>2024-04-10T16:54:23.861Z</time>
      </trkpt>
      <trkpt lat="48.00032" lon="-4.14931">
        <ele>100.6</ele>
        <time>2024-04-10T16:54:37.975Z</time>
      </trkpt>
      <trkpt lat="48.00042" lon="-4.14947">
        <ele>101</ele>
        <time>2024-04-10T16:54:41.155Z</time>
      </trkpt>
      <trkpt lat="48.00049" lon="-4.14968">
        <ele>101</ele>
        <time>2024-04-10T16:54:43.721Z</time>
      </trkpt>
      <trkpt lat="48.00066" lon="-4.15076">
        <ele>102</ele>
        <time>2024-04-10T16:54:57.595Z</time>
      </trkpt>
      <trkpt lat="48.00072" lon="-4.15141">
        <ele>101</ele>
        <time>2024-04-10T16:55:03.465Z</time>
      </trkpt>
      <trkpt lat="48.00075" lon="-4.15159">
        <ele>101</ele>
        <time>2024-04-10T16:55:05.494Z</time>
      </trkpt>
      <trkpt lat="48.00082" lon="-4.15167">
        <ele>101</ele>
        <time>2024-04-10T16:55:06.935Z</time>
      </trkpt>
      <trkpt lat="48.00085" lon="-4.15178">
        <ele>100.5</ele>
        <time>2024-04-10T16:55:07.733Z</time>
      </trkpt>
      <trkpt lat="48.00085" lon="-4.15184">
        <ele>100.3</ele>
        <time>2024-04-10T16:55:08.171Z</time>
      </trkpt>
      <trkpt lat="48.00083" lon="-4.15193">
        <ele>100.1</ele>
        <time>2024-04-10T16:55:08.963Z</time>
      </trkpt>
      <trkpt lat="48.00083" lon="-4.15211">
        <ele>100</ele>
        <time>2024-04-10T16:55:10.786Z</time>
      </trkpt>
      <trkpt lat="48.00091" lon="-4.15304">
        <ele>97.8</ele>
        <time>2024-04-10T16:55:18.404Z</time>
      </trkpt>
      <trkpt lat="48.00092" lon="-4.15414">
        <ele>95.1</ele>
        <time>2024-04-10T16:55:27.234Z</time>
      </trkpt>
      <trkpt lat="48.00095" lon="-4.15439">
        <ele>95.3</ele>
        <time>2024-04-10T16:55:30.355Z</time>
      </trkpt>
      <trkpt lat="48.00101" lon="-4.15465">
        <ele>94.6</ele>
        <time>2024-04-10T16:55:32.540Z</time>
      </trkpt>
      <trkpt lat="48.00117" lon="-4.15502">
        <ele>93.4</ele>
        <time>2024-04-10T16:55:35.973Z</time>
      </trkpt>
      <trkpt lat="48.00179" lon="-4.15592">
        <ele>93.2</ele>
        <time>2024-04-10T16:55:49.797Z</time>
      </trkpt>
      <trkpt lat="48.00186" lon="-4.15607">
        <ele>92.9</ele>
        <time>2024-04-10T16:55:51.411Z</time>
      </trkpt>
      <trkpt lat="48.00188" lon="-4.15626">
        <ele>92.1</ele>
        <time>2024-04-10T16:55:52.708Z</time>
      </trkpt>
      <trkpt lat="48.00188" lon="-4.15661">
        <ele>89.5</ele>
        <time>2024-04-10T16:55:55.005Z</time>
      </trkpt>
      <trkpt lat="48.00191" lon="-4.15672">
        <ele>88.8</ele>
        <time>2024-04-10T16:55:55.785Z</time>
      </trkpt>
      <trkpt lat="48.00199" lon="-4.15686">
        <ele>88.8</ele>
        <time>2024-04-10T16:55:57.799Z</time>
      </trkpt>
      <trkpt lat="48.00203" lon="-4.157">
        <ele>88.2</ele>
        <time>2024-04-10T16:55:58.847Z</time>
      </trkpt>
      <trkpt lat="48.00203" lon="-4.15714">
        <ele>88.9</ele>
        <time>2024-04-10T16:56:02.559Z</time>
      </trkpt>
      <trkpt lat="48.00201" lon="-4.15726">
        <ele>88.9</ele>
        <time>2024-04-10T16:56:03.911Z</time>
      </trkpt>
      <trkpt lat="48.00213" lon="-4.15755">
        <ele>88.8</ele>
        <time>2024-04-10T16:56:07.491Z</time>
      </trkpt>
      <trkpt lat="48.00229" lon="-4.15782">
        <ele>86.1</ele>
        <time>2024-04-10T16:56:09.858Z</time>
      </trkpt>
      <trkpt lat="48.00252" lon="-4.1581">
        <ele>85.4</ele>
        <time>2024-04-10T16:56:13.797Z</time>
      </trkpt>
      <trkpt lat="48.00302" lon="-4.1585">
        <ele>82.9</ele>
        <time>2024-04-10T16:56:20.245Z</time>
      </trkpt>
      <trkpt lat="48.0032" lon="-4.15868">
        <ele>83.3</ele>
        <time>2024-04-10T16:56:24.511Z</time>
      </trkpt>
      <trkpt lat="48.0034" lon="-4.15895">
        <ele>84.4</ele>
        <time>2024-04-10T16:56:31.366Z</time>
      </trkpt>
      <trkpt lat="48.00353" lon="-4.15916">
        <ele>85.2</ele>
        <time>2024-04-10T16:56:36.293Z</time>
      </trkpt>
      <trkpt lat="48.00361" lon="-4.1594">
        <ele>85.8</ele>
        <time>2024-04-10T16:56:40.472Z</time>
      </trkpt>
      <trkpt lat="48.0037" lon="-4.15978">
        <ele>85</ele>
        <time>2024-04-10T16:56:43.885Z</time>
      </trkpt>
      <trkpt lat="48.00379" lon="-4.16055">
        <ele>86.5</ele>
        <time>2024-04-10T16:56:55.416Z</time>
      </trkpt>
      <trkpt lat="48.00423" lon="-4.16452">
        <ele>93.9</ele>
        <time>2024-04-10T16:57:53.978Z</time>
      </trkpt>
      <trkpt lat="48.00439" lon="-4.16538">
        <ele>95.8</ele>
        <time>2024-04-10T16:58:07.628Z</time>
      </trkpt>
      <trkpt lat="48.00457" lon="-4.1661">
        <ele>95.7</ele>
        <time>2024-04-10T16:58:15.881Z</time>
      </trkpt>
      <trkpt lat="48.00466" lon="-4.1664">
        <ele>96.2</ele>
        <time>2024-04-10T16:58:20.419Z</time>
      </trkpt>
      <trkpt lat="48.00482" lon="-4.16678">
        <ele>96.3</ele>
        <time>2024-04-10T16:58:25.490Z</time>
      </trkpt>
      <trkpt lat="48.00505" lon="-4.16721">
        <ele>98.9</ele>
        <time>2024-04-10T16:58:39.283Z</time>
      </trkpt>
      <trkpt lat="48.00557" lon="-4.16791">
        <ele>99.2</ele>
        <time>2024-04-10T16:58:51.206Z</time>
      </trkpt>
      <trkpt lat="48.00575" lon="-4.16816">
        <ele>99.7</ele>
        <time>2024-04-10T16:58:56.145Z</time>
      </trkpt>
      <trkpt lat="48.00595" lon="-4.16858">
        <ele>100.6</ele>
        <time>2024-04-10T16:59:03.530Z</time>
      </trkpt>
      <trkpt lat="48.00608" lon="-4.16897">
        <ele>101.3</ele>
        <time>2024-04-10T16:59:09.630Z</time>
      </trkpt>
      <trkpt lat="48.00613" lon="-4.16923">
        <ele>100.8</ele>
        <time>2024-04-10T16:59:11.957Z</time>
      </trkpt>
      <trkpt lat="48.00624" lon="-4.16994">
        <ele>102.3</ele>
        <time>2024-04-10T16:59:22.966Z</time>
      </trkpt>
      <trkpt lat="48.0064" lon="-4.17094">
        <ele>104.3</ele>
        <time>2024-04-10T16:59:38.201Z</time>
      </trkpt>
      <trkpt lat="48.00642" lon="-4.17111">
        <ele>104.5</ele>
        <time>2024-04-10T16:59:40.448Z</time>
      </trkpt>
      <trkpt lat="48.00638" lon="-4.17356">
        <ele>111</ele>
        <time>2024-04-10T17:00:21.562Z</time>
      </trkpt>
      <trkpt lat="48.00647" lon="-4.17434">
        <ele>112.6</ele>
        <time>2024-04-10T17:00:33.444Z</time>
      </trkpt>
      <trkpt lat="48.00657" lon="-4.17488">
        <ele>114.6</ele>
        <time>2024-04-10T17:00:44.604Z</time>
      </trkpt>
      <trkpt lat="48.00664" lon="-4.17512">
        <ele>114.3</ele>
        <time>2024-04-10T17:00:47.059Z</time>
      </trkpt>
      <trkpt lat="48.0068" lon="-4.17553">
        <ele>117.1</ele>
        <time>2024-04-10T17:01:02.149Z</time>
      </trkpt>
      <trkpt lat="48.00703" lon="-4.17603">
        <ele>118.4</ele>
        <time>2024-04-10T17:01:11.449Z</time>
      </trkpt>
      <trkpt lat="48.00724" lon="-4.17639">
        <ele>118.6</ele>
        <time>2024-04-10T17:01:17.000Z</time>
      </trkpt>
      <trkpt lat="48.00747" lon="-4.17682">
        <ele>120.8</ele>
        <time>2024-04-10T17:01:28.920Z</time>
      </trkpt>
      <trkpt lat="48.0077" lon="-4.17737">
        <ele>123.5</ele>
        <time>2024-04-10T17:01:43.436Z</time>
      </trkpt>
      <trkpt lat="48.00859" lon="-4.17974">
        <ele>129</ele>
        <time>2024-04-10T17:02:24.249Z</time>
      </trkpt>
      <trkpt lat="48.00893" lon="-4.18061">
        <ele>131.8</ele>
        <time>2024-04-10T17:02:41.546Z</time>
      </trkpt>
      <trkpt lat="48.00911" lon="-4.18114">
        <ele>134.5</ele>
        <time>2024-04-10T17:02:55.903Z</time>
      </trkpt>
      <trkpt lat="48.00938" lon="-4.1821">
        <ele>136.7</ele>
        <time>2024-04-10T17:03:11.782Z</time>
      </trkpt>
      <trkpt lat="48.00958" lon="-4.18285">
        <ele>139.2</ele>
        <time>2024-04-10T17:03:26.480Z</time>
      </trkpt>
      <trkpt lat="48.00974" lon="-4.18349">
        <ele>142.1</ele>
        <time>2024-04-10T17:03:42.022Z</time>
      </trkpt>
      <trkpt lat="48.0098" lon="-4.1838">
        <ele>143</ele>
        <time>2024-04-10T17:03:47.572Z</time>
      </trkpt>
      <trkpt lat="48.00995" lon="-4.18475">
        <ele>145.9</ele>
        <time>2024-04-10T17:04:04.931Z</time>
      </trkpt>
      <trkpt lat="48.00998" lon="-4.18502">
        <ele>147</ele>
        <time>2024-04-10T17:04:10.884Z</time>
        <extensions>
          <visugpx:TrkExtension xmlns:visugpx="https://www.visugpx.com/editgpx/">
            <visugpx:node>3</visugpx:node>
            </visugpx:TrkExtension>
        </extensions>
      </trkpt>
      <trkpt lat="48.01006" lon="-4.18585">
        <ele>147.8</ele>
        <time>2024-04-10T17:04:21.454Z</time>
      </trkpt>
      <trkpt lat="48.01011" lon="-4.18599">
        <ele>147.8</ele>
        <time>2024-04-10T17:04:23.190Z</time>
      </trkpt>
      <trkpt lat="48.01021" lon="-4.18744">
        <ele>148.5</ele>
        <time>2024-04-10T17:04:40.285Z</time>
      </trkpt>
      <trkpt lat="48.01027" lon="-4.18826">
        <ele>147.1</ele>
        <time>2024-04-10T17:04:47.510Z</time>
      </trkpt>
      <trkpt lat="48.0103" lon="-4.18854">
        <ele>146.8</ele>
        <time>2024-04-10T17:04:50.199Z</time>
      </trkpt>
      <trkpt lat="48.01035" lon="-4.18867">
        <ele>146.6</ele>
        <time>2024-04-10T17:04:51.572Z</time>
      </trkpt>
      <trkpt lat="48.0104" lon="-4.18877">
        <ele>146.6</ele>
        <time>2024-04-10T17:04:52.937Z</time>
      </trkpt>
      <trkpt lat="48.01038" lon="-4.18916">
        <ele>147.4</ele>
        <time>2024-04-10T17:04:58.832Z</time>
      </trkpt>
      <trkpt lat="48.01041" lon="-4.1894">
        <ele>147.9</ele>
        <time>2024-04-10T17:05:02.514Z</time>
      </trkpt>
      <trkpt lat="48.01056" lon="-4.19031">
        <ele>150</ele>
        <time>2024-04-10T17:05:17.127Z</time>
      </trkpt>
      <trkpt lat="48.01114" lon="-4.194">
        <ele>146.3</ele>
        <time>2024-04-10T17:05:53.444Z</time>
      </trkpt>
      <trkpt lat="48.01123" lon="-4.19476">
        <ele>146.6</ele>
        <time>2024-04-10T17:06:02.373Z</time>
      </trkpt>
      <trkpt lat="48.01134" lon="-4.19542">
        <ele>145.1</ele>
        <time>2024-04-10T17:06:07.987Z</time>
      </trkpt>
      <trkpt lat="48.0115" lon="-4.19605">
        <ele>145.9</ele>
        <time>2024-04-10T17:06:16.798Z</time>
      </trkpt>
      <trkpt lat="48.01157" lon="-4.19626">
        <ele>146</ele>
        <time>2024-04-10T17:06:19.528Z</time>
      </trkpt>
      <trkpt lat="48.01169" lon="-4.19654">
        <ele>146.2</ele>
        <time>2024-04-10T17:06:23.499Z</time>
      </trkpt>
      <trkpt lat="48.01181" lon="-4.19669">
        <ele>146.5</ele>
        <time>2024-04-10T17:06:26.604Z</time>
      </trkpt>
      <trkpt lat="48.01196" lon="-4.19671">
        <ele>147.1</ele>
        <time>2024-04-10T17:06:30.389Z</time>
      </trkpt>
      <trkpt lat="48.01207" lon="-4.19683">
        <ele>147.6</ele>
        <time>2024-04-10T17:06:33.686Z</time>
      </trkpt>
      <trkpt lat="48.01211" lon="-4.19692">
        <ele>147.2</ele>
        <time>2024-04-10T17:06:34.447Z</time>
      </trkpt>
      <trkpt lat="48.01213" lon="-4.19701">
        <ele>147</ele>
        <time>2024-04-10T17:06:35.239Z</time>
      </trkpt>
      <trkpt lat="48.01215" lon="-4.1972">
        <ele>147</ele>
        <time>2024-04-10T17:06:37.342Z</time>
      </trkpt>
      <trkpt lat="48.01214" lon="-4.19729">
        <ele>146.8</ele>
        <time>2024-04-10T17:06:38.096Z</time>
      </trkpt>
      <trkpt lat="48.01207" lon="-4.19745">
        <ele>146.2</ele>
        <time>2024-04-10T17:06:39.522Z</time>
      </trkpt>
      <trkpt lat="48.01201" lon="-4.19751">
        <ele>146</ele>
        <time>2024-04-10T17:06:40.449Z</time>
      </trkpt>
      <trkpt lat="48.01196" lon="-4.19768">
        <ele>146</ele>
        <time>2024-04-10T17:06:42.480Z</time>
      </trkpt>
      <trkpt lat="48.01195" lon="-4.19785">
        <ele>146</ele>
        <time>2024-04-10T17:06:44.347Z</time>
      </trkpt>
      <trkpt lat="48.01197" lon="-4.19808">
        <ele>145.9</ele>
        <time>2024-04-10T17:06:46.735Z</time>
      </trkpt>
      <trkpt lat="48.01201" lon="-4.19836">
        <ele>145.2</ele>
        <time>2024-04-10T17:06:49.035Z</time>
      </trkpt>
      <trkpt lat="48.0124" lon="-4.20012">
        <ele>145.8</ele>
        <time>2024-04-10T17:07:10.281Z</time>
      </trkpt>
      <trkpt lat="48.01339" lon="-4.20493">
        <ele>148.6</ele>
        <time>2024-04-10T17:08:09.974Z</time>
      </trkpt>
      <trkpt lat="48.01401" lon="-4.2084">
        <ele>152.1</ele>
        <time>2024-04-10T17:08:55.390Z</time>
      </trkpt>
      <trkpt lat="48.01415" lon="-4.20908">
        <ele>147.9</ele>
        <time>2024-04-10T17:09:00.059Z</time>
      </trkpt>
      <trkpt lat="48.01438" lon="-4.21007">
        <ele>148.5</ele>
        <time>2024-04-10T17:09:12.519Z</time>
      </trkpt>
      <trkpt lat="48.01451" lon="-4.21056">
        <ele>146.9</ele>
        <time>2024-04-10T17:09:16.492Z</time>
      </trkpt>
      <trkpt lat="48.01464" lon="-4.21101">
        <ele>146.1</ele>
        <time>2024-04-10T17:09:20.819Z</time>
        <extensions>
          <visugpx:TrkExtension xmlns:visugpx="https://www.visugpx.com/editgpx/">
            <visugpx:node>4</visugpx:node>
            </visugpx:TrkExtension>
        </extensions>
      </trkpt>
      <trkpt lat="48.01502" lon="-4.21224">
        <ele>143.5</ele>
        <time>2024-04-10T17:09:32.375Z</time>
      </trkpt>
      <trkpt lat="48.01524" lon="-4.21291">
        <ele>140</ele>
        <time>2024-04-10T17:09:37.272Z</time>
      </trkpt>
      <trkpt lat="48.01591" lon="-4.21468">
        <ele>143.4</ele>
        <time>2024-04-10T17:10:06.047Z</time>
      </trkpt>
      <trkpt lat="48.01643" lon="-4.21583">
        <ele>144.6</ele>
        <time>2024-04-10T17:10:23.302Z</time>
      </trkpt>
      <trkpt lat="48.01698" lon="-4.21687">
        <ele>145.3</ele>
        <time>2024-04-10T17:10:38.959Z</time>
      </trkpt>
      <trkpt lat="48.01733" lon="-4.21753">
        <ele>145.3</ele>
        <time>2024-04-10T17:10:48.169Z</time>
      </trkpt>
      <trkpt lat="48.01837" lon="-4.21949">
        <ele>146.4</ele>
        <time>2024-04-10T17:11:17.330Z</time>
      </trkpt>
      <trkpt lat="48.01868" lon="-4.22006">
        <ele>145.6</ele>
        <time>2024-04-10T17:11:24.266Z</time>
      </trkpt>
      <trkpt lat="48.01893" lon="-4.22048">
        <ele>145.5</ele>
        <time>2024-04-10T17:11:30.262Z</time>
      </trkpt>
      <trkpt lat="48.01953" lon="-4.2214">
        <ele>148.6</ele>
        <time>2024-04-10T17:11:50.909Z</time>
      </trkpt>
      <trkpt lat="48.02027" lon="-4.22243">
        <ele>150.3</ele>
        <time>2024-04-10T17:12:10.478Z</time>
      </trkpt>
      <trkpt lat="48.02059" lon="-4.22279">
        <ele>149.5</ele>
        <time>2024-04-10T17:12:15.957Z</time>
      </trkpt>
      <trkpt lat="48.02088" lon="-4.2231">
        <ele>149.9</ele>
        <time>2024-04-10T17:12:22.467Z</time>
      </trkpt>
      <trkpt lat="48.02125" lon="-4.22342">
        <ele>150.4</ele>
        <time>2024-04-10T17:12:30.310Z</time>
      </trkpt>
      <trkpt lat="48.0216" lon="-4.22367">
        <ele>149.2</ele>
        <time>2024-04-10T17:12:35.170Z</time>
      </trkpt>
      <trkpt lat="48.02208" lon="-4.22396">
        <ele>148.9</ele>
        <time>2024-04-10T17:12:43.188Z</time>
      </trkpt>
      <trkpt lat="48.02254" lon="-4.22414">
        <ele>147.4</ele>
        <time>2024-04-10T17:12:49.118Z</time>
      </trkpt>
      <trkpt lat="48.02284" lon="-4.22431">
        <ele>147.8</ele>
        <time>2024-04-10T17:12:55.052Z</time>
      </trkpt>
      <trkpt lat="48.02356" lon="-4.22477">
        <ele>145.1</ele>
        <time>2024-04-10T17:13:04.600Z</time>
      </trkpt>
      <trkpt lat="48.02359" lon="-4.2248">
        <ele>145.1</ele>
        <time>2024-04-10T17:13:05.190Z</time>
      </trkpt>
      <trkpt lat="48.02385" lon="-4.22502">
        <ele>145</ele>
        <time>2024-04-10T17:13:09.923Z</time>
      </trkpt>
      <trkpt lat="48.02428" lon="-4.22546">
        <ele>142</ele>
        <time>2024-04-10T17:13:15.332Z</time>
      </trkpt>
      <trkpt lat="48.02473" lon="-4.22602">
        <ele>140.9</ele>
        <time>2024-04-10T17:13:23.423Z</time>
      </trkpt>
      <trkpt lat="48.02505" lon="-4.22647">
        <ele>139.8</ele>
        <time>2024-04-10T17:13:29.189Z</time>
      </trkpt>
      <trkpt lat="48.02528" lon="-4.22673">
        <ele>139</ele>
        <time>2024-04-10T17:13:32.893Z</time>
      </trkpt>
      <trkpt lat="48.02606" lon="-4.22769">
        <ele>135.9</ele>
        <time>2024-04-10T17:13:45.576Z</time>
      </trkpt>
      <trkpt lat="48.02712" lon="-4.22899">
        <ele>130.8</ele>
        <time>2024-04-10T17:14:01.958Z</time>
      </trkpt>
      <trkpt lat="48.02753" lon="-4.22954">
        <ele>129.5</ele>
        <time>2024-04-10T17:14:09.273Z</time>
      </trkpt>
      <trkpt lat="48.02822" lon="-4.23051">
        <ele>128.7</ele>
        <time>2024-04-10T17:14:23.592Z</time>
      </trkpt>
      <trkpt lat="48.02844" lon="-4.23086">
        <ele>129.3</ele>
        <time>2024-04-10T17:14:29.933Z</time>
      </trkpt>
      <trkpt lat="48.02864" lon="-4.23124">
        <ele>129.7</ele>
        <time>2024-04-10T17:14:35.909Z</time>
      </trkpt>
      <trkpt lat="48.02885" lon="-4.23174">
        <ele>130.5</ele>
        <time>2024-04-10T17:14:43.838Z</time>
      </trkpt>
      <trkpt lat="48.02895" lon="-4.23204">
        <ele>131.6</ele>
        <time>2024-04-10T17:14:50.155Z</time>
      </trkpt>
      <trkpt lat="48.02933" lon="-4.23332">
        <ele>135.7</ele>
        <time>2024-04-10T17:15:14.857Z</time>
      </trkpt>
      <trkpt lat="48.03024" lon="-4.23648">
        <ele>148.2</ele>
        <time>2024-04-10T17:16:24.226Z</time>
      </trkpt>
      <trkpt lat="48.03047" lon="-4.23714">
        <ele>149.5</ele>
        <time>2024-04-10T17:16:34.886Z</time>
      </trkpt>
      <trkpt lat="48.03071" lon="-4.23762">
        <ele>149.8</ele>
        <time>2024-04-10T17:16:41.934Z</time>
      </trkpt>
      <trkpt lat="48.03124" lon="-4.23848">
        <ele>147.9</ele>
        <time>2024-04-10T17:16:52.262Z</time>
      </trkpt>
      <trkpt lat="48.0319" lon="-4.2395">
        <ele>146.8</ele>
        <time>2024-04-10T17:17:06.216Z</time>
      </trkpt>
      <trkpt lat="48.03201" lon="-4.23963">
        <ele>146.2</ele>
        <time>2024-04-10T17:17:07.824Z</time>
      </trkpt>
      <trkpt lat="48.03224" lon="-4.23989">
        <ele>146.6</ele>
        <time>2024-04-10T17:17:13.235Z</time>
      </trkpt>
      <trkpt lat="48.03267" lon="-4.24028">
        <ele>147.6</ele>
        <time>2024-04-10T17:17:23.293Z</time>
      </trkpt>
      <trkpt lat="48.03301" lon="-4.24049">
        <ele>148.9</ele>
        <time>2024-04-10T17:17:32.055Z</time>
      </trkpt>
      <trkpt lat="48.03326" lon="-4.24071">
        <ele>148.9</ele>
        <time>2024-04-10T17:17:36.797Z</time>
      </trkpt>
      <trkpt lat="48.03332" lon="-4.24077">
        <ele>149</ele>
        <time>2024-04-10T17:17:38.151Z</time>
      </trkpt>
      <trkpt lat="48.03361" lon="-4.2411">
        <ele>149</ele>
        <time>2024-04-10T17:17:44.108Z</time>
      </trkpt>
      <trkpt lat="48.03387" lon="-4.24153">
        <ele>148.4</ele>
        <time>2024-04-10T17:17:49.618Z</time>
      </trkpt>
      <trkpt lat="48.03399" lon="-4.24178">
        <ele>148</ele>
        <time>2024-04-10T17:17:52.446Z</time>
      </trkpt>
      <trkpt lat="48.03413" lon="-4.2422">
        <ele>147.6</ele>
        <time>2024-04-10T17:17:57.013Z</time>
      </trkpt>
      <trkpt lat="48.03444" lon="-4.24306">
        <ele>147.9</ele>
        <time>2024-04-10T17:18:08.177Z</time>
      </trkpt>
      <trkpt lat="48.03469" lon="-4.24387">
        <ele>148.7</ele>
        <time>2024-04-10T17:18:19.318Z</time>
      </trkpt>
      <trkpt lat="48.03513" lon="-4.24537">
        <ele>152.9</ele>
        <time>2024-04-10T17:18:46.356Z</time>
      </trkpt>
      <trkpt lat="48.03549" lon="-4.24652">
        <ele>154.7</ele>
        <time>2024-04-10T17:19:03.581Z</time>
      </trkpt>
      <trkpt lat="48.0357" lon="-4.24706">
        <ele>154.1</ele>
        <time>2024-04-10T17:19:09.575Z</time>
      </trkpt>
      <trkpt lat="48.03645" lon="-4.24875">
        <ele>149.9</ele>
        <time>2024-04-10T17:19:26.565Z</time>
      </trkpt>
      <trkpt lat="48.03752" lon="-4.25101">
        <ele>146.5</ele>
        <time>2024-04-10T17:19:52.244Z</time>
      </trkpt>
      <trkpt lat="48.03768" lon="-4.25127">
        <ele>146.3</ele>
        <time>2024-04-10T17:19:55.816Z</time>
      </trkpt>
      <trkpt lat="48.03771" lon="-4.25127">
        <ele>146.1</ele>
        <time>2024-04-10T17:19:56.110Z</time>
      </trkpt>
      <trkpt lat="48.03777" lon="-4.25131">
        <ele>145.8</ele>
        <time>2024-04-10T17:19:56.849Z</time>
      </trkpt>
      <trkpt lat="48.03778" lon="-4.25136">
        <ele>145.9</ele>
        <time>2024-04-10T17:19:57.618Z</time>
      </trkpt>
      <trkpt lat="48.03778" lon="-4.25145">
        <ele>146.2</ele>
        <time>2024-04-10T17:19:59.331Z</time>
      </trkpt>
      <trkpt lat="48.03789" lon="-4.25174">
        <ele>146.6</ele>
        <time>2024-04-10T17:20:03.698Z</time>
      </trkpt>
      <trkpt lat="48.03795" lon="-4.25184">
        <ele>146.6</ele>
        <time>2024-04-10T17:20:05.166Z</time>
      </trkpt>
      <trkpt lat="48.03814" lon="-4.25222">
        <ele>145.4</ele>
        <time>2024-04-10T17:20:08.940Z</time>
      </trkpt>
      <trkpt lat="48.03817" lon="-4.2523">
        <ele>145.5</ele>
        <time>2024-04-10T17:20:10.121Z</time>
      </trkpt>
      <trkpt lat="48.03832" lon="-4.25264">
        <ele>145.1</ele>
        <time>2024-04-10T17:20:14.018Z</time>
      </trkpt>
      <trkpt lat="48.03845" lon="-4.25289">
        <ele>144.1</ele>
        <time>2024-04-10T17:20:16.374Z</time>
      </trkpt>
      <trkpt lat="48.03889" lon="-4.25362">
        <ele>145</ele>
        <time>2024-04-10T17:20:28.683Z</time>
        <extensions>
          <visugpx:TrkExtension xmlns:visugpx="https://www.visugpx.com/editgpx/">
            <visugpx:node>5</visugpx:node>
            </visugpx:TrkExtension>
        </extensions>
      </trkpt>
      <trkpt lat="48.04027" lon="-4.25594">
        <ele>151.4</ele>
        <time>2024-04-10T17:21:15.596Z</time>
      </trkpt>
      <trkpt lat="48.04111" lon="-4.25739">
        <ele>153</ele>
        <time>2024-04-10T17:21:39.322Z</time>
      </trkpt>
      <trkpt lat="48.04126" lon="-4.25766">
        <ele>153</ele>
        <time>2024-04-10T17:21:43.159Z</time>
      </trkpt>
      <trkpt lat="48.0426" lon="-4.26005">
        <ele>152.9</ele>
        <time>2024-04-10T17:22:17.096Z</time>
      </trkpt>
      <trkpt lat="48.04382" lon="-4.2623">
        <ele>150.6</ele>
        <time>2024-04-10T17:22:45.499Z</time>
      </trkpt>
      <trkpt lat="48.04448" lon="-4.26344">
        <ele>148.9</ele>
        <time>2024-04-10T17:22:59.660Z</time>
      </trkpt>
      <trkpt lat="48.04492" lon="-4.26421">
        <ele>148.4</ele>
        <time>2024-04-10T17:23:09.997Z</time>
      </trkpt>
      <trkpt lat="48.04564" lon="-4.26535">
        <ele>148.7</ele>
        <time>2024-04-10T17:23:27.614Z</time>
      </trkpt>
      <trkpt lat="48.04625" lon="-4.26617">
        <ele>147.5</ele>
        <time>2024-04-10T17:23:39.355Z</time>
      </trkpt>
      <trkpt lat="48.04647" lon="-4.26642">
        <ele>147</ele>
        <time>2024-04-10T17:23:43.196Z</time>
      </trkpt>
      <trkpt lat="48.04704" lon="-4.26687">
        <ele>145</ele>
        <time>2024-04-10T17:23:51.265Z</time>
      </trkpt>
      <trkpt lat="48.04706" lon="-4.26698">
        <ele>145.2</ele>
        <time>2024-04-10T17:23:52.900Z</time>
      </trkpt>
      <trkpt lat="48.04737" lon="-4.26726">
        <ele>143.5</ele>
        <time>2024-04-10T17:23:56.936Z</time>
      </trkpt>
      <trkpt lat="48.04742" lon="-4.26733">
        <ele>143.4</ele>
        <time>2024-04-10T17:23:57.916Z</time>
      </trkpt>
      <trkpt lat="48.04742" lon="-4.26739">
        <ele>143.5</ele>
        <time>2024-04-10T17:23:58.764Z</time>
      </trkpt>
      <trkpt lat="48.04739" lon="-4.26754">
        <ele>144</ele>
        <time>2024-04-10T17:24:01.666Z</time>
      </trkpt>
      <trkpt lat="48.04731" lon="-4.26771">
        <ele>144.8</ele>
        <time>2024-04-10T17:24:06.037Z</time>
      </trkpt>
      <trkpt lat="48.04735" lon="-4.26781">
        <ele>145</ele>
        <time>2024-04-10T17:24:07.697Z</time>
      </trkpt>
      <trkpt lat="48.04761" lon="-4.26818">
        <ele>144.1</ele>
        <time>2024-04-10T17:24:12.406Z</time>
      </trkpt>
      <trkpt lat="48.04774" lon="-4.26831">
        <ele>143.3</ele>
        <time>2024-04-10T17:24:14.099Z</time>
      </trkpt>
      <trkpt lat="48.04789" lon="-4.26843">
        <ele>142.9</ele>
        <time>2024-04-10T17:24:16.360Z</time>
      </trkpt>
      <trkpt lat="48.04941" lon="-4.26955">
        <ele>136.1</ele>
        <time>2024-04-10T17:24:36.177Z</time>
      </trkpt>
      <trkpt lat="48.04997" lon="-4.26995">
        <ele>134.2</ele>
        <time>2024-04-10T17:24:43.972Z</time>
      </trkpt>
      <trkpt lat="48.05012" lon="-4.27001">
        <ele>133.6</ele>
        <time>2024-04-10T17:24:45.807Z</time>
      </trkpt>
      <trkpt lat="48.05025" lon="-4.27003">
        <ele>133.1</ele>
        <time>2024-04-10T17:24:47.357Z</time>
      </trkpt>
      <trkpt lat="48.05044" lon="-4.27003">
        <ele>131.9</ele>
        <time>2024-04-10T17:24:49.261Z</time>
      </trkpt>
      <trkpt lat="48.0518" lon="-4.26979">
        <ele>124.2</ele>
        <time>2024-04-10T17:25:03.602Z</time>
      </trkpt>
      <trkpt lat="48.05187" lon="-4.26945">
        <ele>123.3</ele>
        <time>2024-04-10T17:25:06.431Z</time>
      </trkpt>
      <trkpt lat="48.05189" lon="-4.26938">
        <ele>123.2</ele>
        <time>2024-04-10T17:25:07.129Z</time>
      </trkpt>
      <trkpt lat="48.0519" lon="-4.26926">
        <ele>123.1</ele>
        <time>2024-04-10T17:25:08.309Z</time>
      </trkpt>
      <trkpt lat="48.05525" lon="-4.27055">
        <ele>122</ele>
        <time>2024-04-10T17:26:03.191Z</time>
      </trkpt>
      <trkpt lat="48.05595" lon="-4.27084">
        <ele>121</ele>
        <time>2024-04-10T17:26:13.668Z</time>
      </trkpt>
      <trkpt lat="48.05685" lon="-4.27135">
        <ele>119</ele>
        <time>2024-04-10T17:26:26.748Z</time>
      </trkpt>
      <trkpt lat="48.05693" lon="-4.27141">
        <ele>119</ele>
        <time>2024-04-10T17:26:28.211Z</time>
      </trkpt>
      <trkpt lat="48.05699" lon="-4.27146">
        <ele>119.1</ele>
        <time>2024-04-10T17:26:29.509Z</time>
      </trkpt>
      <trkpt lat="48.05737" lon="-4.27178">
        <ele>118.4</ele>
        <time>2024-04-10T17:26:35.676Z</time>
      </trkpt>
      <trkpt lat="48.05786" lon="-4.27223">
        <ele>117</ele>
        <time>2024-04-10T17:26:43.265Z</time>
      </trkpt>
      <trkpt lat="48.05828" lon="-4.27266">
        <ele>115.5</ele>
        <time>2024-04-10T17:26:49.715Z</time>
      </trkpt>
      <trkpt lat="48.05951" lon="-4.27401">
        <ele>109.8</ele>
        <time>2024-04-10T17:27:07.921Z</time>
      </trkpt>
      <trkpt lat="48.06001" lon="-4.27458">
        <ele>107.5</ele>
        <time>2024-04-10T17:27:15.467Z</time>
      </trkpt>
      <trkpt lat="48.0602" lon="-4.2748">
        <ele>106.1</ele>
        <time>2024-04-10T17:27:17.950Z</time>
      </trkpt>
      <trkpt lat="48.06034" lon="-4.27497">
        <ele>104.7</ele>
        <time>2024-04-10T17:27:19.718Z</time>
      </trkpt>
      <trkpt lat="48.06056" lon="-4.27527">
        <ele>103.9</ele>
        <time>2024-04-10T17:27:23.569Z</time>
      </trkpt>
      <trkpt lat="48.06077" lon="-4.2756">
        <ele>101.6</ele>
        <time>2024-04-10T17:27:26.556Z</time>
      </trkpt>
      <trkpt lat="48.06116" lon="-4.27625">
        <ele>100.4</ele>
        <time>2024-04-10T17:27:34.505Z</time>
      </trkpt>
      <trkpt lat="48.06195" lon="-4.27768">
        <ele>97.4</ele>
        <time>2024-04-10T17:27:50.893Z</time>
      </trkpt>
      <trkpt lat="48.06233" lon="-4.27852">
        <ele>95.3</ele>
        <time>2024-04-10T17:27:59.384Z</time>
      </trkpt>
      <trkpt lat="48.06246" lon="-4.27882">
        <ele>94.2</ele>
        <time>2024-04-10T17:28:02.064Z</time>
      </trkpt>
      <trkpt lat="48.06259" lon="-4.27875">
        <ele>94.8</ele>
        <time>2024-04-10T17:28:05.693Z</time>
      </trkpt>
      <trkpt lat="48.06263" lon="-4.27889">
        <ele>94.5</ele>
        <time>2024-04-10T17:28:06.982Z</time>
      </trkpt>
      <trkpt lat="48.06266" lon="-4.27916">
        <ele>94.6</ele>
        <time>2024-04-10T17:28:10.135Z</time>
      </trkpt>
      <trkpt lat="48.06271" lon="-4.27941">
        <ele>93.9</ele>
        <time>2024-04-10T17:28:12.175Z</time>
      </trkpt>
      <trkpt lat="48.0628" lon="-4.27971">
        <ele>93.2</ele>
        <time>2024-04-10T17:28:14.909Z</time>
      </trkpt>
      <trkpt lat="48.06298" lon="-4.28023">
        <ele>93</ele>
        <time>2024-04-10T17:28:21.008Z</time>
      </trkpt>
      <trkpt lat="48.06328" lon="-4.28115">
        <ele>92.8</ele>
        <time>2024-04-10T17:28:31.888Z</time>
      </trkpt>
      <trkpt lat="48.06378" lon="-4.28288">
        <ele>93.6</ele>
        <time>2024-04-10T17:28:53.790Z</time>
      </trkpt>
      <trkpt lat="48.06392" lon="-4.28346">
        <ele>92.6</ele>
        <time>2024-04-10T17:28:59.234Z</time>
      </trkpt>
      <trkpt lat="48.06429" lon="-4.28476">
        <ele>91.3</ele>
        <time>2024-04-10T17:29:12.855Z</time>
      </trkpt>
      <trkpt lat="48.06448" lon="-4.28532">
        <ele>88.5</ele>
        <time>2024-04-10T17:29:16.971Z</time>
      </trkpt>
      <trkpt lat="48.06465" lon="-4.28573">
        <ele>87.4</ele>
        <time>2024-04-10T17:29:20.915Z</time>
      </trkpt>
      <trkpt lat="48.0651" lon="-4.28676">
        <ele>82.7</ele>
        <time>2024-04-10T17:29:29.476Z</time>
      </trkpt>
      <trkpt lat="48.06588" lon="-4.28849">
        <ele>76.6</ele>
        <time>2024-04-10T17:29:45.370Z</time>
      </trkpt>
      <trkpt lat="48.06663" lon="-4.29028">
        <ele>71</ele>
        <time>2024-04-10T17:30:01.939Z</time>
      </trkpt>
      <trkpt lat="48.06691" lon="-4.29091">
        <ele>68.7</ele>
        <time>2024-04-10T17:30:07.631Z</time>
      </trkpt>
      <trkpt lat="48.06697" lon="-4.29108">
        <ele>68.2</ele>
        <time>2024-04-10T17:30:09.147Z</time>
      </trkpt>
      <trkpt lat="48.0672" lon="-4.29166">
        <ele>66</ele>
        <time>2024-04-10T17:30:14.106Z</time>
      </trkpt>
      <trkpt lat="48.06723" lon="-4.29174">
        <ele>65.7</ele>
        <time>2024-04-10T17:30:14.780Z</time>
      </trkpt>
      <trkpt lat="48.06737" lon="-4.29213">
        <ele>64.3</ele>
        <time>2024-04-10T17:30:18.068Z</time>
      </trkpt>
      <trkpt lat="48.06742" lon="-4.2923">
        <ele>63.9</ele>
        <time>2024-04-10T17:30:19.608Z</time>
      </trkpt>
      <trkpt lat="48.06755" lon="-4.29283">
        <ele>63.8</ele>
        <time>2024-04-10T17:30:25.623Z</time>
      </trkpt>
      <trkpt lat="48.06764" lon="-4.29332">
        <ele>63</ele>
        <time>2024-04-10T17:30:30.135Z</time>
      </trkpt>
      <trkpt lat="48.0678" lon="-4.29444">
        <ele>61.9</ele>
        <time>2024-04-10T17:30:41.116Z</time>
      </trkpt>
      <trkpt lat="48.06781" lon="-4.29468">
        <ele>61.9</ele>
        <time>2024-04-10T17:30:43.743Z</time>
      </trkpt>
      <trkpt lat="48.06789" lon="-4.29521">
        <ele>61.3</ele>
        <time>2024-04-10T17:30:48.858Z</time>
      </trkpt>
      <trkpt lat="48.06802" lon="-4.29586">
        <ele>60.1</ele>
        <time>2024-04-10T17:30:54.742Z</time>
      </trkpt>
      <trkpt lat="48.06818" lon="-4.29647">
        <ele>60.7</ele>
        <time>2024-04-10T17:31:02.945Z</time>
      </trkpt>
      <trkpt lat="48.06849" lon="-4.29722">
        <ele>57.4</ele>
        <time>2024-04-10T17:31:09.126Z</time>
      </trkpt>
      <trkpt lat="48.06871" lon="-4.29766">
        <ele>55.6</ele>
        <time>2024-04-10T17:31:13.160Z</time>
      </trkpt>
      <trkpt lat="48.06963" lon="-4.29945">
        <ele>48</ele>
        <time>2024-04-10T17:31:29.588Z</time>
      </trkpt>
      <trkpt lat="48.06982" lon="-4.29986">
        <ele>46.5</ele>
        <time>2024-04-10T17:31:33.355Z</time>
      </trkpt>
      <trkpt lat="48.07011" lon="-4.30058">
        <ele>43.9</ele>
        <time>2024-04-10T17:31:39.644Z</time>
      </trkpt>
      <trkpt lat="48.07051" lon="-4.30164">
        <ele>41</ele>
        <time>2024-04-10T17:31:49.477Z</time>
      </trkpt>
      <trkpt lat="48.07085" lon="-4.30265">
        <ele>40.2</ele>
        <time>2024-04-10T17:32:00.686Z</time>
      </trkpt>
      <trkpt lat="48.07145" lon="-4.3047">
        <ele>38.1</ele>
        <time>2024-04-10T17:32:22.206Z</time>
      </trkpt>
      <trkpt lat="48.07177" lon="-4.30559">
        <ele>38.8</ele>
        <time>2024-04-10T17:32:34.430Z</time>
      </trkpt>
      <trkpt lat="48.07227" lon="-4.30675">
        <ele>39.9</ele>
        <time>2024-04-10T17:32:51.396Z</time>
      </trkpt>
      <trkpt lat="48.07262" lon="-4.30742">
        <ele>41.4</ele>
        <time>2024-04-10T17:33:03.605Z</time>
      </trkpt>
      <trkpt lat="48.07285" lon="-4.30783">
        <ele>43.1</ele>
        <time>2024-04-10T17:33:13.491Z</time>
      </trkpt>
      <trkpt lat="48.07323" lon="-4.30846">
        <ele>45.1</ele>
        <time>2024-04-10T17:33:26.987Z</time>
      </trkpt>
      <trkpt lat="48.07359" lon="-4.30899">
        <ele>46.7</ele>
        <time>2024-04-10T17:33:38.511Z</time>
        <extensions>
          <visugpx:TrkExtension xmlns:visugpx="https://www.visugpx.com/editgpx/">
            <visugpx:node>6</visugpx:node>
            </visugpx:TrkExtension>
        </extensions>
      </trkpt>
      <trkpt lat="48.07359" lon="-4.30899">
        <ele>46.7</ele>
        <time>2024-04-10T17:33:38.511Z</time>
      </trkpt>
      <trkpt lat="48.07408" lon="-4.30971">
        <ele>49</ele>
        <time>2024-04-10T17:33:54.515Z</time>
      </trkpt>
      <trkpt lat="48.07418" lon="-4.30986">
        <ele>49</ele>
        <time>2024-04-10T17:33:56.829Z</time>
      </trkpt>
      <trkpt lat="48.0743" lon="-4.31003">
        <ele>49</ele>
        <time>2024-04-10T17:33:59.530Z</time>
      </trkpt>
      <trkpt lat="48.07442" lon="-4.31021">
        <ele>49</ele>
        <time>2024-04-10T17:34:02.308Z</time>
      </trkpt>
      <trkpt lat="48.07457" lon="-4.31044">
        <ele>48.2</ele>
        <time>2024-04-10T17:34:04.873Z</time>
      </trkpt>
      <trkpt lat="48.07486" lon="-4.31087">
        <ele>48</ele>
        <time>2024-04-10T17:34:11.247Z</time>
      </trkpt>
      <trkpt lat="48.07521" lon="-4.31119">
        <ele>47</ele>
        <time>2024-04-10T17:34:16.660Z</time>
      </trkpt>
      <trkpt lat="48.07541" lon="-4.3113">
        <ele>46.2</ele>
        <time>2024-04-10T17:34:19.199Z</time>
      </trkpt>
      <trkpt lat="48.07553" lon="-4.31134">
        <ele>46</ele>
        <time>2024-04-10T17:34:20.935Z</time>
      </trkpt>
      <trkpt lat="48.0756" lon="-4.31129">
        <ele>45.8</ele>
        <time>2024-04-10T17:34:21.947Z</time>
      </trkpt>
      <trkpt lat="48.0757" lon="-4.31129">
        <ele>45.5</ele>
        <time>2024-04-10T17:34:23.209Z</time>
      </trkpt>
      <trkpt lat="48.07575" lon="-4.31133">
        <ele>45.3</ele>
        <time>2024-04-10T17:34:23.896Z</time>
      </trkpt>
      <trkpt lat="48.0758" lon="-4.31139">
        <ele>45.1</ele>
        <time>2024-04-10T17:34:24.698Z</time>
      </trkpt>
      <trkpt lat="48.07584" lon="-4.31153">
        <ele>45</ele>
        <time>2024-04-10T17:34:26.217Z</time>
      </trkpt>
      <trkpt lat="48.07583" lon="-4.31169">
        <ele>45</ele>
        <time>2024-04-10T17:34:27.972Z</time>
      </trkpt>
      <trkpt lat="48.07579" lon="-4.31176">
        <ele>45.2</ele>
        <time>2024-04-10T17:34:29.390Z</time>
      </trkpt>
      <trkpt lat="48.07578" lon="-4.31195">
        <ele>45.2</ele>
        <time>2024-04-10T17:34:31.472Z</time>
      </trkpt>
      <trkpt lat="48.07579" lon="-4.31221">
        <ele>45.3</ele>
        <time>2024-04-10T17:34:34.479Z</time>
      </trkpt>
      <trkpt lat="48.07583" lon="-4.31251">
        <ele>45</ele>
        <time>2024-04-10T17:34:37.404Z</time>
      </trkpt>
      <trkpt lat="48.07587" lon="-4.31271">
        <ele>45.3</ele>
        <time>2024-04-10T17:34:40.243Z</time>
      </trkpt>
      <trkpt lat="48.07593" lon="-4.31285">
        <ele>44.6</ele>
        <time>2024-04-10T17:34:41.358Z</time>
      </trkpt>
      <trkpt lat="48.07641" lon="-4.3138">
        <ele>43.7</ele>
        <time>2024-04-10T17:34:53.087Z</time>
      </trkpt>
      <trkpt lat="48.07684" lon="-4.31461">
        <ele>43</ele>
        <time>2024-04-10T17:35:03.381Z</time>
      </trkpt>
      <trkpt lat="48.07708" lon="-4.31508">
        <ele>42.7</ele>
        <time>2024-04-10T17:35:09.403Z</time>
      </trkpt>
      <trkpt lat="48.0772" lon="-4.3154">
        <ele>41.4</ele>
        <time>2024-04-10T17:35:12.025Z</time>
      </trkpt>
      <trkpt lat="48.07727" lon="-4.31564">
        <ele>40.8</ele>
        <time>2024-04-10T17:35:14.162Z</time>
      </trkpt>
      <trkpt lat="48.07731" lon="-4.3159">
        <ele>40.4</ele>
        <time>2024-04-10T17:35:16.552Z</time>
      </trkpt>
      <trkpt lat="48.07733" lon="-4.31632">
        <ele>39.3</ele>
        <time>2024-04-10T17:35:19.867Z</time>
      </trkpt>
      <trkpt lat="48.07732" lon="-4.31658">
        <ele>38.6</ele>
        <time>2024-04-10T17:35:21.900Z</time>
      </trkpt>
      <trkpt lat="48.0773" lon="-4.31689">
        <ele>37.1</ele>
        <time>2024-04-10T17:35:23.941Z</time>
      </trkpt>
      <trkpt lat="48.07713" lon="-4.31792">
        <ele>33.3</ele>
        <time>2024-04-10T17:35:31.493Z</time>
      </trkpt>
      <trkpt lat="48.0771" lon="-4.31813">
        <ele>31.8</ele>
        <time>2024-04-10T17:35:32.900Z</time>
      </trkpt>
      <trkpt lat="48.07709" lon="-4.31836">
        <ele>30.4</ele>
        <time>2024-04-10T17:35:34.411Z</time>
      </trkpt>
      <trkpt lat="48.07709" lon="-4.31876">
        <ele>29.6</ele>
        <time>2024-04-10T17:35:37.786Z</time>
      </trkpt>
      <trkpt lat="48.07713" lon="-4.31908">
        <ele>29.5</ele>
        <time>2024-04-10T17:35:41.191Z</time>
      </trkpt>
      <trkpt lat="48.07723" lon="-4.31947">
        <ele>29.8</ele>
        <time>2024-04-10T17:35:46.263Z</time>
      </trkpt>
      <trkpt lat="48.07732" lon="-4.31975">
        <ele>28</ele>
        <time>2024-04-10T17:35:48.300Z</time>
      </trkpt>
      <trkpt lat="48.07742" lon="-4.31999">
        <ele>27.8</ele>
        <time>2024-04-10T17:35:51.103Z</time>
      </trkpt>
      <trkpt lat="48.07778" lon="-4.32061">
        <ele>26.2</ele>
        <time>2024-04-10T17:35:58.075Z</time>
      </trkpt>
      <trkpt lat="48.07823" lon="-4.32131">
        <ele>23.7</ele>
        <time>2024-04-10T17:36:05.756Z</time>
      </trkpt>
      <trkpt lat="48.07883" lon="-4.32222">
        <ele>20.8</ele>
        <time>2024-04-10T17:36:16.215Z</time>
      </trkpt>
      <trkpt lat="48.07894" lon="-4.3224">
        <ele>20.3</ele>
        <time>2024-04-10T17:36:18.261Z</time>
      </trkpt>
      <trkpt lat="48.07932" lon="-4.32296">
        <ele>17.7</ele>
        <time>2024-04-10T17:36:24.130Z</time>
      </trkpt>
      <trkpt lat="48.08021" lon="-4.32435">
        <ele>13</ele>
        <time>2024-04-10T17:36:39.576Z</time>
      </trkpt>
      <trkpt lat="48.08038" lon="-4.32462">
        <ele>12.7</ele>
        <time>2024-04-10T17:36:43.204Z</time>
      </trkpt>
      <trkpt lat="48.08049" lon="-4.32483">
        <ele>11.8</ele>
        <time>2024-04-10T17:36:45.143Z</time>
      </trkpt>
      <trkpt lat="48.08059" lon="-4.32514">
        <ele>9.2</ele>
        <time>2024-04-10T17:36:47.399Z</time>
      </trkpt>
      <trkpt lat="48.08066" lon="-4.32558">
        <ele>7.6</ele>
        <time>2024-04-10T17:36:50.632Z</time>
      </trkpt>
      <trkpt lat="48.08066" lon="-4.32604">
        <ele>6.9</ele>
        <time>2024-04-10T17:36:54.741Z</time>
      </trkpt>
      <trkpt lat="48.08068" lon="-4.32619">
        <ele>6.5</ele>
        <time>2024-04-10T17:36:55.945Z</time>
      </trkpt>
      <trkpt lat="48.08074" lon="-4.32645">
        <ele>6.7</ele>
        <time>2024-04-10T17:36:59.289Z</time>
      </trkpt>
      <trkpt lat="48.08077" lon="-4.32654">
        <ele>6.9</ele>
        <time>2024-04-10T17:37:00.789Z</time>
      </trkpt>
      <trkpt lat="48.08083" lon="-4.32663">
        <ele>7</ele>
        <time>2024-04-10T17:37:02.349Z</time>
      </trkpt>
      <trkpt lat="48.08086" lon="-4.32675">
        <ele>7.4</ele>
        <time>2024-04-10T17:37:04.691Z</time>
      </trkpt>
      <trkpt lat="48.08086" lon="-4.32687">
        <ele>7.8</ele>
        <time>2024-04-10T17:37:06.974Z</time>
      </trkpt>
      <trkpt lat="48.08079" lon="-4.32702">
        <ele>7.8</ele>
        <time>2024-04-10T17:37:08.972Z</time>
      </trkpt>
      <trkpt lat="48.08068" lon="-4.32708">
        <ele>7.4</ele>
        <time>2024-04-10T17:37:10.403Z</time>
      </trkpt>
      <trkpt lat="48.08065" lon="-4.32708">
        <ele>7.3</ele>
        <time>2024-04-10T17:37:10.773Z</time>
      </trkpt>
      <trkpt lat="48.08059" lon="-4.32713">
        <ele>7.1</ele>
        <time>2024-04-10T17:37:11.645Z</time>
      </trkpt>
      <trkpt lat="48.08045" lon="-4.3272">
        <ele>6.6</ele>
        <time>2024-04-10T17:37:13.454Z</time>
      </trkpt>
      <trkpt lat="48.08038" lon="-4.32723">
        <ele>6.4</ele>
        <time>2024-04-10T17:37:14.391Z</time>
      </trkpt>
      <trkpt lat="48.08033" lon="-4.32729">
        <ele>6.1</ele>
        <time>2024-04-10T17:37:15.106Z</time>
      </trkpt>
      <trkpt lat="48.08027" lon="-4.3274">
        <ele>6</ele>
        <time>2024-04-10T17:37:16.514Z</time>
      </trkpt>
      <trkpt lat="48.08019" lon="-4.32763">
        <ele>6.2</ele>
        <time>2024-04-10T17:37:19.687Z</time>
      </trkpt>
      <trkpt lat="48.0799" lon="-4.32845">
        <ele>5</ele>
        <time>2024-04-10T17:37:28.212Z</time>
      </trkpt>
      <trkpt lat="48.07982" lon="-4.32868">
        <ele>5</ele>
        <time>2024-04-10T17:37:31.044Z</time>
      </trkpt>
      <trkpt lat="48.07967" lon="-4.32905">
        <ele>5</ele>
        <time>2024-04-10T17:37:35.771Z</time>
      </trkpt>
      <trkpt lat="48.07967" lon="-4.32915">
        <ele>5</ele>
        <time>2024-04-10T17:37:36.863Z</time>
      </trkpt>
      <trkpt lat="48.07962" lon="-4.32921">
        <ele>4.8</ele>
        <time>2024-04-10T17:37:37.665Z</time>
      </trkpt>
      <trkpt lat="48.07937" lon="-4.32988">
        <ele>3.8</ele>
        <time>2024-04-10T17:37:44.707Z</time>
      </trkpt>
      <trkpt lat="48.07936" lon="-4.32999">
        <ele>3</ele>
        <time>2024-04-10T17:37:45.435Z</time>
      </trkpt>
      <trkpt lat="48.07936" lon="-4.33012">
        <ele>3.8</ele>
        <time>2024-04-10T17:37:49.780Z</time>
      </trkpt>
      <trkpt lat="48.07937" lon="-4.33022">
        <ele>4.5</ele>
        <time>2024-04-10T17:37:53.669Z</time>
      </trkpt>
      <trkpt lat="48.07946" lon="-4.33027">
        <ele>4.8</ele>
        <time>2024-04-10T17:37:55.848Z</time>
      </trkpt>
      <trkpt lat="48.07958" lon="-4.33032">
        <ele>4.2</ele>
        <time>2024-04-10T17:37:57.225Z</time>
      </trkpt>
      <trkpt lat="48.07977" lon="-4.33036">
        <ele>3.5</ele>
        <time>2024-04-10T17:37:59.530Z</time>
      </trkpt>
      <trkpt lat="48.07993" lon="-4.33039">
        <ele>3.7</ele>
        <time>2024-04-10T17:38:02.510Z</time>
      </trkpt>
      <trkpt lat="48.08017" lon="-4.3305">
        <ele>5.3</ele>
        <time>2024-04-10T17:38:11.079Z</time>
      </trkpt>
      <trkpt lat="48.08033" lon="-4.33054">
        <ele>5.9</ele>
        <time>2024-04-10T17:38:15.019Z</time>
      </trkpt>
      <trkpt lat="48.08055" lon="-4.3306">
        <ele>6.2</ele>
        <time>2024-04-10T17:38:19.196Z</time>
      </trkpt>
      <trkpt lat="48.08143" lon="-4.3308">
        <ele>12.3</ele>
        <time>2024-04-10T17:38:51.610Z</time>
      </trkpt>
      <trkpt lat="48.08161" lon="-4.33093">
        <ele>16</ele>
        <time>2024-04-10T17:39:05.612Z</time>
      </trkpt>
      <trkpt lat="48.08175" lon="-4.33114">
        <ele>16.6</ele>
        <time>2024-04-10T17:39:10.062Z</time>
      </trkpt>
      <trkpt lat="48.0824" lon="-4.33268">
        <ele>27.6</ele>
        <time>2024-04-10T17:40:09.602Z</time>
      </trkpt>
      <trkpt lat="48.08261" lon="-4.33307">
        <ele>29.4</ele>
        <time>2024-04-10T17:40:19.621Z</time>
      </trkpt>
      <trkpt lat="48.08271" lon="-4.33323">
        <ele>29.9</ele>
        <time>2024-04-10T17:40:23.059Z</time>
      </trkpt>
      <trkpt lat="48.08296" lon="-4.33358">
        <ele>32.3</ele>
        <time>2024-04-10T17:40:35.795Z</time>
      </trkpt>
      <trkpt lat="48.08307" lon="-4.3337">
        <ele>32.8</ele>
        <time>2024-04-10T17:40:39.091Z</time>
      </trkpt>
      <trkpt lat="48.08348" lon="-4.33404">
        <ele>32.3</ele>
        <time>2024-04-10T17:40:46.038Z</time>
      </trkpt>
      <trkpt lat="48.08365" lon="-4.33415">
        <ele>31.7</ele>
        <time>2024-04-10T17:40:48.333Z</time>
      </trkpt>
      <trkpt lat="48.08387" lon="-4.33426">
        <ele>31.4</ele>
        <time>2024-04-10T17:40:51.703Z</time>
      </trkpt>
      <trkpt lat="48.08419" lon="-4.33438">
        <ele>32.2</ele>
        <time>2024-04-10T17:40:58.623Z</time>
      </trkpt>
      <trkpt lat="48.08551" lon="-4.33476">
        <ele>28.4</ele>
        <time>2024-04-10T17:41:15.820Z</time>
      </trkpt>
      <trkpt lat="48.08568" lon="-4.33482">
        <ele>27.2</ele>
        <time>2024-04-10T17:41:17.533Z</time>
      </trkpt>
      <trkpt lat="48.08587" lon="-4.33496">
        <ele>27.2</ele>
        <time>2024-04-10T17:41:20.995Z</time>
      </trkpt>
      <trkpt lat="48.08604" lon="-4.33503">
        <ele>26.6</ele>
        <time>2024-04-10T17:41:23.152Z</time>
      </trkpt>
      <trkpt lat="48.0861" lon="-4.33499">
        <ele>26</ele>
        <time>2024-04-10T17:41:23.797Z</time>
      </trkpt>
      <trkpt lat="48.0862" lon="-4.33502">
        <ele>25.7</ele>
        <time>2024-04-10T17:41:25.090Z</time>
      </trkpt>
      <trkpt lat="48.08623" lon="-4.33505">
        <ele>25.7</ele>
        <time>2024-04-10T17:41:25.680Z</time>
      </trkpt>
      <trkpt lat="48.08626" lon="-4.33515">
        <ele>25.7</ele>
        <time>2024-04-10T17:41:26.877Z</time>
      </trkpt>
      <trkpt lat="48.08626" lon="-4.33523">
        <ele>25.8</ele>
        <time>2024-04-10T17:41:27.932Z</time>
      </trkpt>
      <trkpt lat="48.08623" lon="-4.33534">
        <ele>26.2</ele>
        <time>2024-04-10T17:41:30.207Z</time>
      </trkpt>
      <trkpt lat="48.08627" lon="-4.33549">
        <ele>26.3</ele>
        <time>2024-04-10T17:41:32.138Z</time>
      </trkpt>
      <trkpt lat="48.08629" lon="-4.33564">
        <ele>26.2</ele>
        <time>2024-04-10T17:41:33.665Z</time>
      </trkpt>
      <trkpt lat="48.08636" lon="-4.33599">
        <ele>25.2</ele>
        <time>2024-04-10T17:41:36.502Z</time>
      </trkpt>
      <trkpt lat="48.08641" lon="-4.33679">
        <ele>23.5</ele>
        <time>2024-04-10T17:41:43.189Z</time>
      </trkpt>
      <trkpt lat="48.08645" lon="-4.33787">
        <ele>20.7</ele>
        <time>2024-04-10T17:41:51.725Z</time>
        <extensions>
          <visugpx:TrkExtension xmlns:visugpx="https://www.visugpx.com/editgpx/">
            <visugpx:node>7</visugpx:node>
            </visugpx:TrkExtension>
        </extensions>
      </trkpt>
      <trkpt lat="48.08647" lon="-4.33823">
        <ele>21.4</ele>
        <time>2024-04-10T17:41:57.065Z</time>
      </trkpt>
      <trkpt lat="48.08646" lon="-4.34082">
        <ele>22.7</ele>
        <time>2024-04-10T17:42:27.498Z</time>
      </trkpt>
      <trkpt lat="48.08643" lon="-4.34108">
        <ele>23.6</ele>
        <time>2024-04-10T17:42:32.593Z</time>
      </trkpt>
      <trkpt lat="48.08649" lon="-4.34116">
        <ele>23.4</ele>
        <time>2024-04-10T17:42:33.649Z</time>
      </trkpt>
      <trkpt lat="48.08651" lon="-4.34123">
        <ele>23.5</ele>
        <time>2024-04-10T17:42:34.663Z</time>
      </trkpt>
      <trkpt lat="48.08649" lon="-4.34131">
        <ele>23.8</ele>
        <time>2024-04-10T17:42:36.345Z</time>
      </trkpt>
      <trkpt lat="48.08644" lon="-4.34138">
        <ele>24</ele>
        <time>2024-04-10T17:42:37.864Z</time>
      </trkpt>
      <trkpt lat="48.08639" lon="-4.34138">
        <ele>24</ele>
        <time>2024-04-10T17:42:38.681Z</time>
      </trkpt>
      <trkpt lat="48.08637" lon="-4.34163">
        <ele>24.8</ele>
        <time>2024-04-10T17:42:43.332Z</time>
      </trkpt>
      <trkpt lat="48.08605" lon="-4.34254">
        <ele>27.9</ele>
        <time>2024-04-10T17:43:01.757Z</time>
      </trkpt>
      <trkpt lat="48.08591" lon="-4.34298">
        <ele>31.2</ele>
        <time>2024-04-10T17:43:20.017Z</time>
      </trkpt>
      <trkpt lat="48.08585" lon="-4.34339">
        <ele>32</ele>
        <time>2024-04-10T17:43:26.189Z</time>
      </trkpt>
      <trkpt lat="48.0858" lon="-4.34376">
        <ele>33.3</ele>
        <time>2024-04-10T17:43:33.524Z</time>
      </trkpt>
      <trkpt lat="48.08582" lon="-4.34416">
        <ele>35.8</ele>
        <time>2024-04-10T17:43:47.137Z</time>
      </trkpt>
      <trkpt lat="48.08587" lon="-4.34471">
        <ele>38.8</ele>
        <time>2024-04-10T17:44:03.118Z</time>
      </trkpt>
      <trkpt lat="48.08602" lon="-4.34551">
        <ele>43.2</ele>
        <time>2024-04-10T17:44:26.514Z</time>
      </trkpt>
      <trkpt lat="48.08609" lon="-4.3459">
        <ele>46</ele>
        <time>2024-04-10T17:44:42.071Z</time>
      </trkpt>
      <trkpt lat="48.08616" lon="-4.34606">
        <ele>46.9</ele>
        <time>2024-04-10T17:44:46.846Z</time>
      </trkpt>
      <trkpt lat="48.08623" lon="-4.34616">
        <ele>47.6</ele>
        <time>2024-04-10T17:44:50.557Z</time>
      </trkpt>
      <trkpt lat="48.08633" lon="-4.34622">
        <ele>48.2</ele>
        <time>2024-04-10T17:44:53.863Z</time>
      </trkpt>
      <trkpt lat="48.08637" lon="-4.34628">
        <ele>48.5</ele>
        <time>2024-04-10T17:44:55.541Z</time>
      </trkpt>
      <trkpt lat="48.08641" lon="-4.34643">
        <ele>49.2</ele>
        <time>2024-04-10T17:44:59.281Z</time>
      </trkpt>
      <trkpt lat="48.0864" lon="-4.34656">
        <ele>49.6</ele>
        <time>2024-04-10T17:45:01.644Z</time>
      </trkpt>
      <trkpt lat="48.08638" lon="-4.34664">
        <ele>49.9</ele>
        <time>2024-04-10T17:45:03.326Z</time>
      </trkpt>
      <trkpt lat="48.08629" lon="-4.34674">
        <ele>50.4</ele>
        <time>2024-04-10T17:45:06.313Z</time>
      </trkpt>
      <trkpt lat="48.08623" lon="-4.34676">
        <ele>50.5</ele>
        <time>2024-04-10T17:45:07.495Z</time>
      </trkpt>
      <trkpt lat="48.08616" lon="-4.34676">
        <ele>50.4</ele>
        <time>2024-04-10T17:45:08.501Z</time>
      </trkpt>
      <trkpt lat="48.08611" lon="-4.34672">
        <ele>50.2</ele>
        <time>2024-04-10T17:45:09.188Z</time>
      </trkpt>
      <trkpt lat="48.08606" lon="-4.34666">
        <ele>49.9</ele>
        <time>2024-04-10T17:45:09.903Z</time>
      </trkpt>
      <trkpt lat="48.08585" lon="-4.34673">
        <ele>50.2</ele>
        <time>2024-04-10T17:45:13.943Z</time>
      </trkpt>
      <trkpt lat="48.08569" lon="-4.34689">
        <ele>50.8</ele>
        <time>2024-04-10T17:45:18.309Z</time>
      </trkpt>
      <trkpt lat="48.08512" lon="-4.34736">
        <ele>54.1</ele>
        <time>2024-04-10T17:45:37.035Z</time>
      </trkpt>
      <trkpt lat="48.0844" lon="-4.34797">
        <ele>58.8</ele>
        <time>2024-04-10T17:46:02.799Z</time>
      </trkpt>
      <trkpt lat="48.08415" lon="-4.34821">
        <ele>60.5</ele>
        <time>2024-04-10T17:46:12.100Z</time>
      </trkpt>
      <trkpt lat="48.08411" lon="-4.34828">
        <ele>60.6</ele>
        <time>2024-04-10T17:46:13.284Z</time>
      </trkpt>
      <trkpt lat="48.08402" lon="-4.3484">
        <ele>60.7</ele>
        <time>2024-04-10T17:46:15.420Z</time>
      </trkpt>
      <trkpt lat="48.08393" lon="-4.34859">
        <ele>61.1</ele>
        <time>2024-04-10T17:46:18.738Z</time>
      </trkpt>
      <trkpt lat="48.08373" lon="-4.34926">
        <ele>63.5</ele>
        <time>2024-04-10T17:46:32.534Z</time>
      </trkpt>
      <trkpt lat="48.08348" lon="-4.35017">
        <ele>66.6</ele>
        <time>2024-04-10T17:46:50.618Z</time>
      </trkpt>
      <trkpt lat="48.08346" lon="-4.35048">
        <ele>67.3</ele>
        <time>2024-04-10T17:46:55.475Z</time>
      </trkpt>
      <trkpt lat="48.08348" lon="-4.35055">
        <ele>67.5</ele>
        <time>2024-04-10T17:46:56.746Z</time>
      </trkpt>
      <trkpt lat="48.08346" lon="-4.35062">
        <ele>67.9</ele>
        <time>2024-04-10T17:46:58.871Z</time>
      </trkpt>
      <trkpt lat="48.08342" lon="-4.35065">
        <ele>68</ele>
        <time>2024-04-10T17:46:59.791Z</time>
      </trkpt>
      <trkpt lat="48.08337" lon="-4.35065">
        <ele>67.8</ele>
        <time>2024-04-10T17:47:00.376Z</time>
      </trkpt>
      <trkpt lat="48.08324" lon="-4.35071">
        <ele>67.9</ele>
        <time>2024-04-10T17:47:02.765Z</time>
      </trkpt>
      <trkpt lat="48.08316" lon="-4.35082">
        <ele>68.3</ele>
        <time>2024-04-10T17:47:05.398Z</time>
      </trkpt>
      <trkpt lat="48.08302" lon="-4.35107">
        <ele>69.5</ele>
        <time>2024-04-10T17:47:12.032Z</time>
      </trkpt>
      <trkpt lat="48.08278" lon="-4.3516">
        <ele>70.8</ele>
        <time>2024-04-10T17:47:21.649Z</time>
      </trkpt>
      <trkpt lat="48.08276" lon="-4.35165">
        <ele>70.8</ele>
        <time>2024-04-10T17:47:22.285Z</time>
      </trkpt>
      <trkpt lat="48.08215" lon="-4.35325">
        <ele>75.2</ele>
        <time>2024-04-10T17:47:51.740Z</time>
      </trkpt>
      <trkpt lat="48.08195" lon="-4.35385">
        <ele>76</ele>
        <time>2024-04-10T17:48:00.507Z</time>
      </trkpt>
      <trkpt lat="48.08182" lon="-4.35425">
        <ele>76.4</ele>
        <time>2024-04-10T17:48:06.060Z</time>
      </trkpt>
      <trkpt lat="48.08142" lon="-4.35555">
        <ele>77.1</ele>
        <time>2024-04-10T17:48:22.846Z</time>
      </trkpt>
      <trkpt lat="48.08131" lon="-4.35594">
        <ele>77</ele>
        <time>2024-04-10T17:48:27.318Z</time>
      </trkpt>
      <trkpt lat="48.08097" lon="-4.35723">
        <ele>77</ele>
        <time>2024-04-10T17:48:42.464Z</time>
      </trkpt>
      <trkpt lat="48.08086" lon="-4.35773">
        <ele>77.9</ele>
        <time>2024-04-10T17:48:49.952Z</time>
      </trkpt>
      <trkpt lat="48.08076" lon="-4.35846">
        <ele>78</ele>
        <time>2024-04-10T17:48:58.249Z</time>
      </trkpt>
      <trkpt lat="48.08073" lon="-4.35892">
        <ele>77.9</ele>
        <time>2024-04-10T17:49:03.145Z</time>
      </trkpt>
      <trkpt lat="48.08073" lon="-4.35931">
        <ele>77.7</ele>
        <time>2024-04-10T17:49:07.112Z</time>
      </trkpt>
      <trkpt lat="48.08074" lon="-4.35956">
        <ele>78</ele>
        <time>2024-04-10T17:49:10.389Z</time>
      </trkpt>
      <trkpt lat="48.08089" lon="-4.36131">
        <ele>79.1</ele>
        <time>2024-04-10T17:49:31.504Z</time>
      </trkpt>
      <trkpt lat="48.08103" lon="-4.36282">
        <ele>79</ele>
        <time>2024-04-10T17:49:47.999Z</time>
      </trkpt>
      <trkpt lat="48.08115" lon="-4.36365">
        <ele>79</ele>
        <time>2024-04-10T17:49:57.273Z</time>
      </trkpt>
      <trkpt lat="48.08124" lon="-4.36418">
        <ele>79</ele>
        <time>2024-04-10T17:50:03.246Z</time>
      </trkpt>
      <trkpt lat="48.0815" lon="-4.36523">
        <ele>78</ele>
        <time>2024-04-10T17:50:14.074Z</time>
      </trkpt>
      <trkpt lat="48.08171" lon="-4.36587">
        <ele>77.1</ele>
        <time>2024-04-10T17:50:20.651Z</time>
      </trkpt>
      <trkpt lat="48.08226" lon="-4.36775">
        <ele>75.9</ele>
        <time>2024-04-10T17:50:41.324Z</time>
      </trkpt>
      <trkpt lat="48.08239" lon="-4.36829">
        <ele>75.1</ele>
        <time>2024-04-10T17:50:46.532Z</time>
      </trkpt>
      <trkpt lat="48.08246" lon="-4.36868">
        <ele>75</ele>
        <time>2024-04-10T17:50:50.792Z</time>
      </trkpt>
      <trkpt lat="48.08251" lon="-4.36912">
        <ele>75.8</ele>
        <time>2024-04-10T17:50:57.229Z</time>
      </trkpt>
      <trkpt lat="48.08262" lon="-4.37082">
        <ele>76.4</ele>
        <time>2024-04-10T17:51:16.855Z</time>
      </trkpt>
      <trkpt lat="48.08268" lon="-4.3715">
        <ele>76.6</ele>
        <time>2024-04-10T17:51:24.668Z</time>
      </trkpt>
      <trkpt lat="48.08273" lon="-4.37191">
        <ele>76</ele>
        <time>2024-04-10T17:51:28.428Z</time>
      </trkpt>
      <trkpt lat="48.08281" lon="-4.37231">
        <ele>76.2</ele>
        <time>2024-04-10T17:51:33.318Z</time>
      </trkpt>
      <trkpt lat="48.08291" lon="-4.37268">
        <ele>75.8</ele>
        <time>2024-04-10T17:51:37.123Z</time>
      </trkpt>
      <trkpt lat="48.08313" lon="-4.37325">
        <ele>76.1</ele>
        <time>2024-04-10T17:51:44.805Z</time>
      </trkpt>
      <trkpt lat="48.08353" lon="-4.37407">
        <ele>75.7</ele>
        <time>2024-04-10T17:51:55.300Z</time>
      </trkpt>
      <trkpt lat="48.08373" lon="-4.37451">
        <ele>75.3</ele>
        <time>2024-04-10T17:52:00.543Z</time>
      </trkpt>
      <trkpt lat="48.08387" lon="-4.37504">
        <ele>76.1</ele>
        <time>2024-04-10T17:52:08.251Z</time>
      </trkpt>
      <trkpt lat="48.08396" lon="-4.37558">
        <ele>77</ele>
        <time>2024-04-10T17:52:16.047Z</time>
      </trkpt>
      <trkpt lat="48.084" lon="-4.37633">
        <ele>77.5</ele>
        <time>2024-04-10T17:52:25.107Z</time>
      </trkpt>
      <trkpt lat="48.08397" lon="-4.37772">
        <ele>76</ele>
        <time>2024-04-10T17:52:38.236Z</time>
      </trkpt>
      <trkpt lat="48.08395" lon="-4.37833">
        <ele>76</ele>
        <time>2024-04-10T17:52:44.906Z</time>
      </trkpt>
      <trkpt lat="48.08396" lon="-4.37893">
        <ele>77</ele>
        <time>2024-04-10T17:52:53.381Z</time>
      </trkpt>
      <trkpt lat="48.08399" lon="-4.37947">
        <ele>77.1</ele>
        <time>2024-04-10T17:52:59.458Z</time>
      </trkpt>
      <trkpt lat="48.08404" lon="-4.37988">
        <ele>77.8</ele>
        <time>2024-04-10T17:53:05.357Z</time>
      </trkpt>
      <trkpt lat="48.0842" lon="-4.38076">
        <ele>78.6</ele>
        <time>2024-04-10T17:53:16.703Z</time>
        <extensions>
          <visugpx:TrkExtension xmlns:visugpx="https://www.visugpx.com/editgpx/">
            <visugpx:node>8</visugpx:node>
            </visugpx:TrkExtension>
        </extensions>
      </trkpt>
      <trkpt lat="48.08444" lon="-4.38213">
        <ele>80</ele>
        <time>2024-04-10T17:53:34.630Z</time>
      </trkpt>
      <trkpt lat="48.08455" lon="-4.38255">
        <ele>80.5</ele>
        <time>2024-04-10T17:53:40.449Z</time>
      </trkpt>
      <trkpt lat="48.08477" lon="-4.38342">
        <ele>82.4</ele>
        <time>2024-04-10T17:53:54.450Z</time>
      </trkpt>
      <trkpt lat="48.08504" lon="-4.38446">
        <ele>85.2</ele>
        <time>2024-04-10T17:54:12.679Z</time>
      </trkpt>
      <trkpt lat="48.08545" lon="-4.38598">
        <ele>88.6</ele>
        <time>2024-04-10T17:54:37.486Z</time>
      </trkpt>
      <trkpt lat="48.08575" lon="-4.38722">
        <ele>88.7</ele>
        <time>2024-04-10T17:54:52.045Z</time>
      </trkpt>
      <trkpt lat="48.08601" lon="-4.38836">
        <ele>88.6</ele>
        <time>2024-04-10T17:55:05.046Z</time>
      </trkpt>
      <trkpt lat="48.08605" lon="-4.3886">
        <ele>88.6</ele>
        <time>2024-04-10T17:55:07.747Z</time>
      </trkpt>
      <trkpt lat="48.08607" lon="-4.38902">
        <ele>87.7</ele>
        <time>2024-04-10T17:55:11.243Z</time>
      </trkpt>
      <trkpt lat="48.08606" lon="-4.38942">
        <ele>87.8</ele>
        <time>2024-04-10T17:55:15.774Z</time>
      </trkpt>
      <trkpt lat="48.08602" lon="-4.39002">
        <ele>87.7</ele>
        <time>2024-04-10T17:55:22.207Z</time>
      </trkpt>
      <trkpt lat="48.08597" lon="-4.39044">
        <ele>88.5</ele>
        <time>2024-04-10T17:55:28.446Z</time>
      </trkpt>
      <trkpt lat="48.08581" lon="-4.39199">
        <ele>90</ele>
        <time>2024-04-10T17:55:48.199Z</time>
      </trkpt>
      <trkpt lat="48.08575" lon="-4.39246">
        <ele>90.9</ele>
        <time>2024-04-10T17:55:55.205Z</time>
      </trkpt>
      <trkpt lat="48.08565" lon="-4.39291">
        <ele>91.3</ele>
        <time>2024-04-10T17:56:01.074Z</time>
      </trkpt>
      <trkpt lat="48.08553" lon="-4.39329">
        <ele>91.8</ele>
        <time>2024-04-10T17:56:06.566Z</time>
      </trkpt>
      <trkpt lat="48.0854" lon="-4.39362">
        <ele>91.4</ele>
        <time>2024-04-10T17:56:10.198Z</time>
      </trkpt>
      <trkpt lat="48.08496" lon="-4.39463">
        <ele>88.8</ele>
        <time>2024-04-10T17:56:20.188Z</time>
      </trkpt>
      <trkpt lat="48.08476" lon="-4.39514">
        <ele>87.3</ele>
        <time>2024-04-10T17:56:24.882Z</time>
      </trkpt>
      <trkpt lat="48.08459" lon="-4.39576">
        <ele>85.5</ele>
        <time>2024-04-10T17:56:30.115Z</time>
      </trkpt>
      <trkpt lat="48.08456" lon="-4.39594">
        <ele>85.4</ele>
        <time>2024-04-10T17:56:31.995Z</time>
      </trkpt>
      <trkpt lat="48.08454" lon="-4.39615">
        <ele>85.3</ele>
        <time>2024-04-10T17:56:34.165Z</time>
      </trkpt>
      <trkpt lat="48.08438" lon="-4.39869">
        <ele>82.8</ele>
        <time>2024-04-10T17:56:58.557Z</time>
      </trkpt>
      <trkpt lat="48.08434" lon="-4.39946">
        <ele>82.6</ele>
        <time>2024-04-10T17:57:06.690Z</time>
      </trkpt>
      <trkpt lat="48.0843" lon="-4.40061">
        <ele>82.9</ele>
        <time>2024-04-10T17:57:19.747Z</time>
      </trkpt>
      <trkpt lat="48.0843" lon="-4.4014">
        <ele>82.5</ele>
        <time>2024-04-10T17:57:27.789Z</time>
      </trkpt>
      <trkpt lat="48.08431" lon="-4.40189">
        <ele>82.5</ele>
        <time>2024-04-10T17:57:33.143Z</time>
      </trkpt>
      <trkpt lat="48.08428" lon="-4.40229">
        <ele>82.4</ele>
        <time>2024-04-10T17:57:37.387Z</time>
      </trkpt>
      <trkpt lat="48.08417" lon="-4.40326">
        <ele>82</ele>
        <time>2024-04-10T17:57:47.540Z</time>
      </trkpt>
      <trkpt lat="48.0841" lon="-4.40361">
        <ele>81.8</ele>
        <time>2024-04-10T17:57:51.238Z</time>
      </trkpt>
      <trkpt lat="48.08399" lon="-4.40404">
        <ele>81</ele>
        <time>2024-04-10T17:57:55.244Z</time>
      </trkpt>
      <trkpt lat="48.08376" lon="-4.40493">
        <ele>80</ele>
        <time>2024-04-10T17:58:04.289Z</time>
      </trkpt>
      <trkpt lat="48.08363" lon="-4.40532">
        <ele>79.8</ele>
        <time>2024-04-10T17:58:08.754Z</time>
      </trkpt>
      <trkpt lat="48.08351" lon="-4.40564">
        <ele>79</ele>
        <time>2024-04-10T17:58:11.786Z</time>
      </trkpt>
      <trkpt lat="48.08329" lon="-4.40615">
        <ele>78</ele>
        <time>2024-04-10T17:58:17.126Z</time>
      </trkpt>
      <trkpt lat="48.08313" lon="-4.4065">
        <ele>78</ele>
        <time>2024-04-10T17:58:21.758Z</time>
      </trkpt>
      <trkpt lat="48.08293" lon="-4.40696">
        <ele>76.9</ele>
        <time>2024-04-10T17:58:26.385Z</time>
      </trkpt>
      <trkpt lat="48.08271" lon="-4.40759">
        <ele>75.5</ele>
        <time>2024-04-10T17:58:32.404Z</time>
      </trkpt>
      <trkpt lat="48.0826" lon="-4.408">
        <ele>74.7</ele>
        <time>2024-04-10T17:58:36.215Z</time>
      </trkpt>
      <trkpt lat="48.08256" lon="-4.4082">
        <ele>74.4</ele>
        <time>2024-04-10T17:58:38.099Z</time>
      </trkpt>
      <trkpt lat="48.08254" lon="-4.40828">
        <ele>74.2</ele>
        <time>2024-04-10T17:58:38.792Z</time>
      </trkpt>
      <trkpt lat="48.08249" lon="-4.40851">
        <ele>74</ele>
        <time>2024-04-10T17:58:41.151Z</time>
      </trkpt>
      <trkpt lat="48.08238" lon="-4.40898">
        <ele>72.9</ele>
        <time>2024-04-10T17:58:45.252Z</time>
      </trkpt>
      <trkpt lat="48.08209" lon="-4.4101">
        <ele>71.3</ele>
        <time>2024-04-10T17:58:56.235Z</time>
      </trkpt>
      <trkpt lat="48.08205" lon="-4.41025">
        <ele>71</ele>
        <time>2024-04-10T17:58:57.621Z</time>
      </trkpt>
      <trkpt lat="48.08206" lon="-4.41035">
        <ele>71.1</ele>
        <time>2024-04-10T17:58:58.901Z</time>
      </trkpt>
      <trkpt lat="48.08201" lon="-4.41042">
        <ele>71.1</ele>
        <time>2024-04-10T17:59:00.020Z</time>
      </trkpt>
      <trkpt lat="48.08196" lon="-4.41041">
        <ele>71</ele>
        <time>2024-04-10T17:59:00.711Z</time>
      </trkpt>
      <trkpt lat="48.08148" lon="-4.4119">
        <ele>73</ele>
        <time>2024-04-10T17:59:22.393Z</time>
      </trkpt>
      <trkpt lat="48.08135" lon="-4.41211">
        <ele>73.7</ele>
        <time>2024-04-10T17:59:27.017Z</time>
      </trkpt>
      <trkpt lat="48.08111" lon="-4.41242">
        <ele>75</ele>
        <time>2024-04-10T17:59:35.099Z</time>
      </trkpt>
      <trkpt lat="48.08066" lon="-4.41291">
        <ele>77</ele>
        <time>2024-04-10T17:59:48.447Z</time>
      </trkpt>
      <trkpt lat="48.08058" lon="-4.41303">
        <ele>77</ele>
        <time>2024-04-10T17:59:50.299Z</time>
      </trkpt>
      <trkpt lat="48.08055" lon="-4.41319">
        <ele>77.5</ele>
        <time>2024-04-10T17:59:53.273Z</time>
      </trkpt>
      <trkpt lat="48.08055" lon="-4.41354">
        <ele>78</ele>
        <time>2024-04-10T17:59:58.026Z</time>
      </trkpt>
      <trkpt lat="48.08053" lon="-4.41362">
        <ele>78</ele>
        <time>2024-04-10T17:59:58.959Z</time>
      </trkpt>
      <trkpt lat="48.08047" lon="-4.41376">
        <ele>78</ele>
        <time>2024-04-10T18:00:00.776Z</time>
      </trkpt>
      <trkpt lat="48.08043" lon="-4.41385">
        <ele>78</ele>
        <time>2024-04-10T18:00:01.956Z</time>
      </trkpt>
      <trkpt lat="48.08034" lon="-4.41394">
        <ele>78</ele>
        <time>2024-04-10T18:00:03.726Z</time>
      </trkpt>
      <trkpt lat="48.08025" lon="-4.4141">
        <ele>78</ele>
        <time>2024-04-10T18:00:06.010Z</time>
      </trkpt>
      <trkpt lat="48.08021" lon="-4.41421">
        <ele>78</ele>
        <time>2024-04-10T18:00:07.378Z</time>
      </trkpt>
      <trkpt lat="48.08019" lon="-4.41431">
        <ele>78</ele>
        <time>2024-04-10T18:00:08.518Z</time>
      </trkpt>
      <trkpt lat="48.08021" lon="-4.4144">
        <ele>78</ele>
        <time>2024-04-10T18:00:09.554Z</time>
      </trkpt>
      <trkpt lat="48.08025" lon="-4.41454">
        <ele>78</ele>
        <time>2024-04-10T18:00:11.217Z</time>
      </trkpt>
      <trkpt lat="48.08033" lon="-4.41473">
        <ele>78</ele>
        <time>2024-04-10T18:00:13.670Z</time>
      </trkpt>
      <trkpt lat="48.08034" lon="-4.41506">
        <ele>78.8</ele>
        <time>2024-04-10T18:00:18.983Z</time>
      </trkpt>
      <trkpt lat="48.08031" lon="-4.41532">
        <ele>79.2</ele>
        <time>2024-04-10T18:00:22.618Z</time>
      </trkpt>
      <trkpt lat="48.08026" lon="-4.41551">
        <ele>79.8</ele>
        <time>2024-04-10T18:00:26.225Z</time>
      </trkpt>
      <trkpt lat="48.08018" lon="-4.41576">
        <ele>79.9</ele>
        <time>2024-04-10T18:00:29.415Z</time>
      </trkpt>
      <trkpt lat="48.08013" lon="-4.41603">
        <ele>80</ele>
        <time>2024-04-10T18:00:32.637Z</time>
      </trkpt>
      <trkpt lat="48.08008" lon="-4.41637">
        <ele>80.3</ele>
        <time>2024-04-10T18:00:36.958Z</time>
      </trkpt>
      <trkpt lat="48.08005" lon="-4.41655">
        <ele>80.7</ele>
        <time>2024-04-10T18:00:39.806Z</time>
      </trkpt>
      <trkpt lat="48.08003" lon="-4.41665">
        <ele>80.9</ele>
        <time>2024-04-10T18:00:41.344Z</time>
      </trkpt>
      <trkpt lat="48.07998" lon="-4.41699">
        <ele>81.2</ele>
        <time>2024-04-10T18:00:45.665Z</time>
      </trkpt>
      <trkpt lat="48.07994" lon="-4.41719">
        <ele>81.7</ele>
        <time>2024-04-10T18:00:49.007Z</time>
      </trkpt>
      <trkpt lat="48.07977" lon="-4.41758">
        <ele>82.5</ele>
        <time>2024-04-10T18:00:55.640Z</time>
      </trkpt>
      <trkpt lat="48.0797" lon="-4.41776">
        <ele>82.8</ele>
        <time>2024-04-10T18:00:58.474Z</time>
      </trkpt>
      <trkpt lat="48.07962" lon="-4.41817">
        <ele>82.9</ele>
        <time>2024-04-10T18:01:03.299Z</time>
      </trkpt>
      <trkpt lat="48.07952" lon="-4.41869">
        <ele>83.5</ele>
        <time>2024-04-10T18:01:10.280Z</time>
      </trkpt>
      <trkpt lat="48.07951" lon="-4.4188">
        <ele>83.8</ele>
        <time>2024-04-10T18:01:12.158Z</time>
      </trkpt>
      <trkpt lat="48.07955" lon="-4.41882">
        <ele>83.8</ele>
        <time>2024-04-10T18:01:12.847Z</time>
      </trkpt>
      <trkpt lat="48.07958" lon="-4.41891">
        <ele>84</ele>
        <time>2024-04-10T18:01:14.347Z</time>
      </trkpt>
      <trkpt lat="48.07958" lon="-4.41894">
        <ele>84.1</ele>
        <time>2024-04-10T18:01:14.918Z</time>
      </trkpt>
      <trkpt lat="48.07954" lon="-4.41902">
        <ele>84.2</ele>
        <time>2024-04-10T18:01:16.186Z</time>
      </trkpt>
      <trkpt lat="48.07967" lon="-4.41932">
        <ele>84.8</ele>
        <time>2024-04-10T18:01:21.245Z</time>
      </trkpt>
      <trkpt lat="48.08029" lon="-4.42029">
        <ele>85</ele>
        <time>2024-04-10T18:01:36.223Z</time>
      </trkpt>
      <trkpt lat="48.08046" lon="-4.42062">
        <ele>84.3</ele>
        <time>2024-04-10T18:01:39.875Z</time>
      </trkpt>
      <trkpt lat="48.08055" lon="-4.42086">
        <ele>84</ele>
        <time>2024-04-10T18:01:42.470Z</time>
      </trkpt>
      <trkpt lat="48.08063" lon="-4.42115">
        <ele>83.7</ele>
        <time>2024-04-10T18:01:45.479Z</time>
      </trkpt>
      <trkpt lat="48.08071" lon="-4.42151">
        <ele>83.7</ele>
        <time>2024-04-10T18:01:49.622Z</time>
      </trkpt>
      <trkpt lat="48.08078" lon="-4.42195">
        <ele>84</ele>
        <time>2024-04-10T18:01:55.068Z</time>
      </trkpt>
      <trkpt lat="48.08079" lon="-4.42199">
        <ele>84</ele>
        <time>2024-04-10T18:01:55.534Z</time>
      </trkpt>
      <trkpt lat="48.08118" lon="-4.42451">
        <ele>83.2</ele>
        <time>2024-04-10T18:02:22.587Z</time>
      </trkpt>
      <trkpt lat="48.08134" lon="-4.42566">
        <ele>84.1</ele>
        <time>2024-04-10T18:02:36.953Z</time>
      </trkpt>
      <trkpt lat="48.08135" lon="-4.42602">
        <ele>84.1</ele>
        <time>2024-04-10T18:02:40.888Z</time>
      </trkpt>
      <trkpt lat="48.08134" lon="-4.42714">
        <ele>85.1</ele>
        <time>2024-04-10T18:02:54.857Z</time>
        <extensions>
          <visugpx:TrkExtension xmlns:visugpx="https://www.visugpx.com/editgpx/">
            <visugpx:node>9</visugpx:node>
            </visugpx:TrkExtension>
        </extensions>
      </trkpt>
      <trkpt lat="48.08133" lon="-4.42727">
        <ele>85</ele>
        <time>2024-04-10T18:02:56.144Z</time>
      </trkpt>
      <trkpt lat="48.08122" lon="-4.42858">
        <ele>84.1</ele>
        <time>2024-04-10T18:03:09.272Z</time>
      </trkpt>
      <trkpt lat="48.08122" lon="-4.42912">
        <ele>83.6</ele>
        <time>2024-04-10T18:03:14.472Z</time>
      </trkpt>
      <trkpt lat="48.08136" lon="-4.43136">
        <ele>82.1</ele>
        <time>2024-04-10T18:03:36.886Z</time>
      </trkpt>
      <trkpt lat="48.08141" lon="-4.43192">
        <ele>81</ele>
        <time>2024-04-10T18:03:41.682Z</time>
      </trkpt>
      <trkpt lat="48.08142" lon="-4.4326">
        <ele>81.8</ele>
        <time>2024-04-10T18:03:50.550Z</time>
      </trkpt>
      <trkpt lat="48.08141" lon="-4.43299">
        <ele>81.1</ele>
        <time>2024-04-10T18:03:53.924Z</time>
      </trkpt>
      <trkpt lat="48.08137" lon="-4.43348">
        <ele>81.7</ele>
        <time>2024-04-10T18:04:00.401Z</time>
      </trkpt>
      <trkpt lat="48.08132" lon="-4.43397">
        <ele>82.3</ele>
        <time>2024-04-10T18:04:06.900Z</time>
      </trkpt>
      <trkpt lat="48.08103" lon="-4.43549">
        <ele>83.1</ele>
        <time>2024-04-10T18:04:25.487Z</time>
      </trkpt>
      <trkpt lat="48.08081" lon="-4.43644">
        <ele>81.8</ele>
        <time>2024-04-10T18:04:34.725Z</time>
      </trkpt>
      <trkpt lat="48.0806" lon="-4.43719">
        <ele>80.3</ele>
        <time>2024-04-10T18:04:41.712Z</time>
      </trkpt>
      <trkpt lat="48.08034" lon="-4.43788">
        <ele>79.1</ele>
        <time>2024-04-10T18:04:48.794Z</time>
      </trkpt>
      <trkpt lat="48.07973" lon="-4.43952">
        <ele>77</ele>
        <time>2024-04-10T18:05:06.425Z</time>
      </trkpt>
      <trkpt lat="48.07943" lon="-4.44033">
        <ele>77</ele>
        <time>2024-04-10T18:05:16.540Z</time>
      </trkpt>
      <trkpt lat="48.0794" lon="-4.44041">
        <ele>76.9</ele>
        <time>2024-04-10T18:05:17.405Z</time>
      </trkpt>
      <trkpt lat="48.07877" lon="-4.44209">
        <ele>76</ele>
        <time>2024-04-10T18:05:37.123Z</time>
      </trkpt>
      <trkpt lat="48.07808" lon="-4.4439">
        <ele>74</ele>
        <time>2024-04-10T18:05:57.102Z</time>
      </trkpt>
      <trkpt lat="48.07732" lon="-4.44554">
        <ele>73</ele>
        <time>2024-04-10T18:06:17.436Z</time>
      </trkpt>
      <trkpt lat="48.07635" lon="-4.44761">
        <ele>72.2</ele>
        <time>2024-04-10T18:06:43.853Z</time>
      </trkpt>
      <trkpt lat="48.07583" lon="-4.44881">
        <ele>71</ele>
        <time>2024-04-10T18:06:57.784Z</time>
      </trkpt>
      <trkpt lat="48.0757" lon="-4.44916">
        <ele>70.5</ele>
        <time>2024-04-10T18:07:01.485Z</time>
      </trkpt>
      <trkpt lat="48.07561" lon="-4.44942">
        <ele>69.8</ele>
        <time>2024-04-10T18:07:03.847Z</time>
      </trkpt>
      <trkpt lat="48.07542" lon="-4.45045">
        <ele>68.2</ele>
        <time>2024-04-10T18:07:13.421Z</time>
      </trkpt>
      <trkpt lat="48.07537" lon="-4.45091">
        <ele>67.7</ele>
        <time>2024-04-10T18:07:17.825Z</time>
      </trkpt>
      <trkpt lat="48.07536" lon="-4.45124">
        <ele>67.6</ele>
        <time>2024-04-10T18:07:21.283Z</time>
      </trkpt>
      <trkpt lat="48.07543" lon="-4.45182">
        <ele>68.1</ele>
        <time>2024-04-10T18:07:28.584Z</time>
      </trkpt>
      <trkpt lat="48.07552" lon="-4.45291">
        <ele>68.9</ele>
        <time>2024-04-10T18:07:41.940Z</time>
      </trkpt>
      <trkpt lat="48.07553" lon="-4.45317">
        <ele>68.9</ele>
        <time>2024-04-10T18:07:44.785Z</time>
      </trkpt>
      <trkpt lat="48.0755" lon="-4.45367">
        <ele>69.2</ele>
        <time>2024-04-10T18:07:50.770Z</time>
      </trkpt>
      <trkpt lat="48.07538" lon="-4.45472">
        <ele>70</ele>
        <time>2024-04-10T18:08:03.769Z</time>
      </trkpt>
      <trkpt lat="48.07526" lon="-4.45539">
        <ele>71</ele>
        <time>2024-04-10T18:08:13.210Z</time>
      </trkpt>
      <trkpt lat="48.07485" lon="-4.45689">
        <ele>72.5</ele>
        <time>2024-04-10T18:08:33.527Z</time>
      </trkpt>
      <trkpt lat="48.07467" lon="-4.45771">
        <ele>74.1</ele>
        <time>2024-04-10T18:08:46.107Z</time>
      </trkpt>
      <trkpt lat="48.07454" lon="-4.45838">
        <ele>75.1</ele>
        <time>2024-04-10T18:08:55.590Z</time>
      </trkpt>
      <trkpt lat="48.07449" lon="-4.45875">
        <ele>76.3</ele>
        <time>2024-04-10T18:09:02.566Z</time>
      </trkpt>
      <trkpt lat="48.07433" lon="-4.46017">
        <ele>78.6</ele>
        <time>2024-04-10T18:09:22.673Z</time>
      </trkpt>
      <trkpt lat="48.07431" lon="-4.46046">
        <ele>79</ele>
        <time>2024-04-10T18:09:26.596Z</time>
      </trkpt>
      <trkpt lat="48.07429" lon="-4.46067">
        <ele>79.2</ele>
        <time>2024-04-10T18:09:29.263Z</time>
      </trkpt>
      <trkpt lat="48.07418" lon="-4.4617">
        <ele>80</ele>
        <time>2024-04-10T18:09:42.023Z</time>
      </trkpt>
      <trkpt lat="48.074" lon="-4.46324">
        <ele>80</ele>
        <time>2024-04-10T18:09:59.100Z</time>
      </trkpt>
      <trkpt lat="48.07353" lon="-4.466">
        <ele>81</ele>
        <time>2024-04-10T18:10:31.833Z</time>
      </trkpt>
      <trkpt lat="48.07349" lon="-4.4664">
        <ele>81</ele>
        <time>2024-04-10T18:10:36.251Z</time>
      </trkpt>
      <trkpt lat="48.07347" lon="-4.46699">
        <ele>81</ele>
        <time>2024-04-10T18:10:42.703Z</time>
      </trkpt>
      <trkpt lat="48.07345" lon="-4.46766">
        <ele>81</ele>
        <time>2024-04-10T18:10:50.029Z</time>
      </trkpt>
      <trkpt lat="48.07347" lon="-4.46844">
        <ele>81</ele>
        <time>2024-04-10T18:10:58.555Z</time>
      </trkpt>
      <trkpt lat="48.07356" lon="-4.46914">
        <ele>80.2</ele>
        <time>2024-04-10T18:11:05.249Z</time>
      </trkpt>
      <trkpt lat="48.07363" lon="-4.46986">
        <ele>79.9</ele>
        <time>2024-04-10T18:11:12.752Z</time>
      </trkpt>
      <trkpt lat="48.07365" lon="-4.47056">
        <ele>78.9</ele>
        <time>2024-04-10T18:11:19.085Z</time>
        <extensions>
          <visugpx:TrkExtension xmlns:visugpx="https://www.visugpx.com/editgpx/">
            <visugpx:node>10</visugpx:node>
            </visugpx:TrkExtension>
        </extensions>
      </trkpt>
      <trkpt lat="48.07367" lon="-4.47098">
        <ele>78.8</ele>
        <time>2024-04-10T18:11:23.533Z</time>
      </trkpt>
      <trkpt lat="48.0736" lon="-4.47193">
        <ele>78</ele>
        <time>2024-04-10T18:11:32.845Z</time>
      </trkpt>
      <trkpt lat="48.07359" lon="-4.47207">
        <ele>78.1</ele>
        <time>2024-04-10T18:11:34.552Z</time>
      </trkpt>
      <trkpt lat="48.07358" lon="-4.47217">
        <ele>78.1</ele>
        <time>2024-04-10T18:11:35.657Z</time>
      </trkpt>
      <trkpt lat="48.07342" lon="-4.47208">
        <ele>78.7</ele>
        <time>2024-04-10T18:11:39.716Z</time>
      </trkpt>
      <trkpt lat="48.0734" lon="-4.47209">
        <ele>78.8</ele>
        <time>2024-04-10T18:11:40.298Z</time>
      </trkpt>
      <trkpt lat="48.07315" lon="-4.47218">
        <ele>79.1</ele>
        <time>2024-04-10T18:11:45.015Z</time>
      </trkpt>
      <trkpt lat="48.07281" lon="-4.47236">
        <ele>79.4</ele>
        <time>2024-04-10T18:11:51.410Z</time>
      </trkpt>
      <trkpt lat="48.07259" lon="-4.47251">
        <ele>79.7</ele>
        <time>2024-04-10T18:11:55.879Z</time>
      </trkpt>
      <trkpt lat="48.07245" lon="-4.47264">
        <ele>79.8</ele>
        <time>2024-04-10T18:11:58.735Z</time>
      </trkpt>
      <trkpt lat="48.0723" lon="-4.47277">
        <ele>79.3</ele>
        <time>2024-04-10T18:12:00.943Z</time>
      </trkpt>
      <trkpt lat="48.07199" lon="-4.47314">
        <ele>79.3</ele>
        <time>2024-04-10T18:12:07.425Z</time>
      </trkpt>
      <trkpt lat="48.07117" lon="-4.47424">
        <ele>79.2</ele>
        <time>2024-04-10T18:12:25.272Z</time>
      </trkpt>
      <trkpt lat="48.07094" lon="-4.47449">
        <ele>79</ele>
        <time>2024-04-10T18:12:29.625Z</time>
      </trkpt>
      <trkpt lat="48.07074" lon="-4.47469">
        <ele>79</ele>
        <time>2024-04-10T18:12:33.558Z</time>
      </trkpt>
      <trkpt lat="48.06909" lon="-4.47623">
        <ele>77</ele>
        <time>2024-04-10T18:13:02.478Z</time>
      </trkpt>
      <trkpt lat="48.06864" lon="-4.47661">
        <ele>77</ele>
        <time>2024-04-10T18:13:10.925Z</time>
      </trkpt>
      <trkpt lat="48.06815" lon="-4.47691">
        <ele>76.1</ele>
        <time>2024-04-10T18:13:18.353Z</time>
      </trkpt>
      <trkpt lat="48.06695" lon="-4.47758">
        <ele>74.7</ele>
        <time>2024-04-10T18:13:37.292Z</time>
      </trkpt>
      <trkpt lat="48.0662" lon="-4.47801">
        <ele>73.4</ele>
        <time>2024-04-10T18:13:48.639Z</time>
      </trkpt>
      <trkpt lat="48.06585" lon="-4.47818">
        <ele>73</ele>
        <time>2024-04-10T18:13:54.083Z</time>
      </trkpt>
      <trkpt lat="48.06527" lon="-4.47837">
        <ele>71.8</ele>
        <time>2024-04-10T18:14:02.191Z</time>
      </trkpt>
      <trkpt lat="48.06483" lon="-4.47846">
        <ele>70.4</ele>
        <time>2024-04-10T18:14:07.730Z</time>
      </trkpt>
      <trkpt lat="48.06451" lon="-4.47846">
        <ele>69.2</ele>
        <time>2024-04-10T18:14:11.545Z</time>
      </trkpt>
      <trkpt lat="48.06411" lon="-4.47843">
        <ele>67.8</ele>
        <time>2024-04-10T18:14:16.412Z</time>
      </trkpt>
      <trkpt lat="48.06282" lon="-4.47811">
        <ele>64.8</ele>
        <time>2024-04-10T18:14:33.871Z</time>
      </trkpt>
      <trkpt lat="48.06256" lon="-4.47803">
        <ele>64.2</ele>
        <time>2024-04-10T18:14:37.425Z</time>
      </trkpt>
      <trkpt lat="48.06229" lon="-4.47799">
        <ele>64</ele>
        <time>2024-04-10T18:14:41.567Z</time>
      </trkpt>
      <trkpt lat="48.0621" lon="-4.478">
        <ele>63.6</ele>
        <time>2024-04-10T18:14:44.145Z</time>
      </trkpt>
      <trkpt lat="48.06187" lon="-4.47805">
        <ele>63</ele>
        <time>2024-04-10T18:14:47.177Z</time>
      </trkpt>
      <trkpt lat="48.05986" lon="-4.47886">
        <ele>60.1</ele>
        <time>2024-04-10T18:15:17.160Z</time>
      </trkpt>
      <trkpt lat="48.0594" lon="-4.479">
        <ele>60</ele>
        <time>2024-04-10T18:15:24.681Z</time>
      </trkpt>
      <trkpt lat="48.05912" lon="-4.47916">
        <ele>60</ele>
        <time>2024-04-10T18:15:29.581Z</time>
      </trkpt>
      <trkpt lat="48.05892" lon="-4.4793">
        <ele>59.5</ele>
        <time>2024-04-10T18:15:32.536Z</time>
      </trkpt>
      <trkpt lat="48.05863" lon="-4.47958">
        <ele>59.9</ele>
        <time>2024-04-10T18:15:38.863Z</time>
      </trkpt>
      <trkpt lat="48.05773" lon="-4.48072">
        <ele>67.4</ele>
        <time>2024-04-10T18:16:19.044Z</time>
      </trkpt>
      <trkpt lat="48.05725" lon="-4.48112">
        <ele>68.9</ele>
        <time>2024-04-10T18:16:30.970Z</time>
      </trkpt>
      <trkpt lat="48.05632" lon="-4.48166">
        <ele>66.8</ele>
        <time>2024-04-10T18:16:44.498Z</time>
      </trkpt>
      <trkpt lat="48.05555" lon="-4.48193">
        <ele>66</ele>
        <time>2024-04-10T18:16:56.278Z</time>
      </trkpt>
      <trkpt lat="48.0552" lon="-4.48209">
        <ele>66.3</ele>
        <time>2024-04-10T18:17:02.759Z</time>
      </trkpt>
      <trkpt lat="48.05481" lon="-4.48241">
        <ele>67.2</ele>
        <time>2024-04-10T18:17:11.689Z</time>
      </trkpt>
      <trkpt lat="48.0544" lon="-4.48285">
        <ele>68.1</ele>
        <time>2024-04-10T18:17:21.561Z</time>
      </trkpt>
      <trkpt lat="48.05415" lon="-4.48308">
        <ele>68</ele>
        <time>2024-04-10T18:17:26.208Z</time>
      </trkpt>
      <trkpt lat="48.05406" lon="-4.48316">
        <ele>68</ele>
        <time>2024-04-10T18:17:27.919Z</time>
      </trkpt>
      <trkpt lat="48.05393" lon="-4.48323">
        <ele>68</ele>
        <time>2024-04-10T18:17:30.178Z</time>
      </trkpt>
      <trkpt lat="48.05141" lon="-4.48431">
        <ele>60.4</ele>
        <time>2024-04-10T18:18:03.524Z</time>
      </trkpt>
      <trkpt lat="48.05098" lon="-4.48449">
        <ele>60.5</ele>
        <time>2024-04-10T18:18:10.981Z</time>
      </trkpt>
      <trkpt lat="48.04999" lon="-4.48473">
        <ele>63</ele>
        <time>2024-04-10T18:18:32.179Z</time>
      </trkpt>
      <trkpt lat="48.04869" lon="-4.48502">
        <ele>63.3</ele>
        <time>2024-04-10T18:18:54.141Z</time>
      </trkpt>
      <trkpt lat="48.04817" lon="-4.48513">
        <ele>62.4</ele>
        <time>2024-04-10T18:19:01.500Z</time>
      </trkpt>
      <trkpt lat="48.04804" lon="-4.48522">
        <ele>62</ele>
        <time>2024-04-10T18:19:03.338Z</time>
      </trkpt>
      <trkpt lat="48.04776" lon="-4.48533">
        <ele>61</ele>
        <time>2024-04-10T18:19:06.866Z</time>
      </trkpt>
      <trkpt lat="48.04728" lon="-4.4854">
        <ele>60.1</ele>
        <time>2024-04-10T18:19:13.538Z</time>
      </trkpt>
      <trkpt lat="48.0469" lon="-4.48546">
        <ele>59.3</ele>
        <time>2024-04-10T18:19:18.725Z</time>
      </trkpt>
      <trkpt lat="48.04639" lon="-4.48549">
        <ele>58</ele>
        <time>2024-04-10T18:19:25.401Z</time>
      </trkpt>
      <trkpt lat="48.04628" lon="-4.48555">
        <ele>58</ele>
        <time>2024-04-10T18:19:27.315Z</time>
      </trkpt>
      <trkpt lat="48.0462" lon="-4.48569">
        <ele>57.7</ele>
        <time>2024-04-10T18:19:28.940Z</time>
      </trkpt>
      <trkpt lat="48.04599" lon="-4.48607">
        <ele>57</ele>
        <time>2024-04-10T18:19:33.403Z</time>
      </trkpt>
      <trkpt lat="48.04573" lon="-4.48656">
        <ele>54.1</ele>
        <time>2024-04-10T18:19:37.505Z</time>
      </trkpt>
      <trkpt lat="48.04557" lon="-4.48681">
        <ele>52.5</ele>
        <time>2024-04-10T18:19:39.775Z</time>
      </trkpt>
      <trkpt lat="48.04554" lon="-4.48684">
        <ele>52.1</ele>
        <time>2024-04-10T18:19:40.129Z</time>
        <extensions>
          <visugpx:TrkExtension xmlns:visugpx="https://www.visugpx.com/editgpx/">
            <visugpx:node>11</visugpx:node>
            </visugpx:TrkExtension>
        </extensions>
      </trkpt>
      <trkpt lat="48.04539" lon="-4.48699">
        <ele>50.6</ele>
        <time>2024-04-10T18:19:41.898Z</time>
      </trkpt>
      <trkpt lat="48.04518" lon="-4.48711">
        <ele>48.3</ele>
        <time>2024-04-10T18:19:44.103Z</time>
      </trkpt>
      <trkpt lat="48.04487" lon="-4.48725">
        <ele>44.1</ele>
        <time>2024-04-10T18:19:47.280Z</time>
      </trkpt>
      <trkpt lat="48.0447" lon="-4.48733">
        <ele>42.7</ele>
        <time>2024-04-10T18:19:49.028Z</time>
      </trkpt>
      <trkpt lat="48.04431" lon="-4.48751">
        <ele>39.1</ele>
        <time>2024-04-10T18:19:53.031Z</time>
      </trkpt>
      <trkpt lat="48.04341" lon="-4.48792">
        <ele>35.3</ele>
        <time>2024-04-10T18:20:04.014Z</time>
      </trkpt>
      <trkpt lat="48.0433" lon="-4.48794">
        <ele>34.9</ele>
        <time>2024-04-10T18:20:05.349Z</time>
      </trkpt>
      <trkpt lat="48.04266" lon="-4.48781">
        <ele>33.6</ele>
        <time>2024-04-10T18:20:14.175Z</time>
      </trkpt>
      <trkpt lat="48.04253" lon="-4.48895">
        <ele>32.8</ele>
        <time>2024-04-10T18:20:25.667Z</time>
      </trkpt>
      <trkpt lat="48.04248" lon="-4.48939">
        <ele>32</ele>
        <time>2024-04-10T18:20:29.529Z</time>
      </trkpt>
      <trkpt lat="48.04247" lon="-4.48954">
        <ele>32</ele>
        <time>2024-04-10T18:20:31.177Z</time>
      </trkpt>
      <trkpt lat="48.04206" lon="-4.48961">
        <ele>31.7</ele>
        <time>2024-04-10T18:20:37.482Z</time>
      </trkpt>
      <trkpt lat="48.0413" lon="-4.48972">
        <ele>29.7</ele>
        <time>2024-04-10T18:20:47.413Z</time>
      </trkpt>
      <trkpt lat="48.04099" lon="-4.48975">
        <ele>28.5</ele>
        <time>2024-04-10T18:20:51.086Z</time>
      </trkpt>
      <trkpt lat="48.04093" lon="-4.4898">
        <ele>28.2</ele>
        <time>2024-04-10T18:20:51.869Z</time>
      </trkpt>
      <trkpt lat="48.04088" lon="-4.48992">
        <ele>27.6</ele>
        <time>2024-04-10T18:20:52.815Z</time>
      </trkpt>
      <trkpt lat="48.04085" lon="-4.4901">
        <ele>26.4</ele>
        <time>2024-04-10T18:20:54.032Z</time>
      </trkpt>
      <trkpt lat="48.04081" lon="-4.49034">
        <ele>24.7</ele>
        <time>2024-04-10T18:20:55.654Z</time>
      </trkpt>
      <trkpt lat="48.0408" lon="-4.49036">
        <ele>24.6</ele>
        <time>2024-04-10T18:20:55.825Z</time>
      </trkpt>
      <trkpt lat="48.04043" lon="-4.49027">
        <ele>19.8</ele>
        <time>2024-04-10T18:20:59.501Z</time>
      </trkpt>
      <trkpt lat="48.04032" lon="-4.49017">
        <ele>18.2</ele>
        <time>2024-04-10T18:21:00.764Z</time>
      </trkpt>
      <trkpt lat="48.04012" lon="-4.48991">
        <ele>15.2</ele>
        <time>2024-04-10T18:21:03.363Z</time>
      </trkpt>
      <trkpt lat="48.04008" lon="-4.48989">
        <ele>14.5</ele>
        <time>2024-04-10T18:21:03.777Z</time>
      </trkpt>
      <trkpt lat="48.04004" lon="-4.4899">
        <ele>13.6</ele>
        <time>2024-04-10T18:21:04.175Z</time>
      </trkpt>
      <trkpt lat="48.03995" lon="-4.48963">
        <ele>12.8</ele>
        <time>2024-04-10T18:21:06.542Z</time>
      </trkpt>
      <trkpt lat="48.03939" lon="-4.48787">
        <ele>5.9</ele>
        <time>2024-04-10T18:21:20.486Z</time>
      </trkpt>
      <trkpt lat="48.03935" lon="-4.48777">
        <ele>5.3</ele>
        <time>2024-04-10T18:21:21.250Z</time>
      </trkpt>
      <trkpt lat="48.03928" lon="-4.4877">
        <ele>4.8</ele>
        <time>2024-04-10T18:21:22.115Z</time>
      </trkpt>
      <trkpt lat="48.03902" lon="-4.48762">
        <ele>3.5</ele>
        <time>2024-04-10T18:21:25.032Z</time>
      </trkpt>
      <trkpt lat="48.03895" lon="-4.48757">
        <ele>3.6</ele>
        <time>2024-04-10T18:21:26.473Z</time>
      </trkpt>
      <trkpt lat="48.03883" lon="-4.48741">
        <ele>3.2</ele>
        <time>2024-04-10T18:21:28.586Z</time>
      </trkpt>
      <trkpt lat="48.03879" lon="-4.48735">
        <ele>2.8</ele>
        <time>2024-04-10T18:21:29.141Z</time>
      </trkpt>
      <trkpt lat="48.03831" lon="-4.48662">
        <ele>3.2</ele>
        <time>2024-04-10T18:21:40.985Z</time>
      </trkpt>
      <trkpt lat="48.03813" lon="-4.48628">
        <ele>4.3</ele>
        <time>2024-04-10T18:21:48.107Z</time>
      </trkpt>
      <trkpt lat="48.0381" lon="-4.48618">
        <ele>4.6</ele>
        <time>2024-04-10T18:21:49.974Z</time>
      </trkpt>
      <trkpt lat="48.03802" lon="-4.48605">
        <ele>5.2</ele>
        <time>2024-04-10T18:21:53.377Z</time>
      </trkpt>
      <trkpt lat="48.03787" lon="-4.48588">
        <ele>6.2</ele>
        <time>2024-04-10T18:21:58.964Z</time>
      </trkpt>
      <trkpt lat="48.03778" lon="-4.48581">
        <ele>7.1</ele>
        <time>2024-04-10T18:22:03.820Z</time>
      </trkpt>
      <trkpt lat="48.03732" lon="-4.48557">
        <ele>11.6</ele>
        <time>2024-04-10T18:22:28.276Z</time>
      </trkpt>
      <trkpt lat="48.03722" lon="-4.48548">
        <ele>13.1</ele>
        <time>2024-04-10T18:22:36.385Z</time>
      </trkpt>
      <trkpt lat="48.03717" lon="-4.48542">
        <ele>14.6</ele>
        <time>2024-04-10T18:22:40.877Z</time>
      </trkpt>
      <trkpt lat="48.03706" lon="-4.48518">
        <ele>17.1</ele>
        <time>2024-04-10T18:22:54.394Z</time>
      </trkpt>
      <trkpt lat="48.03702" lon="-4.48505">
        <ele>17</ele>
        <time>2024-04-10T18:22:55.815Z</time>
      </trkpt>
      <trkpt lat="48.03685" lon="-4.48449">
        <ele>21.3</ele>
        <time>2024-04-10T18:23:19.734Z</time>
      </trkpt>
      <trkpt lat="48.03681" lon="-4.48426">
        <ele>21.5</ele>
        <time>2024-04-10T18:23:22.677Z</time>
      </trkpt>
      <trkpt lat="48.03654" lon="-4.48398">
        <ele>28.5</ele>
        <time>2024-04-10T18:23:45.696Z</time>
      </trkpt>
      <trkpt lat="48.03639" lon="-4.48402">
        <ele>32.5</ele>
        <time>2024-04-10T18:23:56.371Z</time>
      </trkpt>
      <trkpt lat="48.03601" lon="-4.48424">
        <ele>33.3</ele>
        <time>2024-04-10T18:24:04.499Z</time>
      </trkpt>
      <trkpt lat="48.03577" lon="-4.48437">
        <ele>33.7</ele>
        <time>2024-04-10T18:24:09.380Z</time>
      </trkpt>
      <trkpt lat="48.0355" lon="-4.48459">
        <ele>35.2</ele>
        <time>2024-04-10T18:24:18.014Z</time>
      </trkpt>
      <trkpt lat="48.03539" lon="-4.4846">
        <ele>35.6</ele>
        <time>2024-04-10T18:24:20.668Z</time>
      </trkpt>
      <trkpt lat="48.03527" lon="-4.48476">
        <ele>36.1</ele>
        <time>2024-04-10T18:24:24.313Z</time>
      </trkpt>
      <trkpt lat="48.03452" lon="-4.48554">
        <ele>39.5</ele>
        <time>2024-04-10T18:24:46.561Z</time>
      </trkpt>
      <trkpt lat="48.03439" lon="-4.48563">
        <ele>40.1</ele>
        <time>2024-04-10T18:24:50.253Z</time>
      </trkpt>
      <trkpt lat="48.03393" lon="-4.4857">
        <ele>43.2</ele>
        <time>2024-04-10T18:25:06.755Z</time>
      </trkpt>
      <trkpt lat="48.03369" lon="-4.48578">
        <ele>45.3</ele>
        <time>2024-04-10T18:25:18.016Z</time>
      </trkpt>
      <trkpt lat="48.0334" lon="-4.4861">
        <ele>48.4</ele>
        <time>2024-04-10T18:25:34.657Z</time>
      </trkpt>
      <trkpt lat="48.03328" lon="-4.48618">
        <ele>49.1</ele>
        <time>2024-04-10T18:25:38.565Z</time>
      </trkpt>
      <trkpt lat="48.03293" lon="-4.48619">
        <ele>51.4</ele>
        <time>2024-04-10T18:25:50.834Z</time>
      </trkpt>
      <trkpt lat="48.03277" lon="-4.48613">
        <ele>52.8</ele>
        <time>2024-04-10T18:25:58.335Z</time>
      </trkpt>
      <trkpt lat="48.03248" lon="-4.48595">
        <ele>54.5</ele>
        <time>2024-04-10T18:26:07.779Z</time>
      </trkpt>
      <trkpt lat="48.03225" lon="-4.48584">
        <ele>54.9</ele>
        <time>2024-04-10T18:26:12.440Z</time>
      </trkpt>
      <trkpt lat="48.03122" lon="-4.48554">
        <ele>56.8</ele>
        <time>2024-04-10T18:26:33.030Z</time>
      </trkpt>
      <trkpt lat="48.03103" lon="-4.48542">
        <ele>57.7</ele>
        <time>2024-04-10T18:26:38.461Z</time>
      </trkpt>
      <trkpt lat="48.03073" lon="-4.48519">
        <ele>58.8</ele>
        <time>2024-04-10T18:26:46.239Z</time>
      </trkpt>
      <trkpt lat="48.03055" lon="-4.48508">
        <ele>59.4</ele>
        <time>2024-04-10T18:26:50.634Z</time>
      </trkpt>
      <trkpt lat="48.0304" lon="-4.48501">
        <ele>59.9</ele>
        <time>2024-04-10T18:26:54.226Z</time>
      </trkpt>
      <trkpt lat="48.03022" lon="-4.48501">
        <ele>59.9</ele>
        <time>2024-04-10T18:26:57.168Z</time>
      </trkpt>
      <trkpt lat="48.03005" lon="-4.48508">
        <ele>59.7</ele>
        <time>2024-04-10T18:26:59.766Z</time>
      </trkpt>
      <trkpt lat="48.02933" lon="-4.48544">
        <ele>64.6</ele>
        <time>2024-04-10T18:27:25.964Z</time>
      </trkpt>
      <trkpt lat="48.02894" lon="-4.48543">
        <ele>68.5</ele>
        <time>2024-04-10T18:27:47.490Z</time>
      </trkpt>
      <trkpt lat="48.0288" lon="-4.48541">
        <ele>69.4</ele>
        <time>2024-04-10T18:27:52.308Z</time>
      </trkpt>
      <trkpt lat="48.02838" lon="-4.48523">
        <ele>71.5</ele>
        <time>2024-04-10T18:28:04.466Z</time>
      </trkpt>
      <trkpt lat="48.02788" lon="-4.48512">
        <ele>73.9</ele>
        <time>2024-04-10T18:28:18.427Z</time>
      </trkpt>
      <trkpt lat="48.02751" lon="-4.48509">
        <ele>76.6</ele>
        <time>2024-04-10T18:28:32.739Z</time>
      </trkpt>
      <trkpt lat="48.02706" lon="-4.48492">
        <ele>78.5</ele>
        <time>2024-04-10T18:28:44.562Z</time>
      </trkpt>
      <trkpt lat="48.02681" lon="-4.48489">
        <ele>79.8</ele>
        <time>2024-04-10T18:28:51.884Z</time>
      </trkpt>
      <trkpt lat="48.02656" lon="-4.48488">
        <ele>81.1</ele>
        <time>2024-04-10T18:28:59.199Z</time>
      </trkpt>
      <trkpt lat="48.02615" lon="-4.48491">
        <ele>82.9</ele>
        <time>2024-04-10T18:29:10.035Z</time>
      </trkpt>
      <trkpt lat="48.02584" lon="-4.48488">
        <ele>84.5</ele>
        <time>2024-04-10T18:29:19.066Z</time>
      </trkpt>
      <trkpt lat="48.02448" lon="-4.48447">
        <ele>91.7</ele>
        <time>2024-04-10T18:29:59.602Z</time>
      </trkpt>
      <trkpt lat="48.02428" lon="-4.48443">
        <ele>92.6</ele>
        <time>2024-04-10T18:30:04.979Z</time>
      </trkpt>
      <trkpt lat="48.02399" lon="-4.48444">
        <ele>93</ele>
        <time>2024-04-10T18:30:10.418Z</time>
      </trkpt>
      <trkpt lat="48.02365" lon="-4.4844">
        <ele>93.9</ele>
        <time>2024-04-10T18:30:17.745Z</time>
      </trkpt>
      <trkpt lat="48.02307" lon="-4.48447">
        <ele>94</ele>
        <time>2024-04-10T18:30:27.415Z</time>
      </trkpt>
      <trkpt lat="48.02218" lon="-4.48444">
        <ele>95.2</ele>
        <time>2024-04-10T18:30:44.053Z</time>
      </trkpt>
      <trkpt lat="48.02085" lon="-4.48445">
        <ele>97</ele>
        <time>2024-04-10T18:31:08.925Z</time>
      </trkpt>
      <trkpt lat="48.01971" lon="-4.48446">
        <ele>99</ele>
        <time>2024-04-10T18:31:31.160Z</time>
      </trkpt>
      <trkpt lat="48.01878" lon="-4.48416">
        <ele>99.6</ele>
        <time>2024-04-10T18:31:47.695Z</time>
      </trkpt>
      <trkpt lat="48.0186" lon="-4.48418">
        <ele>99</ele>
        <time>2024-04-10T18:31:49.917Z</time>
      </trkpt>
      <trkpt lat="48.01752" lon="-4.48438">
        <ele>97.3</ele>
        <time>2024-04-10T18:32:05.365Z</time>
      </trkpt>
      <trkpt lat="48.01691" lon="-4.48441">
        <ele>96</ele>
        <time>2024-04-10T18:32:13.625Z</time>
      </trkpt>
      <trkpt lat="48.01665" lon="-4.48446">
        <ele>95.9</ele>
        <time>2024-04-10T18:32:17.759Z</time>
      </trkpt>
      <trkpt lat="48.01665" lon="-4.48449">
        <ele>95.8</ele>
        <time>2024-04-10T18:32:17.979Z</time>
      </trkpt>
      <trkpt lat="48.01663" lon="-4.48453">
        <ele>95.7</ele>
        <time>2024-04-10T18:32:18.400Z</time>
      </trkpt>
      <trkpt lat="48.01659" lon="-4.48455">
        <ele>95.7</ele>
        <time>2024-04-10T18:32:19.090Z</time>
      </trkpt>
      <trkpt lat="48.01655" lon="-4.48452">
        <ele>95.8</ele>
        <time>2024-04-10T18:32:20.009Z</time>
      </trkpt>
      <trkpt lat="48.01654" lon="-4.48447">
        <ele>95.9</ele>
        <time>2024-04-10T18:32:20.779Z</time>
      </trkpt>
      <trkpt lat="48.01591" lon="-4.48454">
        <ele>97.4</ele>
        <time>2024-04-10T18:32:33.957Z</time>
      </trkpt>
      <trkpt lat="48.01547" lon="-4.48456">
        <ele>99.3</ele>
        <time>2024-04-10T18:32:45.480Z</time>
      </trkpt>
      <trkpt lat="48.01529" lon="-4.48454">
        <ele>100</ele>
        <time>2024-04-10T18:32:49.959Z</time>
      </trkpt>
      <trkpt lat="48.01466" lon="-4.48435">
        <ele>101</ele>
        <time>2024-04-10T18:33:02.234Z</time>
        <extensions>
          <visugpx:TrkExtension xmlns:visugpx="https://www.visugpx.com/editgpx/">
            <visugpx:node>12</visugpx:node>
            </visugpx:TrkExtension>
        </extensions>
      </trkpt>
      <trkpt lat="48.0141" lon="-4.48418">
        <ele>101</ele>
        <time>2024-04-10T18:33:11.576Z</time>
      </trkpt>
      <trkpt lat="48.01392" lon="-4.48415">
        <ele>101</ele>
        <time>2024-04-10T18:33:14.536Z</time>
      </trkpt>
      <trkpt lat="48.01387" lon="-4.48416">
        <ele>101</ele>
        <time>2024-04-10T18:33:15.361Z</time>
      </trkpt>
      <trkpt lat="48.01363" lon="-4.48313">
        <ele>101</ele>
        <time>2024-04-10T18:33:27.289Z</time>
      </trkpt>
      <trkpt lat="48.01354" lon="-4.48282">
        <ele>101</ele>
        <time>2024-04-10T18:33:30.984Z</time>
      </trkpt>
      <trkpt lat="48.01345" lon="-4.48228">
        <ele>100.9</ele>
        <time>2024-04-10T18:33:36.918Z</time>
      </trkpt>
      <trkpt lat="48.01343" lon="-4.48209">
        <ele>100.7</ele>
        <time>2024-04-10T18:33:38.745Z</time>
      </trkpt>
      <trkpt lat="48.01338" lon="-4.48169">
        <ele>100.2</ele>
        <time>2024-04-10T18:33:42.521Z</time>
      </trkpt>
      <trkpt lat="48.01331" lon="-4.48075">
        <ele>99.9</ele>
        <time>2024-04-10T18:33:52.415Z</time>
      </trkpt>
      <trkpt lat="48.01327" lon="-4.48042">
        <ele>99.4</ele>
        <time>2024-04-10T18:33:55.426Z</time>
      </trkpt>
      <trkpt lat="48.01315" lon="-4.47986">
        <ele>99</ele>
        <time>2024-04-10T18:34:01.282Z</time>
      </trkpt>
      <trkpt lat="48.01294" lon="-4.47887">
        <ele>99.6</ele>
        <time>2024-04-10T18:34:13.641Z</time>
      </trkpt>
      <trkpt lat="48.01286" lon="-4.47843">
        <ele>100</ele>
        <time>2024-04-10T18:34:19.320Z</time>
      </trkpt>
      <trkpt lat="48.01282" lon="-4.47812">
        <ele>100</ele>
        <time>2024-04-10T18:34:22.773Z</time>
      </trkpt>
      <trkpt lat="48.01276" lon="-4.47717">
        <ele>98.8</ele>
        <time>2024-04-10T18:34:31.593Z</time>
      </trkpt>
      <trkpt lat="48.01275" lon="-4.47698">
        <ele>98.1</ele>
        <time>2024-04-10T18:34:32.940Z</time>
      </trkpt>
      <trkpt lat="48.01273" lon="-4.47679">
        <ele>98</ele>
        <time>2024-04-10T18:34:34.897Z</time>
      </trkpt>
      <trkpt lat="48.01273" lon="-4.47663">
        <ele>97.9</ele>
        <time>2024-04-10T18:34:36.503Z</time>
      </trkpt>
      <trkpt lat="48.01267" lon="-4.47584">
        <ele>96.4</ele>
        <time>2024-04-10T18:34:43.311Z</time>
      </trkpt>
      <trkpt lat="48.01262" lon="-4.47541">
        <ele>95.7</ele>
        <time>2024-04-10T18:34:47.176Z</time>
      </trkpt>
      <trkpt lat="48.01228" lon="-4.47356">
        <ele>92</ele>
        <time>2024-04-10T18:35:03.524Z</time>
      </trkpt>
      <trkpt lat="48.01217" lon="-4.47288">
        <ele>90.1</ele>
        <time>2024-04-10T18:35:08.979Z</time>
      </trkpt>
      <trkpt lat="48.0121" lon="-4.47248">
        <ele>88.9</ele>
        <time>2024-04-10T18:35:12.139Z</time>
      </trkpt>
      <trkpt lat="48.01206" lon="-4.472">
        <ele>87.7</ele>
        <time>2024-04-10T18:35:16.009Z</time>
      </trkpt>
      <trkpt lat="48.01205" lon="-4.47065">
        <ele>87.8</ele>
        <time>2024-04-10T18:35:30.931Z</time>
      </trkpt>
      <trkpt lat="48.01205" lon="-4.46941">
        <ele>85</ele>
        <time>2024-04-10T18:35:41.103Z</time>
      </trkpt>
      <trkpt lat="48.01202" lon="-4.46895">
        <ele>85.3</ele>
        <time>2024-04-10T18:35:46.662Z</time>
      </trkpt>
      <trkpt lat="48.01169" lon="-4.46657">
        <ele>81.8</ele>
        <time>2024-04-10T18:36:08.626Z</time>
      </trkpt>
      <trkpt lat="48.01151" lon="-4.46555">
        <ele>84</ele>
        <time>2024-04-10T18:36:24.636Z</time>
      </trkpt>
      <trkpt lat="48.01142" lon="-4.46521">
        <ele>84.2</ele>
        <time>2024-04-10T18:36:28.967Z</time>
      </trkpt>
      <trkpt lat="48.01126" lon="-4.46478">
        <ele>85</ele>
        <time>2024-04-10T18:36:35.876Z</time>
      </trkpt>
      <trkpt lat="48.0112" lon="-4.46464">
        <ele>84.7</ele>
        <time>2024-04-10T18:36:37.314Z</time>
        <extensions>
          <visugpx:TrkExtension xmlns:visugpx="https://www.visugpx.com/editgpx/">
            <visugpx:node>13</visugpx:node>
            </visugpx:TrkExtension>
        </extensions>
      </trkpt>
      <trkpt lat="48.01096" lon="-4.46413">
        <ele>83.3</ele>
        <time>2024-04-10T18:36:42.437Z</time>
      </trkpt>
      <trkpt lat="48.01074" lon="-4.46375">
        <ele>81.5</ele>
        <time>2024-04-10T18:36:46.020Z</time>
      </trkpt>
      <trkpt lat="48.01028" lon="-4.46299">
        <ele>77.8</ele>
        <time>2024-04-10T18:36:53.307Z</time>
      </trkpt>
      <trkpt lat="48.01016" lon="-4.46276">
        <ele>76.9</ele>
        <time>2024-04-10T18:36:55.494Z</time>
      </trkpt>
      <trkpt lat="48.00887" lon="-4.46003">
        <ele>67.1</ele>
        <time>2024-04-10T18:37:20.962Z</time>
      </trkpt>
      <trkpt lat="48.00879" lon="-4.45986">
        <ele>66.8</ele>
        <time>2024-04-10T18:37:22.839Z</time>
      </trkpt>
      <trkpt lat="48.00838" lon="-4.45893">
        <ele>66.1</ele>
        <time>2024-04-10T18:37:34.009Z</time>
      </trkpt>
      <trkpt lat="48.00784" lon="-4.45749">
        <ele>66</ele>
        <time>2024-04-10T18:37:51.910Z</time>
      </trkpt>
      <trkpt lat="48.00764" lon="-4.45704">
        <ele>66</ele>
        <time>2024-04-10T18:37:57.818Z</time>
      </trkpt>
      <trkpt lat="48.00749" lon="-4.45679">
        <ele>65.4</ele>
        <time>2024-04-10T18:38:00.728Z</time>
      </trkpt>
      <trkpt lat="48.00612" lon="-4.45476">
        <ele>66</ele>
        <time>2024-04-10T18:38:33.221Z</time>
      </trkpt>
      <trkpt lat="48.00393" lon="-4.45154">
        <ele>69.9</ele>
        <time>2024-04-10T18:39:30.173Z</time>
      </trkpt>
      <trkpt lat="48.00377" lon="-4.45122">
        <ele>70.4</ele>
        <time>2024-04-10T18:39:35.452Z</time>
      </trkpt>
      <trkpt lat="48.00151" lon="-4.44628">
        <ele>83.6</ele>
        <time>2024-04-10T18:41:08.198Z</time>
      </trkpt>
      <trkpt lat="48.00115" lon="-4.44548">
        <ele>84</ele>
        <time>2024-04-10T18:41:19.398Z</time>
      </trkpt>
      <trkpt lat="48.00084" lon="-4.44485">
        <ele>84</ele>
        <time>2024-04-10T18:41:27.952Z</time>
      </trkpt>
      <trkpt lat="48.00067" lon="-4.44458">
        <ele>84</ele>
        <time>2024-04-10T18:41:32.007Z</time>
      </trkpt>
      <trkpt lat="48.0001" lon="-4.44374">
        <ele>83.1</ele>
        <time>2024-04-10T18:41:43.812Z</time>
      </trkpt>
      <trkpt lat="47.99995" lon="-4.44349">
        <ele>82.8</ele>
        <time>2024-04-10T18:41:47.065Z</time>
      </trkpt>
      <trkpt lat="47.99949" lon="-4.44264">
        <ele>80.2</ele>
        <time>2024-04-10T18:41:55.914Z</time>
      </trkpt>
      <trkpt lat="47.99911" lon="-4.44187">
        <ele>77.8</ele>
        <time>2024-04-10T18:42:03.548Z</time>
      </trkpt>
      <trkpt lat="47.99887" lon="-4.44134">
        <ele>75.8</ele>
        <time>2024-04-10T18:42:08.329Z</time>
      </trkpt>
      <trkpt lat="47.99804" lon="-4.43946">
        <ele>74.1</ele>
        <time>2024-04-10T18:42:30.547Z</time>
      </trkpt>
      <trkpt lat="47.99746" lon="-4.43814">
        <ele>71.1</ele>
        <time>2024-04-10T18:42:44.052Z</time>
      </trkpt>
      <trkpt lat="47.99723" lon="-4.43769">
        <ele>71</ele>
        <time>2024-04-10T18:42:50.095Z</time>
      </trkpt>
      <trkpt lat="47.997" lon="-4.43734">
        <ele>70.7</ele>
        <time>2024-04-10T18:42:55.027Z</time>
      </trkpt>
      <trkpt lat="47.99681" lon="-4.43712">
        <ele>70.7</ele>
        <time>2024-04-10T18:42:58.956Z</time>
      </trkpt>
      <trkpt lat="47.99659" lon="-4.43689">
        <ele>70.8</ele>
        <time>2024-04-10T18:43:03.505Z</time>
      </trkpt>
      <trkpt lat="47.99641" lon="-4.43674">
        <ele>70.8</ele>
        <time>2024-04-10T18:43:06.875Z</time>
      </trkpt>
      <trkpt lat="47.99603" lon="-4.43653">
        <ele>71</ele>
        <time>2024-04-10T18:43:13.821Z</time>
      </trkpt>
      <trkpt lat="47.99562" lon="-4.43639">
        <ele>71</ele>
        <time>2024-04-10T18:43:20.697Z</time>
      </trkpt>
      <trkpt lat="47.99374" lon="-4.43614">
        <ele>75.5</ele>
        <time>2024-04-10T18:44:00.112Z</time>
      </trkpt>
      <trkpt lat="47.99345" lon="-4.43611">
        <ele>76</ele>
        <time>2024-04-10T18:44:05.761Z</time>
      </trkpt>
      <trkpt lat="47.99307" lon="-4.43593">
        <ele>76.9</ele>
        <time>2024-04-10T18:44:13.971Z</time>
      </trkpt>
      <trkpt lat="47.99282" lon="-4.43572">
        <ele>77.8</ele>
        <time>2024-04-10T18:44:20.493Z</time>
      </trkpt>
      <trkpt lat="47.99252" lon="-4.43529">
        <ele>78</ele>
        <time>2024-04-10T18:44:27.612Z</time>
      </trkpt>
      <trkpt lat="47.99107" lon="-4.43302">
        <ele>75.9</ele>
        <time>2024-04-10T18:44:58.924Z</time>
      </trkpt>
      <trkpt lat="47.99059" lon="-4.43228">
        <ele>75</ele>
        <time>2024-04-10T18:45:08.935Z</time>
      </trkpt>
      <trkpt lat="47.99001" lon="-4.43139">
        <ele>75</ele>
        <time>2024-04-10T18:45:22.526Z</time>
      </trkpt>
      <trkpt lat="47.9898" lon="-4.43108">
        <ele>74.3</ele>
        <time>2024-04-10T18:45:26.443Z</time>
      </trkpt>
      <trkpt lat="47.98951" lon="-4.43063">
        <ele>74</ele>
        <time>2024-04-10T18:45:32.837Z</time>
      </trkpt>
      <trkpt lat="47.98936" lon="-4.43043">
        <ele>74</ele>
        <time>2024-04-10T18:45:36.123Z</time>
      </trkpt>
      <trkpt lat="47.98793" lon="-4.4288">
        <ele>71</ele>
        <time>2024-04-10T18:46:01.425Z</time>
      </trkpt>
      <trkpt lat="47.98728" lon="-4.42805">
        <ele>70</ele>
        <time>2024-04-10T18:46:13.437Z</time>
      </trkpt>
      <trkpt lat="47.98691" lon="-4.42763">
        <ele>70.1</ele>
        <time>2024-04-10T18:46:21.192Z</time>
      </trkpt>
      <trkpt lat="47.98659" lon="-4.42732">
        <ele>69.6</ele>
        <time>2024-04-10T18:46:26.724Z</time>
        <extensions>
          <visugpx:TrkExtension xmlns:visugpx="https://www.visugpx.com/editgpx/">
            <visugpx:node>14</visugpx:node>
            </visugpx:TrkExtension>
        </extensions>
      </trkpt>
      <trkpt lat="47.98659" lon="-4.42732">
        <ele>69.6</ele>
        <time>2024-04-10T18:46:26.724Z</time>
      </trkpt>
      <trkpt lat="47.98691" lon="-4.42763">
        <ele>70.1</ele>
        <time>2024-04-10T18:46:33.825Z</time>
      </trkpt>
      <trkpt lat="47.98698" lon="-4.42738">
        <ele>69.5</ele>
        <time>2024-04-10T18:46:36.060Z</time>
      </trkpt>
      <trkpt lat="47.98705" lon="-4.42707">
        <ele>69</ele>
        <time>2024-04-10T18:46:38.987Z</time>
      </trkpt>
      <trkpt lat="47.98706" lon="-4.42702">
        <ele>69</ele>
        <time>2024-04-10T18:46:39.558Z</time>
      </trkpt>
      <trkpt lat="47.9871" lon="-4.42689">
        <ele>69.1</ele>
        <time>2024-04-10T18:46:41.292Z</time>
      </trkpt>
      <trkpt lat="47.98714" lon="-4.4267">
        <ele>69.6</ele>
        <time>2024-04-10T18:46:44.550Z</time>
      </trkpt>
      <trkpt lat="47.98713" lon="-4.42666">
        <ele>69.7</ele>
        <time>2024-04-10T18:46:45.228Z</time>
      </trkpt>
      <trkpt lat="47.98714" lon="-4.42657">
        <ele>69.5</ele>
        <time>2024-04-10T18:46:45.983Z</time>
      </trkpt>
      <trkpt lat="47.98718" lon="-4.42651">
        <ele>69.4</ele>
        <time>2024-04-10T18:46:46.774Z</time>
      </trkpt>
      <trkpt lat="47.98723" lon="-4.4265">
        <ele>69.4</ele>
        <time>2024-04-10T18:46:47.598Z</time>
      </trkpt>
      <trkpt lat="47.98726" lon="-4.42651">
        <ele>69.4</ele>
        <time>2024-04-10T18:46:48.101Z</time>
      </trkpt>
      <trkpt lat="47.98743" lon="-4.42556">
        <ele>71</ele>
        <time>2024-04-10T18:47:01.917Z</time>
      </trkpt>
      <trkpt lat="47.98741" lon="-4.42552">
        <ele>71</ele>
        <time>2024-04-10T18:47:02.463Z</time>
      </trkpt>
      <trkpt lat="47.98741" lon="-4.42547">
        <ele>70.9</ele>
        <time>2024-04-10T18:47:02.886Z</time>
      </trkpt>
      <trkpt lat="47.98743" lon="-4.42543">
        <ele>70.9</ele>
        <time>2024-04-10T18:47:03.432Z</time>
      </trkpt>
      <trkpt lat="47.98747" lon="-4.42542">
        <ele>70.9</ele>
        <time>2024-04-10T18:47:04.095Z</time>
      </trkpt>
      <trkpt lat="47.98748" lon="-4.42534">
        <ele>70.9</ele>
        <time>2024-04-10T18:47:04.985Z</time>
      </trkpt>
      <trkpt lat="47.98743" lon="-4.42468">
        <ele>70.9</ele>
        <time>2024-04-10T18:47:12.253Z</time>
      </trkpt>
      <trkpt lat="47.98737" lon="-4.4239">
        <ele>72</ele>
        <time>2024-04-10T18:47:22.882Z</time>
      </trkpt>
      <trkpt lat="47.98734" lon="-4.42379">
        <ele>72.2</ele>
        <time>2024-04-10T18:47:24.567Z</time>
      </trkpt>
      <trkpt lat="47.98752" lon="-4.42368">
        <ele>72.8</ele>
        <time>2024-04-10T18:47:28.963Z</time>
      </trkpt>
      <trkpt lat="47.98821" lon="-4.42313">
        <ele>73</ele>
        <time>2024-04-10T18:47:42.065Z</time>
      </trkpt>
      <trkpt lat="47.98833" lon="-4.42304">
        <ele>73</ele>
        <time>2024-04-10T18:47:44.259Z</time>
      </trkpt>
      <trkpt lat="47.98933" lon="-4.42223">
        <ele>72.6</ele>
        <time>2024-04-10T18:48:02.250Z</time>
      </trkpt>
      <trkpt lat="47.98947" lon="-4.42212">
        <ele>73.1</ele>
        <time>2024-04-10T18:48:05.857Z</time>
      </trkpt>
      <trkpt lat="47.98994" lon="-4.4218">
        <ele>73.8</ele>
        <time>2024-04-10T18:48:15.517Z</time>
      </trkpt>
      <trkpt lat="47.99185" lon="-4.42042">
        <ele>72.5</ele>
        <time>2024-04-10T18:48:48.274Z</time>
      </trkpt>
      <trkpt lat="47.99199" lon="-4.42026">
        <ele>72</ele>
        <time>2024-04-10T18:48:50.527Z</time>
      </trkpt>
      <trkpt lat="47.99208" lon="-4.42014">
        <ele>72</ele>
        <time>2024-04-10T18:48:52.499Z</time>
      </trkpt>
      <trkpt lat="47.99218" lon="-4.41995">
        <ele>72</ele>
        <time>2024-04-10T18:48:55.144Z</time>
      </trkpt>
      <trkpt lat="47.99224" lon="-4.41979">
        <ele>72</ele>
        <time>2024-04-10T18:48:57.150Z</time>
      </trkpt>
      <trkpt lat="47.99231" lon="-4.41952">
        <ele>71.5</ele>
        <time>2024-04-10T18:48:59.678Z</time>
      </trkpt>
      <trkpt lat="47.99241" lon="-4.41889">
        <ele>72.7</ele>
        <time>2024-04-10T18:49:09.125Z</time>
      </trkpt>
      <trkpt lat="47.9924" lon="-4.41875">
        <ele>72.6</ele>
        <time>2024-04-10T18:49:10.523Z</time>
      </trkpt>
      <trkpt lat="47.99235" lon="-4.41873">
        <ele>72.5</ele>
        <time>2024-04-10T18:49:11.235Z</time>
      </trkpt>
      <trkpt lat="47.99233" lon="-4.41865">
        <ele>72.4</ele>
        <time>2024-04-10T18:49:12.033Z</time>
      </trkpt>
      <trkpt lat="47.99234" lon="-4.41861">
        <ele>72.4</ele>
        <time>2024-04-10T18:49:12.500Z</time>
      </trkpt>
      <trkpt lat="47.99237" lon="-4.41856">
        <ele>72.6</ele>
        <time>2024-04-10T18:49:13.696Z</time>
      </trkpt>
      <trkpt lat="47.99242" lon="-4.41856">
        <ele>72.8</ele>
        <time>2024-04-10T18:49:14.956Z</time>
      </trkpt>
      <trkpt lat="47.99249" lon="-4.41831">
        <ele>73.9</ele>
        <time>2024-04-10T18:49:20.897Z</time>
      </trkpt>
      <trkpt lat="47.99266" lon="-4.41718">
        <ele>76.2</ele>
        <time>2024-04-10T18:49:38.181Z</time>
      </trkpt>
      <trkpt lat="47.99296" lon="-4.41534">
        <ele>77.7</ele>
        <time>2024-04-10T18:50:01.470Z</time>
      </trkpt>
      <trkpt lat="47.99312" lon="-4.41441">
        <ele>76.3</ele>
        <time>2024-04-10T18:50:10.131Z</time>
      </trkpt>
      <trkpt lat="47.99319" lon="-4.414">
        <ele>75.7</ele>
        <time>2024-04-10T18:50:13.967Z</time>
      </trkpt>
      <trkpt lat="47.99334" lon="-4.41313">
        <ele>76</ele>
        <time>2024-04-10T18:50:24.281Z</time>
      </trkpt>
      <trkpt lat="47.99336" lon="-4.41302">
        <ele>75.8</ele>
        <time>2024-04-10T18:50:25.273Z</time>
      </trkpt>
      <trkpt lat="47.9936" lon="-4.41161">
        <ele>76</ele>
        <time>2024-04-10T18:50:41.506Z</time>
        <extensions>
          <visugpx:TrkExtension xmlns:visugpx="https://www.visugpx.com/editgpx/">
            <visugpx:node>15</visugpx:node>
            </visugpx:TrkExtension>
        </extensions>
      </trkpt>
      <trkpt lat="47.9936" lon="-4.41161">
        <ele>76</ele>
        <time>2024-04-10T18:50:41.506Z</time>
      </trkpt>
      <trkpt lat="47.99386" lon="-4.41002">
        <ele>76.1</ele>
        <time>2024-04-10T18:50:59.568Z</time>
      </trkpt>
      <trkpt lat="47.99391" lon="-4.40946">
        <ele>76.1</ele>
        <time>2024-04-10T18:51:05.749Z</time>
      </trkpt>
      <trkpt lat="47.99395" lon="-4.40862">
        <ele>74.8</ele>
        <time>2024-04-10T18:51:13.266Z</time>
      </trkpt>
      <trkpt lat="47.994" lon="-4.40605">
        <ele>71.9</ele>
        <time>2024-04-10T18:51:37.434Z</time>
      </trkpt>
      <trkpt lat="47.99402" lon="-4.40522">
        <ele>72.9</ele>
        <time>2024-04-10T18:51:48.327Z</time>
      </trkpt>
      <trkpt lat="47.99406" lon="-4.40243">
        <ele>74.8</ele>
        <time>2024-04-10T18:52:22.067Z</time>
      </trkpt>
      <trkpt lat="47.9941" lon="-4.4018">
        <ele>74.5</ele>
        <time>2024-04-10T18:52:28.549Z</time>
      </trkpt>
      <trkpt lat="47.99439" lon="-4.39898">
        <ele>77.5</ele>
        <time>2024-04-10T18:53:05.075Z</time>
      </trkpt>
      <trkpt lat="47.99476" lon="-4.39443">
        <ele>82</ele>
        <time>2024-04-10T18:54:03.117Z</time>
      </trkpt>
      <trkpt lat="47.99479" lon="-4.39392">
        <ele>82</ele>
        <time>2024-04-10T18:54:08.718Z</time>
      </trkpt>
      <trkpt lat="47.99479" lon="-4.39374">
        <ele>82.5</ele>
        <time>2024-04-10T18:54:11.808Z</time>
      </trkpt>
      <trkpt lat="47.99482" lon="-4.39263">
        <ele>83</ele>
        <time>2024-04-10T18:54:24.781Z</time>
      </trkpt>
      <trkpt lat="47.9949" lon="-4.38989">
        <ele>84.4</ele>
        <time>2024-04-10T18:54:57.101Z</time>
      </trkpt>
      <trkpt lat="47.99494" lon="-4.38845">
        <ele>83.1</ele>
        <time>2024-04-10T18:55:11.047Z</time>
        <extensions>
          <visugpx:TrkExtension xmlns:visugpx="https://www.visugpx.com/editgpx/">
            <visugpx:node>16</visugpx:node>
            </visugpx:TrkExtension>
        </extensions>
      </trkpt>
      <trkpt lat="47.99503" lon="-4.38548">
        <ele>82.1</ele>
        <time>2024-04-10T18:55:42.078Z</time>
      </trkpt>
      <trkpt lat="47.99512" lon="-4.38403">
        <ele>81</ele>
        <time>2024-04-10T18:55:56.443Z</time>
      </trkpt>
      <trkpt lat="47.99539" lon="-4.38164">
        <ele>78</ele>
        <time>2024-04-10T18:56:18.912Z</time>
      </trkpt>
      <trkpt lat="47.9956" lon="-4.3799">
        <ele>76.2</ele>
        <time>2024-04-10T18:56:35.767Z</time>
      </trkpt>
      <trkpt lat="47.99567" lon="-4.37945">
        <ele>76.4</ele>
        <time>2024-04-10T18:56:41.148Z</time>
      </trkpt>
      <trkpt lat="47.99584" lon="-4.37864">
        <ele>75.1</ele>
        <time>2024-04-10T18:56:48.737Z</time>
      </trkpt>
      <trkpt lat="47.99593" lon="-4.37827">
        <ele>75.3</ele>
        <time>2024-04-10T18:56:53.374Z</time>
      </trkpt>
      <trkpt lat="47.99604" lon="-4.37786">
        <ele>75.6</ele>
        <time>2024-04-10T18:56:58.713Z</time>
      </trkpt>
      <trkpt lat="47.99623" lon="-4.37726">
        <ele>75</ele>
        <time>2024-04-10T18:57:05.135Z</time>
      </trkpt>
      <trkpt lat="47.99629" lon="-4.37708">
        <ele>74.7</ele>
        <time>2024-04-10T18:57:06.941Z</time>
      </trkpt>
      <trkpt lat="47.9965" lon="-4.37653">
        <ele>74.3</ele>
        <time>2024-04-10T18:57:13.291Z</time>
      </trkpt>
      <trkpt lat="47.99698" lon="-4.3754">
        <ele>74.9</ele>
        <time>2024-04-10T18:57:28.917Z</time>
      </trkpt>
      <trkpt lat="47.99724" lon="-4.37477">
        <ele>73</ele>
        <time>2024-04-10T18:57:34.786Z</time>
      </trkpt>
      <trkpt lat="47.9974" lon="-4.37433">
        <ele>72.9</ele>
        <time>2024-04-10T18:57:40.112Z</time>
      </trkpt>
      <trkpt lat="47.99765" lon="-4.37347">
        <ele>72.5</ele>
        <time>2024-04-10T18:57:49.778Z</time>
      </trkpt>
      <trkpt lat="47.9978" lon="-4.37273">
        <ele>72</ele>
        <time>2024-04-10T18:57:57.515Z</time>
      </trkpt>
      <trkpt lat="47.99787" lon="-4.37212">
        <ele>71.8</ele>
        <time>2024-04-10T18:58:03.986Z</time>
      </trkpt>
      <trkpt lat="47.99805" lon="-4.37003">
        <ele>73</ele>
        <time>2024-04-10T18:58:29.037Z</time>
      </trkpt>
      <trkpt lat="47.9984" lon="-4.36576">
        <ele>82.3</ele>
        <time>2024-04-10T18:59:35.205Z</time>
      </trkpt>
      <trkpt lat="47.99849" lon="-4.36454">
        <ele>85.7</ele>
        <time>2024-04-10T18:59:56.243Z</time>
      </trkpt>
      <trkpt lat="47.99857" lon="-4.36338">
        <ele>87.8</ele>
        <time>2024-04-10T19:00:13.107Z</time>
      </trkpt>
      <trkpt lat="47.99866" lon="-4.36187">
        <ele>87.7</ele>
        <time>2024-04-10T19:00:29.536Z</time>
      </trkpt>
      <trkpt lat="47.9987" lon="-4.3606">
        <ele>85.8</ele>
        <time>2024-04-10T19:00:40.952Z</time>
      </trkpt>
      <trkpt lat="47.9989" lon="-4.3578">
        <ele>86</ele>
        <time>2024-04-10T19:01:12.068Z</time>
      </trkpt>
      <trkpt lat="47.99905" lon="-4.35596">
        <ele>89.9</ele>
        <time>2024-04-10T19:01:40.294Z</time>
      </trkpt>
      <trkpt lat="47.99918" lon="-4.35426">
        <ele>93</ele>
        <time>2024-04-10T19:02:05.083Z</time>
      </trkpt>
      <trkpt lat="47.9992" lon="-4.35406">
        <ele>93.5</ele>
        <time>2024-04-10T19:02:08.368Z</time>
      </trkpt>
      <trkpt lat="47.99936" lon="-4.35242">
        <ele>91.9</ele>
        <time>2024-04-10T19:02:24.273Z</time>
      </trkpt>
      <trkpt lat="47.99967" lon="-4.34808">
        <ele>100.4</ele>
        <time>2024-04-10T19:03:28.975Z</time>
      </trkpt>
      <trkpt lat="47.99967" lon="-4.34808">
        <ele>100.4</ele>
        <time>2024-04-10T19:03:28.975Z</time>
        <extensions>
          <visugpx:TrkExtension xmlns:visugpx="https://www.visugpx.com/editgpx/">
            <visugpx:node>17</visugpx:node>
            </visugpx:TrkExtension>
        </extensions>
      </trkpt>
      <trkpt lat="47.99976" lon="-4.34676">
        <ele>103.3</ele>
        <time>2024-04-10T19:03:49.468Z</time>
      </trkpt>
      <trkpt lat="47.99996" lon="-4.3441">
        <ele>106.7</ele>
        <time>2024-04-10T19:04:24.943Z</time>
      </trkpt>
      <trkpt lat="48.00001" lon="-4.34346">
        <ele>107.1</ele>
        <time>2024-04-10T19:04:32.663Z</time>
      </trkpt>
      <trkpt lat="48.00009" lon="-4.34227">
        <ele>108.6</ele>
        <time>2024-04-10T19:04:48.473Z</time>
      </trkpt>
      <trkpt lat="48.00024" lon="-4.34031">
        <ele>109.7</ele>
        <time>2024-04-10T19:05:11.882Z</time>
      </trkpt>
      <trkpt lat="48.00029" lon="-4.33952">
        <ele>110.8</ele>
        <time>2024-04-10T19:05:22.598Z</time>
      </trkpt>
      <trkpt lat="48.00037" lon="-4.33821">
        <ele>117.1</ele>
        <time>2024-04-10T19:05:56.004Z</time>
      </trkpt>
      <trkpt lat="48.00037" lon="-4.33818">
        <ele>117.2</ele>
        <time>2024-04-10T19:05:56.575Z</time>
      </trkpt>
      <trkpt lat="48.00038" lon="-4.33806">
        <ele>117.7</ele>
        <time>2024-04-10T19:05:59.266Z</time>
      </trkpt>
      <trkpt lat="48.0004" lon="-4.33796">
        <ele>118.4</ele>
        <time>2024-04-10T19:06:03.132Z</time>
      </trkpt>
      <trkpt lat="48.00039" lon="-4.3379">
        <ele>118.7</ele>
        <time>2024-04-10T19:06:04.722Z</time>
      </trkpt>
      <trkpt lat="48.00041" lon="-4.33784">
        <ele>119.1</ele>
        <time>2024-04-10T19:06:06.882Z</time>
      </trkpt>
      <trkpt lat="48.00037" lon="-4.33769">
        <ele>119.5</ele>
        <time>2024-04-10T19:06:09.507Z</time>
      </trkpt>
      <trkpt lat="48.00032" lon="-4.33752">
        <ele>119.9</ele>
        <time>2024-04-10T19:06:12.360Z</time>
      </trkpt>
      <trkpt lat="48.0003" lon="-4.33737">
        <ele>120</ele>
        <time>2024-04-10T19:06:14.201Z</time>
      </trkpt>
      <trkpt lat="48.00028" lon="-4.33719">
        <ele>120</ele>
        <time>2024-04-10T19:06:16.197Z</time>
      </trkpt>
      <trkpt lat="48.00026" lon="-4.33706">
        <ele>120</ele>
        <time>2024-04-10T19:06:17.656Z</time>
      </trkpt>
      <trkpt lat="48.00025" lon="-4.33694">
        <ele>120</ele>
        <time>2024-04-10T19:06:18.979Z</time>
      </trkpt>
      <trkpt lat="48.00011" lon="-4.33594">
        <ele>120.8</ele>
        <time>2024-04-10T19:06:31.524Z</time>
      </trkpt>
      <trkpt lat="48.00004" lon="-4.3353">
        <ele>120.9</ele>
        <time>2024-04-10T19:06:38.776Z</time>
      </trkpt>
      <trkpt lat="48.00002" lon="-4.3352">
        <ele>120.6</ele>
        <time>2024-04-10T19:06:39.576Z</time>
      </trkpt>
      <trkpt lat="47.99998" lon="-4.33482">
        <ele>120.1</ele>
        <time>2024-04-10T19:06:43.114Z</time>
      </trkpt>
      <trkpt lat="47.99996" lon="-4.33438">
        <ele>119.1</ele>
        <time>2024-04-10T19:06:46.729Z</time>
      </trkpt>
      <trkpt lat="47.99996" lon="-4.33381">
        <ele>117.7</ele>
        <time>2024-04-10T19:06:51.303Z</time>
      </trkpt>
      <trkpt lat="47.99992" lon="-4.33364">
        <ele>117.1</ele>
        <time>2024-04-10T19:06:52.621Z</time>
      </trkpt>
      <trkpt lat="47.99991" lon="-4.33363">
        <ele>117.1</ele>
        <time>2024-04-10T19:06:52.818Z</time>
      </trkpt>
      <trkpt lat="47.99987" lon="-4.33358">
        <ele>117.1</ele>
        <time>2024-04-10T19:06:53.670Z</time>
      </trkpt>
      <trkpt lat="47.99987" lon="-4.33351">
        <ele>117.2</ele>
        <time>2024-04-10T19:06:54.622Z</time>
      </trkpt>
      <trkpt lat="47.99989" lon="-4.33346">
        <ele>117.3</ele>
        <time>2024-04-10T19:06:55.453Z</time>
      </trkpt>
      <trkpt lat="47.99992" lon="-4.33342">
        <ele>117.5</ele>
        <time>2024-04-10T19:06:56.596Z</time>
      </trkpt>
      <trkpt lat="47.99996" lon="-4.33327">
        <ele>118.1</ele>
        <time>2024-04-10T19:06:59.905Z</time>
      </trkpt>
      <trkpt lat="48.00001" lon="-4.3309">
        <ele>121.2</ele>
        <time>2024-04-10T19:07:31.519Z</time>
      </trkpt>
      <trkpt lat="48.00001" lon="-4.33085">
        <ele>121.1</ele>
        <time>2024-04-10T19:07:31.941Z</time>
      </trkpt>
      <trkpt lat="48.00001" lon="-4.33076">
        <ele>121</ele>
        <time>2024-04-10T19:07:32.789Z</time>
      </trkpt>
      <trkpt lat="48.00004" lon="-4.32896">
        <ele>121</ele>
        <time>2024-04-10T19:07:52.485Z</time>
      </trkpt>
      <trkpt lat="48.00006" lon="-4.32807">
        <ele>121.2</ele>
        <time>2024-04-10T19:08:02.545Z</time>
      </trkpt>
      <trkpt lat="48.00007" lon="-4.32755">
        <ele>120.4</ele>
        <time>2024-04-10T19:08:07.191Z</time>
      </trkpt>
      <trkpt lat="48.00001" lon="-4.32568">
        <ele>114.4</ele>
        <time>2024-04-10T19:08:21.060Z</time>
      </trkpt>
      <trkpt lat="47.99997" lon="-4.32495">
        <ele>111.1</ele>
        <time>2024-04-10T19:08:25.867Z</time>
      </trkpt>
      <trkpt lat="47.99987" lon="-4.32292">
        <ele>110.9</ele>
        <time>2024-04-10T19:08:47.825Z</time>
      </trkpt>
      <trkpt lat="47.99982" lon="-4.32239">
        <ele>111.8</ele>
        <time>2024-04-10T19:08:55.412Z</time>
      </trkpt>
      <trkpt lat="47.99974" lon="-4.32187">
        <ele>111.5</ele>
        <time>2024-04-10T19:09:00.812Z</time>
      </trkpt>
      <trkpt lat="47.99966" lon="-4.32144">
        <ele>111.3</ele>
        <time>2024-04-10T19:09:05.399Z</time>
      </trkpt>
      <trkpt lat="47.99954" lon="-4.32098">
        <ele>111.7</ele>
        <time>2024-04-10T19:09:11.487Z</time>
      </trkpt>
      <trkpt lat="47.99909" lon="-4.31988">
        <ele>111.4</ele>
        <time>2024-04-10T19:09:25.137Z</time>
      </trkpt>
      <trkpt lat="47.99901" lon="-4.31966">
        <ele>111.2</ele>
        <time>2024-04-10T19:09:27.592Z</time>
      </trkpt>
      <trkpt lat="47.99895" lon="-4.31941">
        <ele>109.9</ele>
        <time>2024-04-10T19:09:29.336Z</time>
      </trkpt>
      <trkpt lat="47.9989" lon="-4.31908">
        <ele>108.7</ele>
        <time>2024-04-10T19:09:31.757Z</time>
      </trkpt>
      <trkpt lat="47.99882" lon="-4.31848">
        <ele>108.8</ele>
        <time>2024-04-10T19:09:38.608Z</time>
      </trkpt>
      <trkpt lat="47.99874" lon="-4.31734">
        <ele>108.6</ele>
        <time>2024-04-10T19:09:50.842Z</time>
      </trkpt>
      <trkpt lat="47.99869" lon="-4.31637">
        <ele>108.7</ele>
        <time>2024-04-10T19:10:01.642Z</time>
      </trkpt>
      <trkpt lat="47.99861" lon="-4.31495">
        <ele>107</ele>
        <time>2024-04-10T19:10:14.926Z</time>
      </trkpt>
      <trkpt lat="47.99853" lon="-4.31284">
        <ele>106</ele>
        <time>2024-04-10T19:10:36.574Z</time>
      </trkpt>
      <trkpt lat="47.99853" lon="-4.31225">
        <ele>105.4</ele>
        <time>2024-04-10T19:10:42.199Z</time>
      </trkpt>
      <trkpt lat="47.99857" lon="-4.3115">
        <ele>106.1</ele>
        <time>2024-04-10T19:10:51.650Z</time>
      </trkpt>
      <trkpt lat="47.99862" lon="-4.31104">
        <ele>106.2</ele>
        <time>2024-04-10T19:10:56.907Z</time>
      </trkpt>
      <trkpt lat="47.99884" lon="-4.30941">
        <ele>108.9</ele>
        <time>2024-04-10T19:11:20.252Z</time>
      </trkpt>
      <trkpt lat="47.99886" lon="-4.30911">
        <ele>108.1</ele>
        <time>2024-04-10T19:11:22.620Z</time>
      </trkpt>
      <trkpt lat="47.99887" lon="-4.3081">
        <ele>107.1</ele>
        <time>2024-04-10T19:11:32.283Z</time>
      </trkpt>
      <trkpt lat="47.99903" lon="-4.30517">
        <ele>105.5</ele>
        <time>2024-04-10T19:12:02.108Z</time>
      </trkpt>
      <trkpt lat="47.99912" lon="-4.30432">
        <ele>106.2</ele>
        <time>2024-04-10T19:12:12.724Z</time>
      </trkpt>
      <trkpt lat="47.99922" lon="-4.30353">
        <ele>106</ele>
        <time>2024-04-10T19:12:21.217Z</time>
      </trkpt>
      <trkpt lat="47.9994" lon="-4.30241">
        <ele>106.2</ele>
        <time>2024-04-10T19:12:34.134Z</time>
      </trkpt>
      <trkpt lat="47.9998" lon="-4.3005">
        <ele>107.9</ele>
        <time>2024-04-10T19:12:58.961Z</time>
      </trkpt>
      <trkpt lat="47.99985" lon="-4.30015">
        <ele>108.3</ele>
        <time>2024-04-10T19:13:03.590Z</time>
      </trkpt>
      <trkpt lat="47.99987" lon="-4.2998">
        <ele>108.5</ele>
        <time>2024-04-10T19:13:07.766Z</time>
      </trkpt>
      <trkpt lat="47.99985" lon="-4.29927">
        <ele>109.5</ele>
        <time>2024-04-10T19:13:15.551Z</time>
      </trkpt>
      <trkpt lat="47.9998" lon="-4.2971">
        <ele>111.7</ele>
        <time>2024-04-10T19:13:43.179Z</time>
      </trkpt>
      <trkpt lat="47.99975" lon="-4.29644">
        <ele>112</ele>
        <time>2024-04-10T19:13:50.938Z</time>
      </trkpt>
      <trkpt lat="47.99935" lon="-4.29413">
        <ele>114.7</ele>
        <time>2024-04-10T19:14:21.871Z</time>
        <extensions>
          <visugpx:TrkExtension xmlns:visugpx="https://www.visugpx.com/editgpx/">
            <visugpx:node>18</visugpx:node>
            </visugpx:TrkExtension>
        </extensions>
      </trkpt>
      <trkpt lat="47.99926" lon="-4.29362">
        <ele>115</ele>
        <time>2024-04-10T19:14:28.140Z</time>
      </trkpt>
      <trkpt lat="47.99913" lon="-4.29307">
        <ele>115</ele>
        <time>2024-04-10T19:14:34.521Z</time>
      </trkpt>
      <trkpt lat="47.99902" lon="-4.29267">
        <ele>116.2</ele>
        <time>2024-04-10T19:14:41.940Z</time>
      </trkpt>
      <trkpt lat="47.9989" lon="-4.29234">
        <ele>116.6</ele>
        <time>2024-04-10T19:14:46.758Z</time>
      </trkpt>
      <trkpt lat="47.99865" lon="-4.29178">
        <ele>117.6</ele>
        <time>2024-04-10T19:14:55.997Z</time>
      </trkpt>
      <trkpt lat="47.99842" lon="-4.29138">
        <ele>118</ele>
        <time>2024-04-10T19:15:02.448Z</time>
      </trkpt>
      <trkpt lat="47.99805" lon="-4.29061">
        <ele>120</ele>
        <time>2024-04-10T19:15:16.898Z</time>
      </trkpt>
      <trkpt lat="47.99799" lon="-4.29041">
        <ele>120.5</ele>
        <time>2024-04-10T19:15:20.341Z</time>
      </trkpt>
      <trkpt lat="47.99784" lon="-4.28985">
        <ele>122</ele>
        <time>2024-04-10T19:15:30.164Z</time>
      </trkpt>
      <trkpt lat="47.9978" lon="-4.28956">
        <ele>122.6</ele>
        <time>2024-04-10T19:15:34.613Z</time>
      </trkpt>
      <trkpt lat="47.99779" lon="-4.28921">
        <ele>123</ele>
        <time>2024-04-10T19:15:39.162Z</time>
      </trkpt>
      <trkpt lat="47.99779" lon="-4.28915">
        <ele>123</ele>
        <time>2024-04-10T19:15:39.819Z</time>
      </trkpt>
      <trkpt lat="47.99788" lon="-4.28765">
        <ele>125</ele>
        <time>2024-04-10T19:15:59.966Z</time>
      </trkpt>
      <trkpt lat="47.998" lon="-4.28661">
        <ele>125.6</ele>
        <time>2024-04-10T19:16:12.510Z</time>
      </trkpt>
      <trkpt lat="47.99806" lon="-4.28616">
        <ele>126</ele>
        <time>2024-04-10T19:16:18.222Z</time>
      </trkpt>
      <trkpt lat="47.99812" lon="-4.28587">
        <ele>125.3</ele>
        <time>2024-04-10T19:16:20.699Z</time>
      </trkpt>
      <trkpt lat="47.9982" lon="-4.28552">
        <ele>125</ele>
        <time>2024-04-10T19:16:24.321Z</time>
      </trkpt>
      <trkpt lat="47.99835" lon="-4.28503">
        <ele>126</ele>
        <time>2024-04-10T19:16:32.185Z</time>
      </trkpt>
      <trkpt lat="47.99899" lon="-4.28301">
        <ele>132.5</ele>
        <time>2024-04-10T19:17:11.477Z</time>
      </trkpt>
      <trkpt lat="47.99909" lon="-4.2825">
        <ele>134</ele>
        <time>2024-04-10T19:17:20.674Z</time>
      </trkpt>
      <trkpt lat="47.9992" lon="-4.28114">
        <ele>134</ele>
        <time>2024-04-10T19:17:35.659Z</time>
      </trkpt>
      <trkpt lat="47.99926" lon="-4.28078">
        <ele>133.8</ele>
        <time>2024-04-10T19:17:39.426Z</time>
      </trkpt>
      <trkpt lat="47.99947" lon="-4.27982">
        <ele>130.4</ele>
        <time>2024-04-10T19:17:46.786Z</time>
      </trkpt>
      <trkpt lat="47.99959" lon="-4.27916">
        <ele>129</ele>
        <time>2024-04-10T19:17:52.535Z</time>
      </trkpt>
      <trkpt lat="47.99984" lon="-4.27757">
        <ele>128.1</ele>
        <time>2024-04-10T19:18:09.090Z</time>
      </trkpt>
      <trkpt lat="47.99991" lon="-4.27696">
        <ele>129.3</ele>
        <time>2024-04-10T19:18:18.252Z</time>
      </trkpt>
      <trkpt lat="48.00003" lon="-4.2746">
        <ele>130.2</ele>
        <time>2024-04-10T19:18:45.606Z</time>
      </trkpt>
      <trkpt lat="48.00003" lon="-4.27415">
        <ele>131.3</ele>
        <time>2024-04-10T19:18:52.880Z</time>
      </trkpt>
      <trkpt lat="47.99999" lon="-4.27384">
        <ele>131.9</ele>
        <time>2024-04-10T19:18:57.523Z</time>
      </trkpt>
      <trkpt lat="47.99995" lon="-4.27367">
        <ele>131.6</ele>
        <time>2024-04-10T19:18:59.108Z</time>
      </trkpt>
      <trkpt lat="47.99963" lon="-4.27218">
        <ele>135.4</ele>
        <time>2024-04-10T19:19:24.329Z</time>
      </trkpt>
      <trkpt lat="47.99949" lon="-4.27157">
        <ele>137.3</ele>
        <time>2024-04-10T19:19:35.747Z</time>
      </trkpt>
      <trkpt lat="47.99936" lon="-4.27128">
        <ele>137.8</ele>
        <time>2024-04-10T19:19:40.496Z</time>
      </trkpt>
      <trkpt lat="47.99929" lon="-4.27124">
        <ele>137.7</ele>
        <time>2024-04-10T19:19:41.581Z</time>
      </trkpt>
      <trkpt lat="47.99927" lon="-4.27121">
        <ele>137.8</ele>
        <time>2024-04-10T19:19:42.255Z</time>
      </trkpt>
      <trkpt lat="47.99925" lon="-4.27116">
        <ele>137.9</ele>
        <time>2024-04-10T19:19:43.086Z</time>
      </trkpt>
      <trkpt lat="47.99924" lon="-4.27106">
        <ele>138</ele>
        <time>2024-04-10T19:19:44.367Z</time>
      </trkpt>
      <trkpt lat="47.99925" lon="-4.27101">
        <ele>138.1</ele>
        <time>2024-04-10T19:19:45.137Z</time>
      </trkpt>
      <trkpt lat="47.99929" lon="-4.27093">
        <ele>138.3</ele>
        <time>2024-04-10T19:19:46.631Z</time>
      </trkpt>
      <trkpt lat="47.99929" lon="-4.27069">
        <ele>139</ele>
        <time>2024-04-10T19:19:50.857Z</time>
      </trkpt>
      <trkpt lat="47.99885" lon="-4.26746">
        <ele>140.6</ele>
        <time>2024-04-10T19:20:29.553Z</time>
      </trkpt>
      <trkpt lat="47.99876" lon="-4.26574">
        <ele>135.6</ele>
        <time>2024-04-10T19:20:42.750Z</time>
      </trkpt>
      <trkpt lat="47.99875" lon="-4.26544">
        <ele>134.1</ele>
        <time>2024-04-10T19:20:44.721Z</time>
      </trkpt>
      <trkpt lat="47.99869" lon="-4.26371">
        <ele>132.2</ele>
        <time>2024-04-10T19:21:01.068Z</time>
      </trkpt>
      <trkpt lat="47.99861" lon="-4.26147">
        <ele>137.7</ele>
        <time>2024-04-10T19:21:37.375Z</time>
      </trkpt>
      <trkpt lat="47.99855" lon="-4.26095">
        <ele>140.4</ele>
        <time>2024-04-10T19:21:51.700Z</time>
      </trkpt>
      <trkpt lat="47.99843" lon="-4.26031">
        <ele>142.2</ele>
        <time>2024-04-10T19:22:02.965Z</time>
      </trkpt>
      <trkpt lat="47.99833" lon="-4.25989">
        <ele>142.4</ele>
        <time>2024-04-10T19:22:08.170Z</time>
      </trkpt>
      <trkpt lat="47.99818" lon="-4.25942">
        <ele>144</ele>
        <time>2024-04-10T19:22:17.608Z</time>
      </trkpt>
      <trkpt lat="47.99798" lon="-4.25892">
        <ele>144.4</ele>
        <time>2024-04-10T19:22:24.656Z</time>
      </trkpt>
      <trkpt lat="47.99689" lon="-4.25684">
        <ele>142.7</ele>
        <time>2024-04-10T19:22:51.106Z</time>
      </trkpt>
      <trkpt lat="47.99669" lon="-4.25636">
        <ele>143</ele>
        <time>2024-04-10T19:22:57.789Z</time>
      </trkpt>
      <trkpt lat="47.99654" lon="-4.25593">
        <ele>141.6</ele>
        <time>2024-04-10T19:23:01.503Z</time>
      </trkpt>
      <trkpt lat="47.99639" lon="-4.25545">
        <ele>142</ele>
        <time>2024-04-10T19:23:07.980Z</time>
      </trkpt>
      <trkpt lat="47.99621" lon="-4.25465">
        <ele>141</ele>
        <time>2024-04-10T19:23:15.857Z</time>
      </trkpt>
      <trkpt lat="47.99617" lon="-4.2544">
        <ele>141</ele>
        <time>2024-04-10T19:23:18.669Z</time>
      </trkpt>
      <trkpt lat="47.99572" lon="-4.25173">
        <ele>142.4</ele>
        <time>2024-04-10T19:23:51.105Z</time>
      </trkpt>
      <trkpt lat="47.99567" lon="-4.25148">
        <ele>143</ele>
        <time>2024-04-10T19:23:55.216Z</time>
      </trkpt>
      <trkpt lat="47.99555" lon="-4.25084">
        <ele>143</ele>
        <time>2024-04-10T19:24:02.487Z</time>
      </trkpt>
      <trkpt lat="47.99539" lon="-4.24983">
        <ele>144.2</ele>
        <time>2024-04-10T19:24:15.995Z</time>
      </trkpt>
      <trkpt lat="47.99528" lon="-4.24901">
        <ele>145</ele>
        <time>2024-04-10T19:24:26.544Z</time>
      </trkpt>
      <trkpt lat="47.99519" lon="-4.24805">
        <ele>146</ele>
        <time>2024-04-10T19:24:38.916Z</time>
      </trkpt>
      <trkpt lat="47.99519" lon="-4.24732">
        <ele>146.6</ele>
        <time>2024-04-10T19:24:47.934Z</time>
      </trkpt>
      <trkpt lat="47.99522" lon="-4.24666">
        <ele>145.4</ele>
        <time>2024-04-10T19:24:53.649Z</time>
      </trkpt>
      <trkpt lat="47.99541" lon="-4.24425">
        <ele>142.1</ele>
        <time>2024-04-10T19:25:15.804Z</time>
      </trkpt>
      <trkpt lat="47.99543" lon="-4.24375">
        <ele>142.1</ele>
        <time>2024-04-10T19:25:21.284Z</time>
      </trkpt>
      <trkpt lat="47.99542" lon="-4.24277">
        <ele>144.5</ele>
        <time>2024-04-10T19:25:37.139Z</time>
      </trkpt>
      <trkpt lat="47.99542" lon="-4.24262">
        <ele>145.1</ele>
        <time>2024-04-10T19:25:40.389Z</time>
      </trkpt>
      <trkpt lat="47.9954" lon="-4.24212">
        <ele>147.4</ele>
        <time>2024-04-10T19:25:52.610Z</time>
      </trkpt>
      <trkpt lat="47.99507" lon="-4.23836">
        <ele>150.2</ele>
        <time>2024-04-10T19:26:38.861Z</time>
      </trkpt>
      <trkpt lat="47.99506" lon="-4.23829">
        <ele>150</ele>
        <time>2024-04-10T19:26:39.414Z</time>
      </trkpt>
      <trkpt lat="47.99497" lon="-4.23736">
        <ele>149.9</ele>
        <time>2024-04-10T19:26:49.541Z</time>
      </trkpt>
      <trkpt lat="47.99483" lon="-4.23645">
        <ele>148.5</ele>
        <time>2024-04-10T19:26:57.920Z</time>
      </trkpt>
      <trkpt lat="47.99463" lon="-4.23544">
        <ele>146.3</ele>
        <time>2024-04-10T19:27:06.733Z</time>
      </trkpt>
      <trkpt lat="47.99442" lon="-4.23463">
        <ele>146.4</ele>
        <time>2024-04-10T19:27:16.394Z</time>
      </trkpt>
      <trkpt lat="47.99428" lon="-4.23459">
        <ele>145</ele>
        <time>2024-04-10T19:27:17.792Z</time>
      </trkpt>
      <trkpt lat="47.99421" lon="-4.2345">
        <ele>144.3</ele>
        <time>2024-04-10T19:27:18.698Z</time>
      </trkpt>
      <trkpt lat="47.99394" lon="-4.23374">
        <ele>142.4</ele>
        <time>2024-04-10T19:27:25.800Z</time>
      </trkpt>
      <trkpt lat="47.99379" lon="-4.23322">
        <ele>140.9</ele>
        <time>2024-04-10T19:27:30.249Z</time>
      </trkpt>
      <trkpt lat="47.99373" lon="-4.23286">
        <ele>139.9</ele>
        <time>2024-04-10T19:27:33.150Z</time>
      </trkpt>
      <trkpt lat="47.99359" lon="-4.23194">
        <ele>139.1</ele>
        <time>2024-04-10T19:27:42.345Z</time>
      </trkpt>
      <trkpt lat="47.99373" lon="-4.23182">
        <ele>139.4</ele>
        <time>2024-04-10T19:27:45.528Z</time>
      </trkpt>
      <trkpt lat="47.99359" lon="-4.23125">
        <ele>138.1</ele>
        <time>2024-04-10T19:27:50.578Z</time>
      </trkpt>
      <trkpt lat="47.99342" lon="-4.23036">
        <ele>135.4</ele>
        <time>2024-04-10T19:27:57.644Z</time>
      </trkpt>
      <trkpt lat="47.99329" lon="-4.2296">
        <ele>132.7</ele>
        <time>2024-04-10T19:28:03.318Z</time>
      </trkpt>
      <trkpt lat="47.99326" lon="-4.22946">
        <ele>132.3</ele>
        <time>2024-04-10T19:28:04.465Z</time>
      </trkpt>
      <trkpt lat="47.99269" lon="-4.22576">
        <ele>128.9</ele>
        <time>2024-04-10T19:28:41.238Z</time>
      </trkpt>
      <trkpt lat="47.99234" lon="-4.22326">
        <ele>131.7</ele>
        <time>2024-04-10T19:29:14.169Z</time>
      </trkpt>
      <trkpt lat="47.99222" lon="-4.22204">
        <ele>129</ele>
        <time>2024-04-10T19:29:24.369Z</time>
      </trkpt>
      <trkpt lat="47.99211" lon="-4.22026">
        <ele>126.2</ele>
        <time>2024-04-10T19:29:40.281Z</time>
      </trkpt>
      <trkpt lat="47.99209" lon="-4.21901">
        <ele>124.2</ele>
        <time>2024-04-10T19:29:51.367Z</time>
      </trkpt>
      <trkpt lat="47.99209" lon="-4.21798">
        <ele>122.5</ele>
        <time>2024-04-10T19:30:00.442Z</time>
      </trkpt>
      <trkpt lat="47.99215" lon="-4.21655">
        <ele>121.7</ele>
        <time>2024-04-10T19:30:14.953Z</time>
      </trkpt>
      <trkpt lat="47.99219" lon="-4.21529">
        <ele>123</ele>
        <time>2024-04-10T19:30:31.050Z</time>
      </trkpt>
      <trkpt lat="47.99219" lon="-4.21439">
        <ele>124</ele>
        <time>2024-04-10T19:30:42.681Z</time>
      </trkpt>
      <trkpt lat="47.99204" lon="-4.21226">
        <ele>121.5</ele>
        <time>2024-04-10T19:31:02.714Z</time>
      </trkpt>
      <trkpt lat="47.99203" lon="-4.21167">
        <ele>121.2</ele>
        <time>2024-04-10T19:31:08.732Z</time>
      </trkpt>
      <trkpt lat="47.99204" lon="-4.21111">
        <ele>119.1</ele>
        <time>2024-04-10T19:31:12.664Z</time>
      </trkpt>
      <trkpt lat="47.99214" lon="-4.21032">
        <ele>117.4</ele>
        <time>2024-04-10T19:31:19.371Z</time>
      </trkpt>
      <trkpt lat="47.99227" lon="-4.20982">
        <ele>116.8</ele>
        <time>2024-04-10T19:31:24.420Z</time>
      </trkpt>
      <trkpt lat="47.99297" lon="-4.20772">
        <ele>115.1</ele>
        <time>2024-04-10T19:31:47.658Z</time>
      </trkpt>
      <trkpt lat="47.99363" lon="-4.20581">
        <ele>114</ele>
        <time>2024-04-10T19:32:09.565Z</time>
      </trkpt>
      <trkpt lat="47.99483" lon="-4.2029">
        <ele>112.2</ele>
        <time>2024-04-10T19:32:44.328Z</time>
      </trkpt>
      <trkpt lat="47.99553" lon="-4.20122">
        <ele>112.9</ele>
        <time>2024-04-10T19:33:07.114Z</time>
        <extensions>
          <visugpx:TrkExtension xmlns:visugpx="https://www.visugpx.com/editgpx/">
            <visugpx:node>19</visugpx:node>
            </visugpx:TrkExtension>
        </extensions>
      </trkpt>
      <trkpt lat="47.99569" lon="-4.20085">
        <ele>112.5</ele>
        <time>2024-04-10T19:33:11.374Z</time>
      </trkpt>
      <trkpt lat="47.996" lon="-4.20017">
        <ele>114.3</ele>
        <time>2024-04-10T19:33:24.087Z</time>
      </trkpt>
      <trkpt lat="47.99635" lon="-4.19956">
        <ele>119</ele>
        <time>2024-04-10T19:33:49.380Z</time>
      </trkpt>
      <trkpt lat="47.99724" lon="-4.19825">
        <ele>126.6</ele>
        <time>2024-04-10T19:34:30.405Z</time>
      </trkpt>
      <trkpt lat="47.99757" lon="-4.19774">
        <ele>129.6</ele>
        <time>2024-04-10T19:34:46.494Z</time>
      </trkpt>
      <trkpt lat="47.9979" lon="-4.19713">
        <ele>132.6</ele>
        <time>2024-04-10T19:35:02.913Z</time>
      </trkpt>
      <trkpt lat="47.99811" lon="-4.19665">
        <ele>133.5</ele>
        <time>2024-04-10T19:35:10.893Z</time>
      </trkpt>
      <trkpt lat="47.99831" lon="-4.19608">
        <ele>135</ele>
        <time>2024-04-10T19:35:21.089Z</time>
      </trkpt>
      <trkpt lat="47.99835" lon="-4.19595">
        <ele>135.1</ele>
        <time>2024-04-10T19:35:22.823Z</time>
      </trkpt>
      <trkpt lat="47.99841" lon="-4.1957">
        <ele>135.6</ele>
        <time>2024-04-10T19:35:26.717Z</time>
      </trkpt>
      <trkpt lat="47.99863" lon="-4.19488">
        <ele>136.5</ele>
        <time>2024-04-10T19:35:37.969Z</time>
      </trkpt>
      <trkpt lat="47.99861" lon="-4.19467">
        <ele>136.8</ele>
        <time>2024-04-10T19:35:40.846Z</time>
      </trkpt>
      <trkpt lat="47.99857" lon="-4.1946">
        <ele>136.2</ele>
        <time>2024-04-10T19:35:41.450Z</time>
      </trkpt>
      <trkpt lat="47.99855" lon="-4.19451">
        <ele>135.9</ele>
        <time>2024-04-10T19:35:42.156Z</time>
      </trkpt>
      <trkpt lat="47.99854" lon="-4.19443">
        <ele>135.7</ele>
        <time>2024-04-10T19:35:42.809Z</time>
      </trkpt>
      <trkpt lat="47.99858" lon="-4.19427">
        <ele>135.9</ele>
        <time>2024-04-10T19:35:45.037Z</time>
      </trkpt>
      <trkpt lat="47.99863" lon="-4.19419">
        <ele>136</ele>
        <time>2024-04-10T19:35:46.409Z</time>
      </trkpt>
      <trkpt lat="47.99871" lon="-4.19397">
        <ele>135.5</ele>
        <time>2024-04-10T19:35:48.526Z</time>
      </trkpt>
      <trkpt lat="47.99888" lon="-4.19252">
        <ele>134.9</ele>
        <time>2024-04-10T19:36:03.740Z</time>
      </trkpt>
      <trkpt lat="47.99892" lon="-4.19228">
        <ele>134.3</ele>
        <time>2024-04-10T19:36:05.732Z</time>
      </trkpt>
      <trkpt lat="47.99904" lon="-4.19168">
        <ele>133.6</ele>
        <time>2024-04-10T19:36:11.625Z</time>
      </trkpt>
      <trkpt lat="47.9993" lon="-4.19072">
        <ele>137.2</ele>
        <time>2024-04-10T19:36:31.886Z</time>
      </trkpt>
      <trkpt lat="47.99962" lon="-4.18982">
        <ele>138.2</ele>
        <time>2024-04-10T19:36:44.790Z</time>
      </trkpt>
      <trkpt lat="47.99987" lon="-4.18898">
        <ele>137.3</ele>
        <time>2024-04-10T19:36:53.598Z</time>
      </trkpt>
      <trkpt lat="48.00045" lon="-4.18669">
        <ele>135.6</ele>
        <time>2024-04-10T19:37:17.945Z</time>
      </trkpt>
      <trkpt lat="48.00081" lon="-4.1852">
        <ele>136</ele>
        <time>2024-04-10T19:37:35.914Z</time>
      </trkpt>
      <trkpt lat="48.0016" lon="-4.18026">
        <ele>144.3</ele>
        <time>2024-04-10T19:38:47.343Z</time>
      </trkpt>
      <trkpt lat="48.00175" lon="-4.17924">
        <ele>146.7</ele>
        <time>2024-04-10T19:39:03.793Z</time>
      </trkpt>
      <trkpt lat="48.00181" lon="-4.17858">
        <ele>147.5</ele>
        <time>2024-04-10T19:39:12.523Z</time>
      </trkpt>
      <trkpt lat="48.00184" lon="-4.1776">
        <ele>149.6</ele>
        <time>2024-04-10T19:39:27.556Z</time>
      </trkpt>
      <trkpt lat="48.00182" lon="-4.17718">
        <ele>150</ele>
        <time>2024-04-10T19:39:32.861Z</time>
      </trkpt>
      <trkpt lat="48.00172" lon="-4.1762">
        <ele>148.5</ele>
        <time>2024-04-10T19:39:41.741Z</time>
      </trkpt>
      <trkpt lat="48.00161" lon="-4.17517">
        <ele>144.2</ele>
        <time>2024-04-10T19:39:48.804Z</time>
      </trkpt>
      <trkpt lat="48.00157" lon="-4.17495">
        <ele>143.1</ele>
        <time>2024-04-10T19:39:50.300Z</time>
      </trkpt>
      <trkpt lat="48.00149" lon="-4.17465">
        <ele>141.2</ele>
        <time>2024-04-10T19:39:52.420Z</time>
      </trkpt>
      <trkpt lat="48.0009" lon="-4.17281">
        <ele>136.4</ele>
        <time>2024-04-10T19:40:08.984Z</time>
      </trkpt>
      <trkpt lat="48.00088" lon="-4.17274">
        <ele>136.3</ele>
        <time>2024-04-10T19:40:09.683Z</time>
      </trkpt>
      <trkpt lat="48.00033" lon="-4.17092">
        <ele>130.6</ele>
        <time>2024-04-10T19:40:25.030Z</time>
      </trkpt>
      <trkpt lat="48.00003" lon="-4.16955">
        <ele>126.2</ele>
        <time>2024-04-10T19:40:35.878Z</time>
      </trkpt>
      <trkpt lat="47.99975" lon="-4.16864">
        <ele>121.5</ele>
        <time>2024-04-10T19:40:42.452Z</time>
      </trkpt>
      <trkpt lat="47.99964" lon="-4.16813">
        <ele>119.7</ele>
        <time>2024-04-10T19:40:46.360Z</time>
      </trkpt>
      <trkpt lat="47.99924" lon="-4.16561">
        <ele>110</ele>
        <time>2024-04-10T19:41:04.538Z</time>
      </trkpt>
      <trkpt lat="47.99923" lon="-4.16553">
        <ele>109.6</ele>
        <time>2024-04-10T19:41:05.072Z</time>
        <extensions>
          <visugpx:TrkExtension xmlns:visugpx="https://www.visugpx.com/editgpx/">
            <visugpx:node>20</visugpx:node>
            </visugpx:TrkExtension>
        </extensions>
      </trkpt>
      <trkpt lat="47.99913" lon="-4.16494">
        <ele>107.5</ele>
        <time>2024-04-10T19:41:09.470Z</time>
      </trkpt>
      <trkpt lat="47.99908" lon="-4.16433">
        <ele>106</ele>
        <time>2024-04-10T19:41:14.411Z</time>
      </trkpt>
      <trkpt lat="47.99907" lon="-4.16384">
        <ele>104.2</ele>
        <time>2024-04-10T19:41:17.877Z</time>
      </trkpt>
      <trkpt lat="47.99907" lon="-4.16365">
        <ele>104</ele>
        <time>2024-04-10T19:41:19.680Z</time>
      </trkpt>
      <trkpt lat="47.9991" lon="-4.16282">
        <ele>103.5</ele>
        <time>2024-04-10T19:41:28.048Z</time>
      </trkpt>
      <trkpt lat="47.99917" lon="-4.16187">
        <ele>100.5</ele>
        <time>2024-04-10T19:41:35.177Z</time>
      </trkpt>
      <trkpt lat="47.9992" lon="-4.16149">
        <ele>99</ele>
        <time>2024-04-10T19:41:37.818Z</time>
      </trkpt>
      <trkpt lat="47.99926" lon="-4.16117">
        <ele>98.1</ele>
        <time>2024-04-10T19:41:40.412Z</time>
      </trkpt>
      <trkpt lat="47.99938" lon="-4.1608">
        <ele>96</ele>
        <time>2024-04-10T19:41:43.110Z</time>
      </trkpt>
      <trkpt lat="47.99955" lon="-4.16046">
        <ele>94.7</ele>
        <time>2024-04-10T19:41:46.301Z</time>
      </trkpt>
      <trkpt lat="47.99984" lon="-4.16002">
        <ele>92.5</ele>
        <time>2024-04-10T19:41:50.715Z</time>
      </trkpt>
      <trkpt lat="48.00015" lon="-4.15965">
        <ele>90.1</ele>
        <time>2024-04-10T19:41:54.758Z</time>
      </trkpt>
      <trkpt lat="48.00091" lon="-4.15888">
        <ele>86.5</ele>
        <time>2024-04-10T19:42:05.569Z</time>
      </trkpt>
      <trkpt lat="48.00106" lon="-4.15871">
        <ele>85.7</ele>
        <time>2024-04-10T19:42:07.733Z</time>
      </trkpt>
      <trkpt lat="48.00115" lon="-4.15859">
        <ele>85.1</ele>
        <time>2024-04-10T19:42:09.052Z</time>
      </trkpt>
      <trkpt lat="48.00132" lon="-4.1583">
        <ele>85.7</ele>
        <time>2024-04-10T19:42:14.405Z</time>
      </trkpt>
      <trkpt lat="48.00144" lon="-4.15798">
        <ele>85.9</ele>
        <time>2024-04-10T19:42:18.750Z</time>
      </trkpt>
      <trkpt lat="48.00152" lon="-4.15763">
        <ele>87.3</ele>
        <time>2024-04-10T19:42:26.432Z</time>
      </trkpt>
      <trkpt lat="48.00151" lon="-4.15742">
        <ele>88.3</ele>
        <time>2024-04-10T19:42:31.736Z</time>
      </trkpt>
      <trkpt lat="48.00144" lon="-4.15727">
        <ele>88.8</ele>
        <time>2024-04-10T19:42:34.850Z</time>
      </trkpt>
      <trkpt lat="48.00142" lon="-4.15718">
        <ele>89</ele>
        <time>2024-04-10T19:42:36.295Z</time>
      </trkpt>
      <trkpt lat="48.00142" lon="-4.157">
        <ele>89</ele>
        <time>2024-04-10T19:42:38.264Z</time>
      </trkpt>
      <trkpt lat="48.00145" lon="-4.15689">
        <ele>89</ele>
        <time>2024-04-10T19:42:39.563Z</time>
      </trkpt>
      <trkpt lat="48.00149" lon="-4.15679">
        <ele>89</ele>
        <time>2024-04-10T19:42:40.838Z</time>
      </trkpt>
      <trkpt lat="48.00154" lon="-4.15672">
        <ele>89</ele>
        <time>2024-04-10T19:42:41.958Z</time>
      </trkpt>
      <trkpt lat="48.00165" lon="-4.15664">
        <ele>89.5</ele>
        <time>2024-04-10T19:42:45.071Z</time>
      </trkpt>
      <trkpt lat="48.0017" lon="-4.15663">
        <ele>89.6</ele>
        <time>2024-04-10T19:42:46.080Z</time>
      </trkpt>
      <trkpt lat="48.00176" lon="-4.15652">
        <ele>91.1</ele>
        <time>2024-04-10T19:42:52.733Z</time>
      </trkpt>
      <trkpt lat="48.00181" lon="-4.15639">
        <ele>92.4</ele>
        <time>2024-04-10T19:42:59.723Z</time>
      </trkpt>
      <trkpt lat="48.00181" lon="-4.15622">
        <ele>92.8</ele>
        <time>2024-04-10T19:43:02.426Z</time>
      </trkpt>
      <trkpt lat="48.00178" lon="-4.15609">
        <ele>93.2</ele>
        <time>2024-04-10T19:43:04.844Z</time>
      </trkpt>
      <trkpt lat="48.00161" lon="-4.15578">
        <ele>92.3</ele>
        <time>2024-04-10T19:43:08.137Z</time>
      </trkpt>
      <trkpt lat="48.00126" lon="-4.15527">
        <ele>93</ele>
        <time>2024-04-10T19:43:17.354Z</time>
      </trkpt>
      <trkpt lat="48.00111" lon="-4.15503">
        <ele>93</ele>
        <time>2024-04-10T19:43:20.946Z</time>
      </trkpt>
      <trkpt lat="48.00102" lon="-4.15484">
        <ele>93.5</ele>
        <time>2024-04-10T19:43:24.518Z</time>
      </trkpt>
      <trkpt lat="48.00092" lon="-4.15453">
        <ele>94.8</ele>
        <time>2024-04-10T19:43:31.655Z</time>
      </trkpt>
      <trkpt lat="48.00089" lon="-4.15435">
        <ele>95.1</ele>
        <time>2024-04-10T19:43:34.257Z</time>
      </trkpt>
      <trkpt lat="48.00086" lon="-4.15415">
        <ele>95.1</ele>
        <time>2024-04-10T19:43:36.499Z</time>
      </trkpt>
      <trkpt lat="48.00086" lon="-4.15337">
        <ele>97.7</ele>
        <time>2024-04-10T19:43:51.348Z</time>
      </trkpt>
      <trkpt lat="48.00084" lon="-4.15294">
        <ele>98.4</ele>
        <time>2024-04-10T19:43:57.399Z</time>
      </trkpt>
      <trkpt lat="48.00079" lon="-4.15226">
        <ele>100</ele>
        <time>2024-04-10T19:44:08.252Z</time>
      </trkpt>
      <trkpt lat="48.00077" lon="-4.15215">
        <ele>100.2</ele>
        <time>2024-04-10T19:44:09.888Z</time>
      </trkpt>
      <trkpt lat="48.0007" lon="-4.15205">
        <ele>100.5</ele>
        <time>2024-04-10T19:44:12.080Z</time>
      </trkpt>
      <trkpt lat="48.00061" lon="-4.15201">
        <ele>100.8</ele>
        <time>2024-04-10T19:44:14.229Z</time>
      </trkpt>
      <trkpt lat="48.00057" lon="-4.15196">
        <ele>100.9</ele>
        <time>2024-04-10T19:44:15.264Z</time>
      </trkpt>
      <trkpt lat="48.00054" lon="-4.15183">
        <ele>100.9</ele>
        <time>2024-04-10T19:44:16.768Z</time>
      </trkpt>
      <trkpt lat="48.00054" lon="-4.15176">
        <ele>100.9</ele>
        <time>2024-04-10T19:44:17.534Z</time>
      </trkpt>
      <trkpt lat="48.00057" lon="-4.15167">
        <ele>101</ele>
        <time>2024-04-10T19:44:18.810Z</time>
      </trkpt>
      <trkpt lat="48.00062" lon="-4.1516">
        <ele>101</ele>
        <time>2024-04-10T19:44:19.930Z</time>
      </trkpt>
      <trkpt lat="48.00064" lon="-4.15137">
        <ele>101</ele>
        <time>2024-04-10T19:44:22.467Z</time>
      </trkpt>
      <trkpt lat="48.00063" lon="-4.15122">
        <ele>101</ele>
        <time>2024-04-10T19:44:24.116Z</time>
      </trkpt>
      <trkpt lat="48.00043" lon="-4.14975">
        <ele>101</ele>
        <time>2024-04-10T19:44:40.524Z</time>
      </trkpt>
      <trkpt lat="48.0004" lon="-4.14959">
        <ele>101</ele>
        <time>2024-04-10T19:44:42.342Z</time>
      </trkpt>
      <trkpt lat="48.00032" lon="-4.14931">
        <ele>100.6</ele>
        <time>2024-04-10T19:44:45.137Z</time>
      </trkpt>
      <trkpt lat="48.00019" lon="-4.14908">
        <ele>97.6</ele>
        <time>2024-04-10T19:44:47.113Z</time>
      </trkpt>
      <trkpt lat="48.00005" lon="-4.14884">
        <ele>94</ele>
        <time>2024-04-10T19:44:49.203Z</time>
      </trkpt>
      <trkpt lat="47.99985" lon="-4.14857">
        <ele>96.3</ele>
        <time>2024-04-10T19:45:01.535Z</time>
      </trkpt>
      <trkpt lat="47.99951" lon="-4.14824">
        <ele>98.5</ele>
        <time>2024-04-10T19:45:13.748Z</time>
      </trkpt>
      <trkpt lat="47.99944" lon="-4.14827">
        <ele>98.2</ele>
        <time>2024-04-10T19:45:14.593Z</time>
      </trkpt>
      <trkpt lat="47.99938" lon="-4.14827">
        <ele>98</ele>
        <time>2024-04-10T19:45:15.331Z</time>
      </trkpt>
      <trkpt lat="47.99932" lon="-4.14824">
        <ele>97.9</ele>
        <time>2024-04-10T19:45:16.228Z</time>
      </trkpt>
      <trkpt lat="47.99926" lon="-4.14818">
        <ele>97.9</ele>
        <time>2024-04-10T19:45:17.408Z</time>
      </trkpt>
      <trkpt lat="47.99922" lon="-4.14811">
        <ele>98</ele>
        <time>2024-04-10T19:45:18.593Z</time>
      </trkpt>
      <trkpt lat="47.99919" lon="-4.14796">
        <ele>98.1</ele>
        <time>2024-04-10T19:45:20.473Z</time>
      </trkpt>
      <trkpt lat="47.99919" lon="-4.14788">
        <ele>98.1</ele>
        <time>2024-04-10T19:45:21.348Z</time>
      </trkpt>
      <trkpt lat="47.99921" lon="-4.14778">
        <ele>98.2</ele>
        <time>2024-04-10T19:45:22.665Z</time>
      </trkpt>
      <trkpt lat="47.99926" lon="-4.1477">
        <ele>98.2</ele>
        <time>2024-04-10T19:45:23.863Z</time>
      </trkpt>
      <trkpt lat="47.99927" lon="-4.14768">
        <ele>98.2</ele>
        <time>2024-04-10T19:45:24.136Z</time>
        <extensions>
          <visugpx:TrkExtension xmlns:visugpx="https://www.visugpx.com/editgpx/">
            <visugpx:node>21</visugpx:node>
            </visugpx:TrkExtension>
        </extensions>
      </trkpt>
      <trkpt lat="47.99927" lon="-4.14768">
        <ele>98.2</ele>
        <time>2024-04-10T19:45:24.136Z</time>
      </trkpt>
      <trkpt lat="47.99931" lon="-4.14764">
        <ele>98.3</ele>
        <time>2024-04-10T19:45:25.108Z</time>
      </trkpt>
      <trkpt lat="47.99938" lon="-4.14761">
        <ele>98.3</ele>
        <time>2024-04-10T19:45:26.298Z</time>
      </trkpt>
      <trkpt lat="47.99946" lon="-4.14742">
        <ele>98.3</ele>
        <time>2024-04-10T19:45:28.754Z</time>
      </trkpt>
      <trkpt lat="47.99957" lon="-4.1471">
        <ele>99.2</ele>
        <time>2024-04-10T19:45:34.628Z</time>
      </trkpt>
      <trkpt lat="47.9997" lon="-4.14643">
        <ele>98.2</ele>
        <time>2024-04-10T19:45:40.939Z</time>
      </trkpt>
      <trkpt lat="47.99974" lon="-4.14612">
        <ele>97</ele>
        <time>2024-04-10T19:45:43.143Z</time>
      </trkpt>
      <trkpt lat="47.99975" lon="-4.14587">
        <ele>96.9</ele>
        <time>2024-04-10T19:45:45.734Z</time>
      </trkpt>
      <trkpt lat="47.99974" lon="-4.14558">
        <ele>96</ele>
        <time>2024-04-10T19:45:47.909Z</time>
      </trkpt>
      <trkpt lat="47.9997" lon="-4.14526">
        <ele>95.2</ele>
        <time>2024-04-10T19:45:50.521Z</time>
      </trkpt>
      <trkpt lat="47.99924" lon="-4.14306">
        <ele>91</ele>
        <time>2024-04-10T19:46:10.415Z</time>
      </trkpt>
      <trkpt lat="47.99915" lon="-4.1426">
        <ele>90</ele>
        <time>2024-04-10T19:46:14.425Z</time>
      </trkpt>
      <trkpt lat="47.99911" lon="-4.14231">
        <ele>89.3</ele>
        <time>2024-04-10T19:46:16.826Z</time>
      </trkpt>
      <trkpt lat="47.99907" lon="-4.1418">
        <ele>89</ele>
        <time>2024-04-10T19:46:22.008Z</time>
      </trkpt>
      <trkpt lat="47.99904" lon="-4.14112">
        <ele>89.5</ele>
        <time>2024-04-10T19:46:30.313Z</time>
      </trkpt>
      <trkpt lat="47.99903" lon="-4.14063">
        <ele>89</ele>
        <time>2024-04-10T19:46:34.984Z</time>
      </trkpt>
      <trkpt lat="47.99903" lon="-4.14035">
        <ele>89.4</ele>
        <time>2024-04-10T19:46:38.792Z</time>
      </trkpt>
      <trkpt lat="47.99906" lon="-4.13939">
        <ele>89.5</ele>
        <time>2024-04-10T19:46:49.462Z</time>
      </trkpt>
      <trkpt lat="47.99914" lon="-4.13792">
        <ele>85.7</ele>
        <time>2024-04-10T19:47:01.142Z</time>
      </trkpt>
      <trkpt lat="47.99913" lon="-4.13738">
        <ele>84.8</ele>
        <time>2024-04-10T19:47:05.892Z</time>
      </trkpt>
      <trkpt lat="47.99912" lon="-4.1373">
        <ele>84.6</ele>
        <time>2024-04-10T19:47:06.545Z</time>
      </trkpt>
      <trkpt lat="47.99909" lon="-4.13679">
        <ele>83.1</ele>
        <time>2024-04-10T19:47:10.448Z</time>
      </trkpt>
      <trkpt lat="47.99894" lon="-4.13522">
        <ele>81.8</ele>
        <time>2024-04-10T19:47:25.959Z</time>
      </trkpt>
      <trkpt lat="47.99893" lon="-4.13496">
        <ele>81.8</ele>
        <time>2024-04-10T19:47:28.808Z</time>
      </trkpt>
      <trkpt lat="47.99894" lon="-4.13472">
        <ele>82.3</ele>
        <time>2024-04-10T19:47:32.454Z</time>
      </trkpt>
      <trkpt lat="47.99898" lon="-4.1345">
        <ele>81.4</ele>
        <time>2024-04-10T19:47:34.024Z</time>
      </trkpt>
      <trkpt lat="47.99919" lon="-4.13382">
        <ele>80.7</ele>
        <time>2024-04-10T19:47:41.240Z</time>
      </trkpt>
      <trkpt lat="47.99924" lon="-4.13354">
        <ele>80</ele>
        <time>2024-04-10T19:47:43.576Z</time>
      </trkpt>
      <trkpt lat="47.99924" lon="-4.13337">
        <ele>79.7</ele>
        <time>2024-04-10T19:47:45.053Z</time>
      </trkpt>
      <trkpt lat="47.99921" lon="-4.13321">
        <ele>79.6</ele>
        <time>2024-04-10T19:47:46.726Z</time>
      </trkpt>
      <trkpt lat="47.99916" lon="-4.13305">
        <ele>80</ele>
        <time>2024-04-10T19:47:49.492Z</time>
      </trkpt>
      <trkpt lat="47.99884" lon="-4.13224">
        <ele>77.9</ele>
        <time>2024-04-10T19:47:57.233Z</time>
      </trkpt>
      <trkpt lat="47.9988" lon="-4.13205">
        <ele>77.3</ele>
        <time>2024-04-10T19:47:58.738Z</time>
      </trkpt>
      <trkpt lat="47.99879" lon="-4.13188">
        <ele>77</ele>
        <time>2024-04-10T19:48:00.222Z</time>
      </trkpt>
      <trkpt lat="47.99882" lon="-4.1317">
        <ele>76.6</ele>
        <time>2024-04-10T19:48:01.762Z</time>
      </trkpt>
      <trkpt lat="47.99886" lon="-4.13159">
        <ele>76</ele>
        <time>2024-04-10T19:48:02.584Z</time>
      </trkpt>
      <trkpt lat="47.99914" lon="-4.13094">
        <ele>74</ele>
        <time>2024-04-10T19:48:08.699Z</time>
      </trkpt>
      <trkpt lat="47.99927" lon="-4.13054">
        <ele>71.7</ele>
        <time>2024-04-10T19:48:11.618Z</time>
      </trkpt>
      <trkpt lat="47.99932" lon="-4.13028">
        <ele>70.6</ele>
        <time>2024-04-10T19:48:13.459Z</time>
      </trkpt>
      <trkpt lat="47.99934" lon="-4.12991">
        <ele>71</ele>
        <time>2024-04-10T19:48:18.231Z</time>
      </trkpt>
      <trkpt lat="47.99931" lon="-4.12948">
        <ele>69.6</ele>
        <time>2024-04-10T19:48:21.422Z</time>
      </trkpt>
      <trkpt lat="47.99923" lon="-4.12912">
        <ele>67.8</ele>
        <time>2024-04-10T19:48:23.912Z</time>
      </trkpt>
      <trkpt lat="47.99916" lon="-4.12891">
        <ele>68.2</ele>
        <time>2024-04-10T19:48:27.251Z</time>
      </trkpt>
      <trkpt lat="47.99906" lon="-4.12867">
        <ele>68</ele>
        <time>2024-04-10T19:48:30.057Z</time>
      </trkpt>
      <trkpt lat="47.99893" lon="-4.12842">
        <ele>66.7</ele>
        <time>2024-04-10T19:48:32.204Z</time>
      </trkpt>
      <trkpt lat="47.99856" lon="-4.128">
        <ele>64.1</ele>
        <time>2024-04-10T19:48:37.079Z</time>
      </trkpt>
      <trkpt lat="47.99849" lon="-4.1279">
        <ele>63.7</ele>
        <time>2024-04-10T19:48:38.202Z</time>
      </trkpt>
      <trkpt lat="47.99839" lon="-4.12765">
        <ele>62</ele>
        <time>2024-04-10T19:48:40.113Z</time>
      </trkpt>
      <trkpt lat="47.99837" lon="-4.12744">
        <ele>60.4</ele>
        <time>2024-04-10T19:48:41.506Z</time>
      </trkpt>
      <trkpt lat="47.9984" lon="-4.12725">
        <ele>58</ele>
        <time>2024-04-10T19:48:42.787Z</time>
      </trkpt>
      <trkpt lat="47.99848" lon="-4.12701">
        <ele>58.4</ele>
        <time>2024-04-10T19:48:46.470Z</time>
      </trkpt>
      <trkpt lat="47.9988" lon="-4.12644">
        <ele>57.7</ele>
        <time>2024-04-10T19:48:53.634Z</time>
      </trkpt>
      <trkpt lat="47.99889" lon="-4.12623">
        <ele>57.6</ele>
        <time>2024-04-10T19:48:56.213Z</time>
        <extensions>
          <visugpx:TrkExtension xmlns:visugpx="https://www.visugpx.com/editgpx/">
            <visugpx:node>22</visugpx:node>
            </visugpx:TrkExtension>
        </extensions>
      </trkpt>
      <trkpt lat="47.99894" lon="-4.12613">
        <ele>57.7</ele>
        <time>2024-04-10T19:48:57.750Z</time>
      </trkpt>
      <trkpt lat="47.99898" lon="-4.12592">
        <ele>58.1</ele>
        <time>2024-04-10T19:49:00.924Z</time>
      </trkpt>
      <trkpt lat="47.999" lon="-4.12571">
        <ele>57.8</ele>
        <time>2024-04-10T19:49:02.848Z</time>
      </trkpt>
      <trkpt lat="47.99898" lon="-4.12551">
        <ele>57.1</ele>
        <time>2024-04-10T19:49:04.307Z</time>
      </trkpt>
      <trkpt lat="47.9986" lon="-4.12319">
        <ele>50.7</ele>
        <time>2024-04-10T19:49:23.012Z</time>
      </trkpt>
      <trkpt lat="47.99851" lon="-4.12292">
        <ele>50.4</ele>
        <time>2024-04-10T19:49:25.896Z</time>
      </trkpt>
      <trkpt lat="47.99841" lon="-4.12271">
        <ele>49.8</ele>
        <time>2024-04-10T19:49:27.994Z</time>
      </trkpt>
      <trkpt lat="47.99829" lon="-4.12253">
        <ele>49.9</ele>
        <time>2024-04-10T19:49:30.937Z</time>
      </trkpt>
      <trkpt lat="47.99816" lon="-4.12232">
        <ele>48</ele>
        <time>2024-04-10T19:49:32.814Z</time>
      </trkpt>
      <trkpt lat="47.99786" lon="-4.12194">
        <ele>47.1</ele>
        <time>2024-04-10T19:49:38.068Z</time>
      </trkpt>
      <trkpt lat="47.99769" lon="-4.12164">
        <ele>46.7</ele>
        <time>2024-04-10T19:49:41.815Z</time>
      </trkpt>
      <trkpt lat="47.99763" lon="-4.12151">
        <ele>46.2</ele>
        <time>2024-04-10T19:49:42.990Z</time>
      </trkpt>
      <trkpt lat="47.99758" lon="-4.1213">
        <ele>45.2</ele>
        <time>2024-04-10T19:49:44.453Z</time>
      </trkpt>
      <trkpt lat="47.99752" lon="-4.12101">
        <ele>45.3</ele>
        <time>2024-04-10T19:49:47.935Z</time>
      </trkpt>
      <trkpt lat="47.99748" lon="-4.12057">
        <ele>44.3</ele>
        <time>2024-04-10T19:49:51.581Z</time>
      </trkpt>
      <trkpt lat="47.99745" lon="-4.11962">
        <ele>42.4</ele>
        <time>2024-04-10T19:49:59.623Z</time>
      </trkpt>
      <trkpt lat="47.99744" lon="-4.11945">
        <ele>42.2</ele>
        <time>2024-04-10T19:50:01.218Z</time>
      </trkpt>
      <trkpt lat="47.99744" lon="-4.11935">
        <ele>41.9</ele>
        <time>2024-04-10T19:50:01.975Z</time>
      </trkpt>
      <trkpt lat="47.99744" lon="-4.1192">
        <ele>41.3</ele>
        <time>2024-04-10T19:50:03.002Z</time>
      </trkpt>
      <trkpt lat="47.99751" lon="-4.11847">
        <ele>39.9</ele>
        <time>2024-04-10T19:50:09.311Z</time>
      </trkpt>
      <trkpt lat="47.99754" lon="-4.11818">
        <ele>39.1</ele>
        <time>2024-04-10T19:50:11.597Z</time>
      </trkpt>
      <trkpt lat="47.99759" lon="-4.11796">
        <ele>38.4</ele>
        <time>2024-04-10T19:50:13.353Z</time>
      </trkpt>
      <trkpt lat="47.99771" lon="-4.11765">
        <ele>37.5</ele>
        <time>2024-04-10T19:50:16.209Z</time>
      </trkpt>
      <trkpt lat="47.99784" lon="-4.11737">
        <ele>36.4</ele>
        <time>2024-04-10T19:50:18.728Z</time>
      </trkpt>
      <trkpt lat="47.99806" lon="-4.11701">
        <ele>35.7</ele>
        <time>2024-04-10T19:50:23.137Z</time>
      </trkpt>
      <trkpt lat="47.99865" lon="-4.11632">
        <ele>33.6</ele>
        <time>2024-04-10T19:50:32.740Z</time>
      </trkpt>
      <trkpt lat="47.99881" lon="-4.11608">
        <ele>32.6</ele>
        <time>2024-04-10T19:50:35.317Z</time>
      </trkpt>
      <trkpt lat="47.99894" lon="-4.11576">
        <ele>31.7</ele>
        <time>2024-04-10T19:50:38.339Z</time>
      </trkpt>
      <trkpt lat="47.99901" lon="-4.11553">
        <ele>31.6</ele>
        <time>2024-04-10T19:50:40.954Z</time>
      </trkpt>
      <trkpt lat="47.99912" lon="-4.11524">
        <ele>31.2</ele>
        <time>2024-04-10T19:50:44.059Z</time>
      </trkpt>
      <trkpt lat="47.99939" lon="-4.11454">
        <ele>29.4</ele>
        <time>2024-04-10T19:50:50.712Z</time>
      </trkpt>
      <trkpt lat="47.9995" lon="-4.11432">
        <ele>28.4</ele>
        <time>2024-04-10T19:50:52.659Z</time>
      </trkpt>
      <trkpt lat="47.99952" lon="-4.11427">
        <ele>28.2</ele>
        <time>2024-04-10T19:50:53.081Z</time>
      </trkpt>
      <trkpt lat="47.99975" lon="-4.11369">
        <ele>26.7</ele>
        <time>2024-04-10T19:50:58.634Z</time>
      </trkpt>
      <trkpt lat="47.99982" lon="-4.1135">
        <ele>26.1</ele>
        <time>2024-04-10T19:51:00.317Z</time>
      </trkpt>
      <trkpt lat="48.00003" lon="-4.11294">
        <ele>24.2</ele>
        <time>2024-04-10T19:51:05.195Z</time>
      </trkpt>
      <trkpt lat="48.00012" lon="-4.11256">
        <ele>21.8</ele>
        <time>2024-04-10T19:51:07.841Z</time>
      </trkpt>
      <trkpt lat="48.00013" lon="-4.11239">
        <ele>21.6</ele>
        <time>2024-04-10T19:51:09.436Z</time>
      </trkpt>
      <trkpt lat="48.00047" lon="-4.11264">
        <ele>18.3</ele>
        <time>2024-04-10T19:51:13.152Z</time>
      </trkpt>
      <trkpt lat="48.00056" lon="-4.11273">
        <ele>17.1</ele>
        <time>2024-04-10T19:51:14.215Z</time>
      </trkpt>
      <trkpt lat="48.00084" lon="-4.11294">
        <ele>15</ele>
        <time>2024-04-10T19:51:17.287Z</time>
      </trkpt>
      <trkpt lat="48.00095" lon="-4.11303">
        <ele>14.2</ele>
        <time>2024-04-10T19:51:18.540Z</time>
      </trkpt>
      <trkpt lat="48.00103" lon="-4.1131">
        <ele>13.7</ele>
        <time>2024-04-10T19:51:19.525Z</time>
      </trkpt>
      <trkpt lat="48.00136" lon="-4.11337">
        <ele>11.4</ele>
        <time>2024-04-10T19:51:23.344Z</time>
      </trkpt>
      <trkpt lat="48.00156" lon="-4.11352">
        <ele>10</ele>
        <time>2024-04-10T19:51:25.595Z</time>
      </trkpt>
      <trkpt lat="48.0019" lon="-4.1138">
        <ele>6.6</ele>
        <time>2024-04-10T19:51:29.402Z</time>
      </trkpt>
      <trkpt lat="48.00197" lon="-4.11383">
        <ele>6.2</ele>
        <time>2024-04-10T19:51:30.171Z</time>
      </trkpt>
      <trkpt lat="48.00203" lon="-4.11387">
        <ele>6</ele>
        <time>2024-04-10T19:51:30.998Z</time>
      </trkpt>
      <trkpt lat="48.00213" lon="-4.11394">
        <ele>6</ele>
        <time>2024-04-10T19:51:32.803Z</time>
      </trkpt>
      <trkpt lat="48.00222" lon="-4.11393">
        <ele>6</ele>
        <time>2024-04-10T19:51:34.278Z</time>
      </trkpt>
      <trkpt lat="48.00224" lon="-4.11391">
        <ele>5.9</ele>
        <time>2024-04-10T19:51:34.557Z</time>
      </trkpt>
      <trkpt lat="48.00232" lon="-4.11389">
        <ele>5.6</ele>
        <time>2024-04-10T19:51:35.528Z</time>
      </trkpt>
      <trkpt lat="48.00235" lon="-4.1139">
        <ele>5.5</ele>
        <time>2024-04-10T19:51:35.908Z</time>
      </trkpt>
      <trkpt lat="48.00237" lon="-4.11393">
        <ele>5.5</ele>
        <time>2024-04-10T19:51:36.371Z</time>
      </trkpt>
      <trkpt lat="48.0024" lon="-4.11404">
        <ele>5.4</ele>
        <time>2024-04-10T19:51:37.530Z</time>
      </trkpt>
      <trkpt lat="48.00246" lon="-4.11417">
        <ele>5.1</ele>
        <time>2024-04-10T19:51:38.880Z</time>
      </trkpt>
      <trkpt lat="48.00254" lon="-4.11426">
        <ele>5</ele>
        <time>2024-04-10T19:51:40.373Z</time>
      </trkpt>
      <trkpt lat="48.0027" lon="-4.11438">
        <ele>5</ele>
        <time>2024-04-10T19:51:43.300Z</time>
      </trkpt>
      <trkpt lat="48.00294" lon="-4.1146">
        <ele>4.7</ele>
        <time>2024-04-10T19:51:47.473Z</time>
      </trkpt>
      <trkpt lat="48.003" lon="-4.1147">
        <ele>4.9</ele>
        <time>2024-04-10T19:51:49.318Z</time>
      </trkpt>
      <trkpt lat="48.00304" lon="-4.11477">
        <ele>5</ele>
        <time>2024-04-10T19:51:50.502Z</time>
      </trkpt>
      <trkpt lat="48.00343" lon="-4.1157">
        <ele>5.8</ele>
        <time>2024-04-10T19:52:03.868Z</time>
      </trkpt>
      <trkpt lat="48.00343" lon="-4.11572">
        <ele>5.9</ele>
        <time>2024-04-10T19:52:04.398Z</time>
      </trkpt>
      <trkpt lat="48.00348" lon="-4.1158">
        <ele>5.9</ele>
        <time>2024-04-10T19:52:05.595Z</time>
      </trkpt>
      <trkpt lat="48.00355" lon="-4.11594">
        <ele>6</ele>
        <time>2024-04-10T19:52:07.674Z</time>
      </trkpt>
      <trkpt lat="48.00359" lon="-4.11607">
        <ele>6</ele>
        <time>2024-04-10T19:52:09.239Z</time>
      </trkpt>
      <trkpt lat="48.00361" lon="-4.11614">
        <ele>6</ele>
        <time>2024-04-10T19:52:10.071Z</time>
      </trkpt>
      <trkpt lat="48.00362" lon="-4.11617">
        <ele>6</ele>
        <time>2024-04-10T19:52:10.438Z</time>
      </trkpt>
      <trkpt lat="48.00384" lon="-4.11673">
        <ele>7</ele>
        <time>2024-04-10T19:52:19.429Z</time>
      </trkpt>
      <trkpt lat="48.00393" lon="-4.1169">
        <ele>7</ele>
        <time>2024-04-10T19:52:21.800Z</time>
      </trkpt>
      <trkpt lat="48.00418" lon="-4.11721">
        <ele>8</ele>
        <time>2024-04-10T19:52:29.137Z</time>
      </trkpt>
      <trkpt lat="48.00422" lon="-4.11723">
        <ele>8</ele>
        <time>2024-04-10T19:52:29.826Z</time>
      </trkpt>
      <trkpt lat="48.00423" lon="-4.11727">
        <ele>8.2</ele>
        <time>2024-04-10T19:52:30.888Z</time>
      </trkpt>
      <trkpt lat="48.00423" lon="-4.11729">
        <ele>8.2</ele>
        <time>2024-04-10T19:52:31.106Z</time>
      </trkpt>
      <trkpt lat="48.00459" lon="-4.11758">
        <ele>9.1</ele>
        <time>2024-04-10T19:52:39.476Z</time>
      </trkpt>
      <trkpt lat="48.00469" lon="-4.11731">
        <ele>8</ele>
        <time>2024-04-10T19:52:41.681Z</time>
      </trkpt>
      <trkpt lat="48.00478" lon="-4.11721">
        <ele>7.7</ele>
        <time>2024-04-10T19:52:43.133Z</time>
      </trkpt>
      <trkpt lat="48.00484" lon="-4.11719">
        <ele>7.5</ele>
        <time>2024-04-10T19:52:43.894Z</time>
      </trkpt>
      <trkpt lat="48.00511" lon="-4.11712">
        <ele>6.6</ele>
        <time>2024-04-10T19:52:47.277Z</time>
      </trkpt>
      <trkpt lat="48.00537" lon="-4.117">
        <ele>6.5</ele>
        <time>2024-04-10T19:52:51.575Z</time>
      </trkpt>
      <trkpt lat="48.00596" lon="-4.11658">
        <ele>6.3</ele>
        <time>2024-04-10T19:53:01.954Z</time>
      </trkpt>
      <trkpt lat="48.00613" lon="-4.11648">
        <ele>6.3</ele>
        <time>2024-04-10T19:53:04.941Z</time>
      </trkpt>
      <trkpt lat="48.00619" lon="-4.11646">
        <ele>6.2</ele>
        <time>2024-04-10T19:53:05.809Z</time>
      </trkpt>
      <trkpt lat="48.00624" lon="-4.11637">
        <ele>6</ele>
        <time>2024-04-10T19:53:06.832Z</time>
      </trkpt>
      <trkpt lat="48.0063" lon="-4.11634">
        <ele>6</ele>
        <time>2024-04-10T19:53:07.866Z</time>
      </trkpt>
      <trkpt lat="48.00636" lon="-4.11632">
        <ele>6</ele>
        <time>2024-04-10T19:53:08.871Z</time>
      </trkpt>
      <trkpt lat="48.00643" lon="-4.11635">
        <ele>6.1</ele>
        <time>2024-04-10T19:53:10.236Z</time>
      </trkpt>
      <trkpt lat="48.00649" lon="-4.11631">
        <ele>6.3</ele>
        <time>2024-04-10T19:53:11.714Z</time>
      </trkpt>
      <trkpt lat="48.00657" lon="-4.11625">
        <ele>6.3</ele>
        <time>2024-04-10T19:53:13.177Z</time>
      </trkpt>
      <trkpt lat="48.00683" lon="-4.11606">
        <ele>6.5</ele>
        <time>2024-04-10T19:53:18.237Z</time>
      </trkpt>
      <trkpt lat="48.00683" lon="-4.11607">
        <ele>6.5</ele>
        <time>2024-04-10T19:53:18.346Z</time>
        <extensions>
          <visugpx:TrkExtension xmlns:visugpx="https://www.visugpx.com/editgpx/">
            <visugpx:node>23</visugpx:node>
            </visugpx:TrkExtension>
        </extensions>
      </trkpt>
    </trkseg>
  </trk>
</gpx>